Provisional Data: Blockhouse Creek near English Center, PA


Please select a monitoring station.
Please select start date.
Please select start date.

Toggle Unit: C/F Toggle Unit: C/F
Sample Time Temperature (C) Temperature (F) Specific Conductivity (mS/cm) pH   Turbidity (NTU+) DO (mg/L)
10/17/2022 12:00:00 AM 9.85 49.73 0.137 7.44 2.57 10.82
10/17/2022 12:15:00 AM 9.8 49.64 0.136 7.44 2.58 10.83
10/17/2022 12:30:00 AM 9.75 49.55 0.137 7.44 2.57 10.85
10/17/2022 12:45:00 AM 9.7 49.46 0.137 7.44 2.49 10.85
10/17/2022 1:00:00 AM 9.66 49.388 0.137 7.44 2.51 10.85
10/17/2022 1:15:00 AM 9.6 49.28 0.137 7.44 2.54 10.87
10/17/2022 1:30:00 AM 9.54 49.172 0.137 7.43 2.57 10.89
10/17/2022 1:45:00 AM 9.49 49.082 0.137 7.43 2.47 10.9
10/17/2022 2:00:00 AM 9.45 49.01 0.137 7.43 2.47 10.91
10/17/2022 2:15:00 AM 9.41 48.938 0.137 7.43 2.5 10.93
10/17/2022 2:30:00 AM 9.37 48.866 0.137 7.43 2.53 10.95
10/17/2022 2:45:00 AM 9.33 48.794 0.137 7.43 2.5 10.95
10/17/2022 3:00:00 AM 9.3 48.74 0.137 7.43 2.46 10.96
10/17/2022 3:15:00 AM 9.26 48.668 0.137 7.43 2.49 10.97
10/17/2022 3:30:00 AM 9.22 48.596 0.137 7.43 2.65 10.98
10/17/2022 3:45:00 AM 9.18 48.524 0.137 7.43 2.53 10.99
10/17/2022 4:00:00 AM 9.14 48.452 0.137 7.43 2.57 10.99
10/17/2022 4:15:00 AM 9.11 48.398 0.137 7.43 2.62 11
10/17/2022 4:30:00 AM 9.07 48.326 0.137 7.43 2.55 11.01
10/17/2022 4:45:00 AM 9.04 48.272 0.137 7.43 2.5 11.01
10/17/2022 5:00:00 AM 9.01 48.218 0.137 7.43 2.61 11.01
10/17/2022 5:15:00 AM 8.97 48.146 0.137 7.43 2.52 11.03
10/17/2022 5:30:00 AM 8.95 48.11 0.137 7.43 2.56 11.04
10/17/2022 5:45:00 AM 8.92 48.056 0.137 7.43 2.59 11.05
10/17/2022 6:00:00 AM 8.9 48.02 0.137 7.42 2.53 11.06
10/17/2022 6:15:00 AM 8.88 47.984 0.137 7.43 2.52 11.07
10/17/2022 6:30:00 AM 8.86 47.948 0.137 7.43 2.51 11.08
10/17/2022 6:45:00 AM 8.84 47.912 0.137 7.42 2.52 11.08
10/17/2022 7:00:00 AM 8.82 47.876 0.137 7.43 2.53 11.08
10/17/2022 7:15:00 AM 8.8 47.84 0.137 7.43 2.55 11.09
10/17/2022 7:30:00 AM 8.78 47.804 0.137 7.43 2.53 11.1
10/17/2022 7:45:00 AM 8.78 47.804 0.137 7.43 2.51 11.13
10/17/2022 8:00:00 AM 8.78 47.804 0.137 7.44 2.55 11.17
10/17/2022 8:15:00 AM 8.78 47.804 0.137 7.44 2.59 11.18
10/17/2022 8:30:00 AM 8.78 47.804 0.137 7.45 2.58 11.23
10/17/2022 8:45:00 AM 8.79 47.822 0.137 7.46 2.56 11.28
10/17/2022 9:00:00 AM 8.8 47.84 0.137 7.48 2.5 11.37
10/17/2022 9:15:00 AM 8.82 47.876 0.137 7.5 2.48 11.44
10/17/2022 9:30:00 AM 8.85 47.93 0.136 7.53 2.59 11.56
10/17/2022 9:45:00 AM 8.89 48.002 0.136 7.56 2.53 11.69
10/17/2022 10:00:00 AM 8.94 48.092 0.136 7.59 2.47 11.77
10/17/2022 10:15:00 AM 8.99 48.182 0.136 7.63 2.46 11.86
10/17/2022 10:30:00 AM 9.07 48.326 0.136 7.67 2.51 11.94
10/17/2022 10:45:00 AM 9.14 48.452 0.136 7.71 2.44 11.99
10/17/2022 11:00:00 AM 9.24 48.632 0.136 7.74 2.46 12.02
10/17/2022 11:15:00 AM 9.35 48.83 0.135 7.77 2.39 12.03
10/17/2022 11:30:00 AM 9.42 48.956 0.136 7.77 2.45 11.91
10/17/2022 11:45:00 AM 9.48 49.064 0.136 7.75 2.43 11.77
10/17/2022 12:00:00 PM 9.52 49.136 0.136 7.72 2.39 11.68
10/17/2022 12:15:00 PM 9.6 49.28 0.135 7.75 2.4 11.75
10/17/2022 12:30:00 PM 9.74 49.532 0.135 7.81 2.43 11.89
10/17/2022 12:45:00 PM 9.91 49.838 0.135 7.88 2.38 12
10/17/2022 1:00:00 PM 9.96 49.928 0.135 7.91 2.42 12
10/17/2022 1:15:00 PM 10.03 50.054 0.135 7.95 2.45 12
10/17/2022 1:30:00 PM 10.07 50.126 0.135 7.97 2.47 11.99
10/17/2022 1:45:00 PM 10.18 50.324 0.134 8.02 2.46 12.03
10/17/2022 2:00:00 PM 10.32 50.576 0.134 8.06 2.47 12.04
10/17/2022 2:15:00 PM 10.4 50.72 0.134 8.08 2.5 12
10/17/2022 2:30:00 PM 10.46 50.828 0.134 8.07 2.45 11.93
10/17/2022 2:45:00 PM 10.47 50.846 0.134 8.06 2.48 11.88
10/17/2022 3:00:00 PM 10.57 51.026 0.134 8.09 2.5 11.92
10/17/2022 3:15:00 PM 10.58 51.044 0.134 8.09 2.5 11.87
10/17/2022 3:30:00 PM 10.62 51.116 0.134 8.09 2.49 11.86
10/17/2022 3:45:00 PM 10.67 51.206 0.134 8.1 2.51 11.85
10/17/2022 4:00:00 PM 10.65 51.17 0.134 8.1 2.49 11.83
10/17/2022 4:15:00 PM 10.69 51.242 0.134 8.08 2.51 11.76
10/17/2022 4:30:00 PM 10.7 51.26 0.134 8.06 2.54 11.71
10/17/2022 4:45:00 PM 10.68 51.224 0.134 8.04 2.57 11.68
10/17/2022 5:00:00 PM 10.66 51.188 0.134 8.01 2.49 11.63
10/17/2022 5:15:00 PM 10.65 51.17 0.134 7.96 2.56 11.52
10/17/2022 5:30:00 PM 10.61 51.098 0.134 7.9 2.52 11.42
10/17/2022 5:45:00 PM 10.55 50.99 0.134 7.85 2.55 11.35
10/17/2022 6:00:00 PM 10.46 50.828 0.135 7.8 2.54 11.26
10/17/2022 6:15:00 PM 10.35 50.63 0.135 7.75 2.51 11.14
10/17/2022 6:30:00 PM 10.24 50.432 0.135 7.69 2.54 11.01
10/17/2022 6:45:00 PM 10.15 50.27 0.135 7.64 2.64 10.92
10/17/2022 7:00:00 PM 10.08 50.144 0.136 7.6 2.56 10.86
10/17/2022 7:15:00 PM 10 50 0.136 7.57 2.65 10.82
10/17/2022 7:30:00 PM 9.93 49.874 0.136 7.55 2.6 10.81
10/17/2022 7:45:00 PM 9.86 49.748 0.136 7.54 2.61 10.81
10/17/2022 8:00:00 PM 9.8 49.64 0.136 7.52 2.66 10.8
10/17/2022 8:15:00 PM 9.75 49.55 0.136 7.51 2.61 10.8
10/17/2022 8:30:00 PM 9.72 49.496 0.136 7.5 2.62 10.8
10/17/2022 8:45:00 PM 9.67 49.406 0.136 7.49 2.56 10.81
10/17/2022 9:00:00 PM 9.63 49.334 0.136 7.48 2.6 10.81
10/17/2022 9:15:00 PM 9.58 49.244 0.136 7.48 2.58 10.82
10/17/2022 9:30:00 PM 9.53 49.154 0.136 7.47 2.62 10.84
10/17/2022 9:45:00 PM 9.48 49.064 0.136 7.47 2.55 10.85
10/17/2022 10:00:00 PM 9.43 48.974 0.136 7.46 2.61 10.87
10/17/2022 10:15:00 PM 9.38 48.884 0.136 7.46 2.57 10.88
10/17/2022 10:30:00 PM 9.33 48.794 0.136 7.46 2.56 10.89
10/17/2022 10:45:00 PM 9.27 48.686 0.136 7.46 2.61 10.91
10/17/2022 11:00:00 PM 9.2 48.56 0.136 7.46 2.61 10.93
10/17/2022 11:15:00 PM 9.15 48.47 0.136 7.46 2.63 10.94
10/17/2022 11:30:00 PM 9.1 48.38 0.136 7.46 2.5 10.95
10/17/2022 11:45:00 PM 9.05 48.29 0.136 7.46 2.53 10.96
10/18/2022 12:00:00 AM 8.99 48.182 0.136 7.46 2.49 10.97
10/18/2022 12:15:00 AM 8.92 48.056 0.136 7.45 2.53 10.98
10/18/2022 12:30:00 AM 8.86 47.948 0.136 7.46 2.48 11.01
10/18/2022 12:45:00 AM 8.8 47.84 0.136 7.45 2.52 11.02
10/18/2022 1:00:00 AM 8.74 47.732 0.136 7.45 2.56 11.04
10/18/2022 1:15:00 AM 8.68 47.624 0.136 7.45 2.55 11.06
10/18/2022 1:30:00 AM 8.62 47.516 0.136 7.44 2.52 11.08
10/18/2022 1:45:00 AM 8.56 47.408 0.136 7.44 2.53 11.09
10/18/2022 2:00:00 AM 8.49 47.282 0.136 7.44 2.54 11.11
10/18/2022 2:15:00 AM 8.42 47.156 0.136 7.43 2.54 11.12
10/18/2022 2:30:00 AM 8.35 47.03 0.136 7.43 2.76 11.14
10/18/2022 2:45:00 AM 8.29 46.922 0.136 7.43 2.47 11.16
10/18/2022 3:00:00 AM 8.22 46.796 0.136 7.43 2.48 11.18
10/18/2022 3:15:00 AM 8.16 46.688 0.136 7.43 2.48 11.2
10/18/2022 3:30:00 AM 8.11 46.598 0.136 7.43 2.54 11.21
10/18/2022 3:45:00 AM 8.05 46.49 0.136 7.43 2.44 11.23
10/18/2022 4:00:00 AM 7.99 46.382 0.136 7.43 2.56 11.25
10/18/2022 4:15:00 AM 7.93 46.274 0.136 7.42 2.59 11.27
10/18/2022 4:30:00 AM 7.87 46.166 0.136 7.42 2.57 11.28
10/18/2022 4:45:00 AM 7.81 46.058 0.136 7.42 2.48 11.29
10/18/2022 5:00:00 AM 7.75 45.95 0.136 7.42 2.47 11.31
10/18/2022 5:15:00 AM 7.69 45.842 0.136 7.42 2.48 11.32
10/18/2022 5:30:00 AM 7.63 45.734 0.136 7.42 2.53 11.35
10/18/2022 5:45:00 AM 7.57 45.626 0.136 7.42 2.5 11.36
10/18/2022 6:00:00 AM 7.52 45.536 0.136 7.42 2.46 11.39
10/18/2022 6:15:00 AM 7.46 45.428 0.137 7.42 2.45 11.41
10/18/2022 6:30:00 AM 7.41 45.338 0.137 7.42 2.42 11.43
10/18/2022 6:45:00 AM 7.36 45.248 0.137 7.42 2.47 11.45
10/18/2022 7:00:00 AM 7.31 45.158 0.137 7.42 2.58 11.46
10/18/2022 7:15:00 AM 7.27 45.086 0.137 7.42 2.56 11.48
10/18/2022 7:30:00 AM 7.23 45.014 0.137 7.42 2.51 11.51
10/18/2022 7:45:00 AM 7.2 44.96 0.136 7.43 2.52 11.56
10/18/2022 8:00:00 AM 7.19 44.942 0.137 7.44 2.48 11.63
10/18/2022 8:15:00 AM 7.2 44.96 0.136 7.47 2.5 11.75
10/18/2022 8:30:00 AM 7.23 45.014 0.136 7.5 2.51 11.89
10/18/2022 8:45:00 AM 7.27 45.086 0.136 7.53 2.55 12.04
10/18/2022 9:00:00 AM 7.35 45.23 0.136 7.58 2.52 12.2
10/18/2022 9:15:00 AM 7.46 45.428 0.135 7.63 2.48 12.32
10/18/2022 9:30:00 AM 7.58 45.644 0.135 7.67 2.58 12.39
10/18/2022 9:45:00 AM 7.68 45.824 0.135 7.72 2.44 12.44
10/18/2022 10:00:00 AM 7.73 45.914 0.135 7.75 2.5 12.47
10/18/2022 10:15:00 AM 7.83 46.094 0.135 7.78 2.51 12.49
10/18/2022 10:30:00 AM 7.89 46.202 0.135 7.81 2.55 12.49
10/18/2022 10:45:00 AM 7.97 46.346 0.135 7.83 2.47 12.47
10/18/2022 11:00:00 AM 8.01 46.418 0.135 7.83 2.53 12.43
10/18/2022 11:15:00 AM 8.07 46.526 0.135 7.84 2.45 12.4
10/18/2022 11:30:00 AM 8.13 46.634 0.135 7.85 2.43 12.4
10/18/2022 11:45:00 AM 8.16 46.688 0.135 7.86 2.46 12.39
10/18/2022 12:00:00 PM 8.2 46.76 0.134 7.87 2.43 12.37
10/18/2022 12:15:00 PM 8.23 46.814 0.134 7.87 2.43 12.36
10/18/2022 12:30:00 PM 8.29 46.922 0.134 7.89 2.44 12.38
10/18/2022 12:45:00 PM 8.33 46.994 0.134 7.9 2.42 12.36
10/18/2022 1:00:00 PM 8.35 47.03 0.134 7.9 2.42 12.33
10/18/2022 1:15:00 PM 8.38 47.084 0.134 7.91 2.41 12.33
10/18/2022 1:30:00 PM 8.41 47.138 0.134 7.91 2.51 12.32
10/18/2022 1:45:00 PM 8.45 47.21 0.134 7.93 2.38 12.32
10/18/2022 2:00:00 PM 8.49 47.282 0.134 7.94 2.44 12.32
10/18/2022 2:15:00 PM 8.55 47.39 0.134 7.95 2.38 12.34
10/18/2022 2:30:00 PM 8.6 47.48 0.134 7.96 2.42 12.31
10/18/2022 2:45:00 PM 8.58 47.444 0.134 7.9 2.43 12.17
10/18/2022 3:00:00 PM 8.58 47.444 0.134 7.88 2.42 12.13
10/18/2022 3:15:00 PM 8.57 47.426 0.134 7.86 2.41 12.09
10/18/2022 3:30:00 PM 8.57 47.426 0.134 7.85 2.46 12.1
10/18/2022 3:45:00 PM 8.61 47.498 0.134 7.86 2.44 12.12
10/18/2022 4:00:00 PM 8.62 47.516 0.135 7.86 2.4 12.08
10/18/2022 4:15:00 PM 8.64 47.552 0.135 7.85 2.4 12.07
10/18/2022 4:30:00 PM 8.65 47.57 0.135 7.84 2.5 12.03
10/18/2022 4:45:00 PM 8.63 47.534 0.135 7.81 2.44 11.96
10/18/2022 5:00:00 PM 8.62 47.516 0.135 7.78 2.41 11.88
10/18/2022 5:15:00 PM 8.63 47.534 0.135 7.76 2.54 11.87
10/18/2022 5:30:00 PM 8.63 47.534 0.135 7.73 2.5 11.78
10/18/2022 5:45:00 PM 8.62 47.516 0.135 7.7 2.5 11.7
10/18/2022 6:00:00 PM 8.61 47.498 0.135 7.66 2.58 11.58
10/18/2022 6:15:00 PM 8.6 47.48 0.136 7.63 2.5 11.5
10/18/2022 6:30:00 PM 8.58 47.444 0.136 7.6 2.52 11.42
10/18/2022 6:45:00 PM 8.55 47.39 0.136 7.57 2.55 11.35
10/18/2022 7:00:00 PM 8.52 47.336 0.136 7.55 2.49 11.3
10/18/2022 7:15:00 PM 8.5 47.3 0.136 7.53 2.49 11.27
10/18/2022 7:30:00 PM 8.48 47.264 0.136 7.52 2.52 11.25
10/18/2022 7:45:00 PM 8.46 47.228 0.136 7.51 2.49 11.24
10/18/2022 8:00:00 PM 8.45 47.21 0.136 7.5 2.5 11.23
10/18/2022 8:15:00 PM 8.43 47.174 0.136 7.49 2.58 11.22
10/18/2022 8:30:00 PM 8.41 47.138 0.136 7.49 2.5 11.22
10/18/2022 8:45:00 PM 8.38 47.084 0.136 7.48 2.5 11.22
10/18/2022 9:00:00 PM 8.35 47.03 0.136 7.48 2.5 11.22
10/18/2022 9:15:00 PM 8.32 46.976 0.136 7.47 2.53 11.23
10/18/2022 9:30:00 PM 8.29 46.922 0.136 7.47 2.56 11.24
10/18/2022 9:45:00 PM 8.26 46.868 0.136 7.47 2.5 11.24
10/18/2022 10:00:00 PM 8.2 46.76 0.136 7.46 2.5 11.26
10/18/2022 10:15:00 PM 8.14 46.652 0.137 7.46 2.6 11.27
10/18/2022 10:30:00 PM 8.08 46.544 0.137 7.46 2.51 11.29
10/18/2022 10:45:00 PM 8.02 46.436 0.137 7.46 2.5 11.31
10/18/2022 11:00:00 PM 7.96 46.328 0.137 7.45 2.46 11.32
10/18/2022 11:15:00 PM 7.9 46.22 0.137 7.45 2.44 11.33
10/18/2022 11:30:00 PM 7.84 46.112 0.137 7.45 2.5 11.34
10/18/2022 11:45:00 PM 7.78 46.004 0.137 7.45 2.48 11.35
10/19/2022 12:00:00 AM 7.72 45.896 0.137 7.44 2.45 11.36
10/19/2022 12:15:00 AM 7.66 45.788 0.137 7.44 2.5 11.38
10/19/2022 12:30:00 AM 7.6 45.68 0.137 7.44 2.47 11.41
10/19/2022 12:45:00 AM 7.54 45.572 0.137 7.44 2.48 11.42
10/19/2022 1:00:00 AM 7.49 45.482 0.137 7.44 2.46 11.44
10/19/2022 1:15:00 AM 7.44 45.392 0.137 7.44 2.45 11.46
10/19/2022 1:30:00 AM 7.41 45.338 0.137 7.44 2.43 11.47
10/19/2022 1:45:00 AM 7.39 45.302 0.137 7.44 2.46 11.49
10/19/2022 2:00:00 AM 7.38 45.284 0.137 7.44 2.41 11.5
10/19/2022 2:15:00 AM 7.37 45.266 0.137 7.44 2.45 11.5
10/19/2022 2:30:00 AM 7.36 45.248 0.136 7.44 2.48 11.51
10/19/2022 2:45:00 AM 7.35 45.23 0.137 7.44 2.4 11.52
10/19/2022 3:00:00 AM 7.34 45.212 0.137 7.44 2.46 11.51
10/19/2022 3:15:00 AM 7.33 45.194 0.137 7.44 2.47 11.52
10/19/2022 3:30:00 AM 7.32 45.176 0.137 7.44 2.44 11.52
10/19/2022 3:45:00 AM 7.31 45.158 0.137 7.44 2.42 11.53
10/19/2022 4:00:00 AM 7.3 45.14 0.137 7.44 2.52 11.53
10/19/2022 4:15:00 AM 7.3 45.14 0.137 7.44 2.46 11.53
10/19/2022 4:30:00 AM 7.29 45.122 0.137 7.44 2.46 11.54
10/19/2022 4:45:00 AM 7.29 45.122 0.137 7.44 2.47 11.54
10/19/2022 5:00:00 AM 7.29 45.122 0.137 7.44 2.46 11.53
10/19/2022 5:15:00 AM 7.26 45.068 0.137 7.44 2.51 11.53
10/19/2022 5:30:00 AM 7.25 45.05 0.137 7.44 2.56 11.53
10/19/2022 5:45:00 AM 7.23 45.014 0.137 7.44 2.52 11.54
10/19/2022 6:00:00 AM 7.21 44.978 0.137 7.44 2.47 11.55
10/19/2022 6:15:00 AM 7.22 44.996 0.137 7.44 2.49 11.55
10/19/2022 6:30:00 AM 7.21 44.978 0.137 7.44 2.44 11.55
10/19/2022 6:45:00 AM 7.21 44.978 0.137 7.45 2.45 11.55
10/19/2022 7:00:00 AM 7.21 44.978 0.137 7.45 2.45 11.56
10/19/2022 7:15:00 AM 7.21 44.978 0.137 7.44 2.44 11.56
10/19/2022 7:30:00 AM 7.21 44.978 0.137 7.45 2.49 11.57
10/19/2022 7:45:00 AM 7.21 44.978 0.137 7.45 2.5 11.59
10/19/2022 8:00:00 AM 7.21 44.978 0.137 7.46 2.51 11.63
10/19/2022 8:15:00 AM 7.22 44.996 0.137 7.48 2.5 11.71
10/19/2022 8:30:00 AM 7.24 45.032 0.136 7.5 2.48 11.82
10/19/2022 8:45:00 AM 7.25 45.05 0.136 7.52 2.53 11.92
10/19/2022 9:00:00 AM 7.27 45.086 0.136 7.55 2.54 12.01
10/19/2022 9:15:00 AM 7.3 45.14 0.136 7.57 2.5 12.1
10/19/2022 9:30:00 AM 7.34 45.212 0.136 7.6 2.5 12.19
10/19/2022 9:45:00 AM 7.38 45.284 0.135 7.64 2.45 12.29
10/19/2022 10:00:00 AM 7.42 45.356 0.135 7.66 2.43 12.34
10/19/2022 10:15:00 AM 7.46 45.428 0.135 7.69 2.48 12.38
10/19/2022 10:30:00 AM 7.52 45.536 0.135 7.72 2.43 12.42
10/19/2022 10:45:00 AM 7.57 45.626 0.135 7.75 2.4 12.46
10/19/2022 11:00:00 AM 7.62 45.716 0.135 7.77 2.4 12.49
10/19/2022 11:15:00 AM 7.7 45.86 0.135 7.81 2.35 12.53
10/19/2022 11:30:00 AM 7.74 45.932 0.135 7.82 2.38 12.5
10/19/2022 11:45:00 AM 7.8 46.04 0.135 7.84 2.46 12.52
10/19/2022 12:00:00 PM 7.85 46.13 0.134 7.86 2.4 12.53
10/19/2022 12:15:00 PM 7.9 46.22 0.134 7.87 2.41 12.54
10/19/2022 12:30:00 PM 7.97 46.346 0.134 7.9 2.36 12.55
10/19/2022 12:45:00 PM 8.02 46.436 0.134 7.91 2.34 12.54
10/19/2022 1:00:00 PM 8.09 46.562 0.134 7.93 2.39 12.55
10/19/2022 1:15:00 PM 8.14 46.652 0.131 8.09 1.09 12.47
10/19/2022 1:30:00 PM 8.19 46.742 0.131 8.07 1 12.51
10/19/2022 1:45:00 PM 8.22 46.796 0.131 8.05 1.02 12.46
10/19/2022 2:00:00 PM 8.26 46.868 0.131 8.05 1.05 12.45
10/19/2022 2:15:00 PM 8.29 46.922 0.131 8.05 1.01 12.44
10/19/2022 2:30:00 PM 8.3 46.94 0.131 8 1.06 12.35
10/19/2022 2:45:00 PM 8.31 46.958 0.131 8.02 1.05 12.34
10/19/2022 3:00:00 PM 8.36 47.048 0.131 8.05 1.04 12.37
10/19/2022 3:15:00 PM 8.44 47.192 0.13 8.08 1.01 12.42
10/19/2022 3:30:00 PM 8.48 47.264 0.13 8.09 1.04 12.44
10/19/2022 3:45:00 PM 8.54 47.372 0.13 8.12 1.05 12.44
10/19/2022 4:00:00 PM 8.59 47.462 0.13 8.12 1.06 12.42
10/19/2022 4:15:00 PM 8.62 47.516 0.13 8.12 1.07 12.4
10/19/2022 4:30:00 PM 8.66 47.588 0.13 8.08 1.07 12.32
10/19/2022 4:45:00 PM 8.69 47.642 0.131 8.05 1.09 12.18
10/19/2022 5:00:00 PM 8.71 47.678 0.131 8.02 1.08 12.11
10/19/2022 5:15:00 PM 8.69 47.642 0.131 7.97 1.08 12.03
10/19/2022 5:30:00 PM 8.65 47.57 0.131 7.91 1.07 11.92
10/19/2022 5:45:00 PM 8.64 47.552 0.131 7.87 1.08 11.78
10/19/2022 6:00:00 PM 8.61 47.498 0.131 7.81 1.09 11.66
10/19/2022 6:15:00 PM 8.57 47.426 0.132 7.78 1.1 11.57
10/19/2022 6:30:00 PM 8.52 47.336 0.132 7.75 1.13 11.47
10/19/2022 6:45:00 PM 8.45 47.21 0.132 7.71 1.13 11.4
10/19/2022 7:00:00 PM 8.41 47.138 0.132 7.69 1.16 11.35
10/19/2022 7:15:00 PM 8.37 47.066 0.132 7.68 1.18 11.34
10/19/2022 7:30:00 PM 8.34 47.012 0.132 7.65 1.17 11.31
10/19/2022 7:45:00 PM 8.29 46.922 0.132 7.62 1.19 11.31
10/19/2022 8:00:00 PM 8.25 46.85 0.132 7.64 1.1 11.32
10/19/2022 8:15:00 PM 8.22 46.796 0.132 7.63 1.14 11.33
10/19/2022 8:30:00 PM 8.2 46.76 0.132 7.61 1.15 11.32
10/19/2022 8:45:00 PM 8.17 46.706 0.132 7.61 1.09 11.33
10/19/2022 9:00:00 PM 8.15 46.67 0.132 7.61 1.09 11.34
10/19/2022 9:15:00 PM 8.11 46.598 0.132 7.61 1.12 11.35
10/19/2022 9:30:00 PM 8.06 46.508 0.133 7.58 1.14 11.36
10/19/2022 9:45:00 PM 8.02 46.436 0.133 7.58 1.07 11.37
10/19/2022 10:00:00 PM 7.99 46.382 0.133 7.58 1.06 11.37
10/19/2022 10:15:00 PM 7.95 46.31 0.133 7.59 1.12 11.37
10/19/2022 10:30:00 PM 7.94 46.292 0.133 7.59 1.11 11.39
10/19/2022 10:45:00 PM 7.93 46.274 0.133 7.59 1.11 11.4
10/19/2022 11:00:00 PM 7.92 46.256 0.133 7.59 1.1 11.4
10/19/2022 11:15:00 PM 7.92 46.256 0.133 7.59 1.13 11.41
10/19/2022 11:30:00 PM 7.91 46.238 0.133 7.59 1.14 11.4
10/19/2022 11:45:00 PM 7.89 46.202 0.133 7.59 1.11 11.42
10/20/2022 12:00:00 AM 7.89 46.202 0.133 7.59 1.11 11.41
10/20/2022 12:15:00 AM 7.88 46.184 0.133 7.59 1.16 11.4
10/20/2022 12:30:00 AM 7.88 46.184 0.133 7.59 1.02 11.4
10/20/2022 12:45:00 AM 7.88 46.184 0.133 7.58 1.15 11.4
10/20/2022 1:00:00 AM 7.87 46.166 0.133 7.56 1.12 11.41
10/20/2022 1:15:00 AM 7.87 46.166 0.133 7.57 1.12 11.42
10/20/2022 1:30:00 AM 7.86 46.148 0.133 7.58 1.12 11.4
10/20/2022 1:45:00 AM 7.86 46.148 0.133 7.58 1.11 11.41
10/20/2022 2:00:00 AM 7.85 46.13 0.133 7.58 1.13 11.41
10/20/2022 2:15:00 AM 7.83 46.094 0.133 7.55 1.1 11.41
10/20/2022 2:30:00 AM 7.8 46.04 0.133 7.57 1.07 11.41
10/20/2022 2:45:00 AM 7.76 45.968 0.133 7.57 1.09 11.42
10/20/2022 3:00:00 AM 7.72 45.896 0.133 7.56 1.09 11.43
10/20/2022 3:15:00 AM 7.68 45.824 0.133 7.56 1.09 11.45
10/20/2022 3:30:00 AM 7.63 45.734 0.133 7.56 1.12 11.47
10/20/2022 3:45:00 AM 7.58 45.644 0.133 7.53 1.11 11.48
10/20/2022 4:00:00 AM 7.53 45.554 0.133 7.55 1.08 11.5
10/20/2022 4:15:00 AM 7.48 45.464 0.133 7.54 1.08 11.51
10/20/2022 4:30:00 AM 7.42 45.356 0.133 7.55 1.19 11.53
10/20/2022 4:45:00 AM 7.37 45.266 0.133 7.54 1.14 11.54
10/20/2022 5:00:00 AM 7.32 45.176 0.133 7.55 1.15 11.56
10/20/2022 5:15:00 AM 7.27 45.086 0.133 7.55 1.13 11.57
10/20/2022 5:30:00 AM 7.22 44.996 0.133 7.55 1.08 11.58
10/20/2022 5:45:00 AM 7.18 44.924 0.134 7.55 1.06 11.58
10/20/2022 6:00:00 AM 7.14 44.852 0.134 7.53 1.09 11.59
10/20/2022 6:15:00 AM 7.11 44.798 0.134 7.55 1.09 11.6
10/20/2022 6:30:00 AM 7.07 44.726 0.134 7.54 1.11 11.62
10/20/2022 6:45:00 AM 7.04 44.672 0.134 7.54 1.17 11.64
10/20/2022 7:00:00 AM 7 44.6 0.134 7.55 1.15 11.65
10/20/2022 7:15:00 AM 6.96 44.528 0.134 7.55 1.17 11.67
10/20/2022 7:30:00 AM 6.94 44.492 0.134 7.56 1.15 11.69
10/20/2022 7:45:00 AM 6.92 44.456 0.134 7.54 1.17 11.74
10/20/2022 8:00:00 AM 6.88 44.384 0.134 7.56 1.12 11.79
10/20/2022 8:15:00 AM 6.86 44.348 0.134 7.57 1.17 11.85
10/20/2022 8:30:00 AM 6.84 44.312 0.133 7.6 1.15 11.95
10/20/2022 8:45:00 AM 6.81 44.258 0.133 7.62 1.12 12.04
10/20/2022 9:00:00 AM 6.8 44.24 0.133 7.63 1.14 12.13
10/20/2022 9:15:00 AM 6.84 44.312 0.133 7.67 1.09 12.27
10/20/2022 9:30:00 AM 6.84 44.312 0.133 7.7 1.18 12.37
10/20/2022 9:45:00 AM 6.83 44.294 0.133 7.69 1.09 12.42
10/20/2022 10:00:00 AM 6.86 44.348 0.133 7.74 1.09 12.49
10/20/2022 10:15:00 AM 6.92 44.456 0.132 7.79 1.11 12.58
10/20/2022 10:30:00 AM 7.01 44.618 0.132 7.83 1.09 12.65
10/20/2022 10:45:00 AM 7.09 44.762 0.132 7.85 1.01 12.66
10/20/2022 11:00:00 AM 7.18 44.924 0.132 7.89 0.99 12.69
10/20/2022 11:15:00 AM 7.23 45.014 0.132 7.88 1.07 12.7
10/20/2022 11:30:00 AM 7.3 45.14 0.132 7.93 1.09 12.73
10/20/2022 11:45:00 AM 7.39 45.302 0.132 7.97 1.03 12.74
10/20/2022 12:00:00 PM 7.48 45.464 0.132 7.98 1.1 12.75
10/20/2022 12:15:00 PM 7.55 45.59 0.132 8.01 1.05 12.74
10/20/2022 12:30:00 PM 7.61 45.698 0.132 8.02 1.05 12.73
10/20/2022 12:45:00 PM 7.68 45.824 0.131 8.03 1 12.74
10/20/2022 1:00:00 PM 7.75 45.95 0.131 8.05 0.96 12.73
10/20/2022 1:15:00 PM 7.83 46.094 0.131 8.08 1.01 12.74
10/20/2022 1:30:00 PM 7.91 46.238 0.131 8.11 1.06 12.75
10/20/2022 1:45:00 PM 7.99 46.382 0.131 8.13 0.98 12.74
10/20/2022 2:00:00 PM 8.11 46.598 0.131 8.15 0.96 12.73
10/20/2022 2:15:00 PM 8.24 46.832 0.131 8.16 1 12.7
10/20/2022 2:30:00 PM 8.33 46.994 0.131 8.16 1.07 12.63
10/20/2022 2:45:00 PM 8.41 47.138 0.131 8.13 1 12.56
10/20/2022 3:00:00 PM 8.47 47.246 0.131 8.13 0.99 12.49
10/20/2022 3:15:00 PM 8.52 47.336 0.131 8.12 1 12.44
10/20/2022 3:30:00 PM 8.56 47.408 0.131 8.1 1.03 12.4
10/20/2022 3:45:00 PM 8.67 47.606 0.131 8.1 1 12.38
10/20/2022 4:00:00 PM 8.72 47.696 0.131 8.09 1.02 12.29
10/20/2022 4:15:00 PM 8.77 47.786 0.131 8.01 1.04 12.13
10/20/2022 4:30:00 PM 8.83 47.894 0.131 7.98 1.07 12.02
10/20/2022 4:45:00 PM 8.86 47.948 0.131 7.96 1.21 11.95
10/20/2022 5:00:00 PM 8.84 47.912 0.131 7.92 1.1 11.9
10/20/2022 5:15:00 PM 8.82 47.876 0.131 7.9 1.05 11.86
10/20/2022 5:30:00 PM 8.81 47.858 0.131 7.88 1.11 11.81
10/20/2022 5:45:00 PM 8.79 47.822 0.131 7.84 1.13 11.76
10/20/2022 6:00:00 PM 8.75 47.75 0.132 7.82 1.06 11.64
10/20/2022 6:15:00 PM 8.7 47.66 0.132 7.77 1.12 11.54
10/20/2022 6:30:00 PM 8.65 47.57 0.132 7.73 1.16 11.45
10/20/2022 6:45:00 PM 8.61 47.498 0.132 7.69 1.13 11.37
10/20/2022 7:00:00 PM 8.57 47.426 0.132 7.65 1.15 11.33
10/20/2022 7:15:00 PM 8.53 47.354 0.132 7.63 1.1 11.29
10/20/2022 7:30:00 PM 8.51 47.318 0.133 7.62 1.07 11.29
10/20/2022 7:45:00 PM 8.48 47.264 0.133 7.61 1.1 11.26
10/20/2022 8:00:00 PM 8.46 47.228 0.133 7.6 1.13 11.26
10/20/2022 8:15:00 PM 8.43 47.174 0.133 7.6 1.1 11.26
10/20/2022 8:30:00 PM 8.4 47.12 0.133 7.6 1.09 11.26
10/20/2022 8:45:00 PM 8.36 47.048 0.133 7.59 1.1 11.27
10/20/2022 9:00:00 PM 8.33 46.994 0.133 7.59 1.09 11.28
10/20/2022 9:15:00 PM 8.3 46.94 0.133 7.56 1.1 11.3
10/20/2022 9:30:00 PM 8.28 46.904 0.133 7.56 1.09 11.31
10/20/2022 9:45:00 PM 8.24 46.832 0.133 7.55 1.1 11.33
10/20/2022 10:00:00 PM 8.2 46.76 0.133 7.57 1.12 11.35
10/20/2022 10:15:00 PM 8.17 46.706 0.133 7.54 1.08 11.36
10/20/2022 10:30:00 PM 8.13 46.634 0.133 7.55 1.09 11.36
10/20/2022 10:45:00 PM 8.11 46.598 0.133 7.56 1.07 11.38
10/20/2022 11:00:00 PM 8.09 46.562 0.133 7.56 1.14 11.39
10/20/2022 11:15:00 PM 8.08 46.544 0.133 7.56 1.05 11.39
10/20/2022 11:30:00 PM 8.06 46.508 0.133 7.56 1.05 11.39
10/20/2022 11:45:00 PM 8.05 46.49 0.133 7.54 1.13 11.39
10/21/2022 12:00:00 AM 8.03 46.454 0.133 7.56 1.11 11.4
10/21/2022 12:15:00 AM 8.01 46.418 0.133 7.56 1.08 11.41
10/21/2022 12:30:00 AM 7.99 46.382 0.133 7.55 1.12 11.41
10/21/2022 12:45:00 AM 7.95 46.31 0.133 7.55 1.08 11.42
10/21/2022 1:00:00 AM 7.89 46.202 0.133 7.54 1.12 11.43
10/21/2022 1:15:00 AM 7.83 46.094 0.133 7.52 1.16 11.44
10/21/2022 1:30:00 AM 7.76 45.968 0.133 7.53 1.13 11.44
10/21/2022 1:45:00 AM 7.69 45.842 0.133 7.54 1.14 11.47
10/21/2022 2:00:00 AM 7.63 45.734 0.133 7.54 1.12 11.49
10/21/2022 2:15:00 AM 7.56 45.608 0.133 7.54 1.1 11.52
10/21/2022 2:30:00 AM 7.49 45.482 0.133 7.5 1.12 11.54
10/21/2022 2:45:00 AM 7.42 45.356 0.133 7.52 1.08 11.57
10/21/2022 3:00:00 AM 7.36 45.248 0.133 7.53 1.09 11.59
10/21/2022 3:15:00 AM 7.29 45.122 0.133 7.53 1.08 11.6
10/21/2022 3:30:00 AM 7.23 45.014 0.133 7.53 1.07 11.62
10/21/2022 3:45:00 AM 7.17 44.906 0.133 7.5 1.12 11.62
10/21/2022 4:00:00 AM 7.11 44.798 0.133 7.51 1.1 11.64
10/21/2022 4:15:00 AM 7.05 44.69 0.133 7.52 1.12 11.67
10/21/2022 4:30:00 AM 6.99 44.582 0.133 7.53 1.15 11.69
10/21/2022 4:45:00 AM 6.94 44.492 0.133 7.51 1.11 11.72
10/21/2022 5:00:00 AM 6.88 44.384 0.133 7.53 1.07 11.74
10/21/2022 5:15:00 AM 6.82 44.276 0.133 7.53 1.13 11.76
10/21/2022 5:30:00 AM 6.76 44.168 0.133 7.53 1.06 11.78
10/21/2022 5:45:00 AM 6.7 44.06 0.133 7.51 1.05 11.81
10/21/2022 6:00:00 AM 6.64 43.952 0.134 7.51 1.15 11.83
10/21/2022 6:15:00 AM 6.59 43.862 0.134 7.53 1.06 11.84
10/21/2022 6:30:00 AM 6.53 43.754 0.134 7.53 1.1 11.85
10/21/2022 6:45:00 AM 6.47 43.646 0.134 7.52 1.08 11.87
10/21/2022 7:00:00 AM 6.42 43.556 0.134 7.53 1.01 11.9
10/21/2022 7:15:00 AM 6.36 43.448 0.134 7.53 1.08 11.93
10/21/2022 7:30:00 AM 6.31 43.358 0.134 7.51 1.1 11.97
10/21/2022 7:45:00 AM 6.26 43.268 0.134 7.54 1.12 12.02
10/21/2022 8:00:00 AM 6.21 43.178 0.134 7.55 1.21 12.1
10/21/2022 8:15:00 AM 6.17 43.106 0.134 7.54 1.14 12.19
10/21/2022 8:30:00 AM 6.13 43.034 0.134 7.58 1.06 12.27
10/21/2022 8:45:00 AM 6.1 42.98 0.134 7.58 1.08 12.35
10/21/2022 9:00:00 AM 6.08 42.944 0.134 7.61 1.1 12.45
10/21/2022 9:15:00 AM 6.09 42.962 0.134 7.63 1.11 12.55
10/21/2022 9:30:00 AM 6.1 42.98 0.133 7.66 1.07 12.62
10/21/2022 9:45:00 AM 6.11 42.998 0.133 7.67 1.12 12.66
10/21/2022 10:00:00 AM 6.15 43.07 0.133 7.7 1.05 12.7
10/21/2022 10:15:00 AM 6.21 43.178 0.133 7.73 1.09 12.75
10/21/2022 10:30:00 AM 6.29 43.322 0.133 7.74 1.17 12.77
10/21/2022 10:45:00 AM 6.39 43.502 0.133 7.74 1.09 12.77
10/21/2022 11:00:00 AM 6.5 43.7 0.133 7.77 1.11 12.75
10/21/2022 11:15:00 AM 6.62 43.916 0.133 7.79 1.12 12.78
10/21/2022 11:30:00 AM 6.75 44.15 0.133 7.8 1.05 12.78
10/21/2022 11:45:00 AM 6.91 44.438 0.132 7.83 1.05 12.76
10/21/2022 12:00:00 PM 7.06 44.708 0.132 7.85 1.07 12.73
10/21/2022 12:15:00 PM 7.25 45.05 0.132 7.86 1.03 12.71
10/21/2022 12:30:00 PM 7.44 45.392 0.132 7.88 1.02 12.68
10/21/2022 12:45:00 PM 7.64 45.752 0.132 7.9 0.98 12.66
10/21/2022 1:00:00 PM 7.85 46.13 0.132 7.91 0.98 12.61
10/21/2022 1:15:00 PM 8.08 46.544 0.132 7.94 1.01 12.57
10/21/2022 1:30:00 PM 8.29 46.922 0.132 7.95 1.01 12.51
10/21/2022 1:45:00 PM 8.49 47.282 0.132 7.96 1.03 12.46
10/21/2022 2:00:00 PM 8.68 47.624 0.132 7.98 1.03 12.43
10/21/2022 2:15:00 PM 8.86 47.948 0.132 7.99 0.99 12.37
10/21/2022 2:30:00 PM 8.99 48.182 0.132 8.01 1.02 12.31
10/21/2022 2:45:00 PM 9.15 48.47 0.132 8.01 1 12.29
10/21/2022 3:00:00 PM 9.29 48.722 0.131 8.02 1.02 12.25
10/21/2022 3:15:00 PM 9.42 48.956 0.131 8.02 1.06 12.21
10/21/2022 3:30:00 PM 9.49 49.082 0.131 8.01 1.02 12.09
10/21/2022 3:45:00 PM 9.56 49.208 0.131 7.99 1.08 11.99
10/21/2022 4:00:00 PM 9.62 49.316 0.131 7.94 1.06 11.89
10/21/2022 4:15:00 PM 9.68 49.424 0.131 7.94 1.06 11.8
10/21/2022 4:30:00 PM 9.73 49.514 0.131 7.93 1.09 11.76
10/21/2022 4:45:00 PM 9.76 49.568 0.132 7.92 1.09 11.71
10/21/2022 5:00:00 PM 9.78 49.604 0.132 7.89 1.08 11.63
10/21/2022 5:15:00 PM 9.77 49.586 0.132 7.87 1.12 11.57
10/21/2022 5:30:00 PM 9.74 49.532 0.132 7.85 1.29 11.52
10/21/2022 5:45:00 PM 9.7 49.46 0.132 7.82 1.32 11.44
10/21/2022 6:00:00 PM 9.63 49.334 0.132 7.79 1.13 11.37
10/21/2022 6:15:00 PM 9.54 49.172 0.132 7.73 1.16 11.3
10/21/2022 6:30:00 PM 9.44 48.992 0.133 7.7 1.15 11.23
10/21/2022 6:45:00 PM 9.35 48.83 0.133 7.67 1.18 11.17
10/21/2022 7:00:00 PM 9.26 48.668 0.133 7.64 1.25 11.14
10/21/2022 7:15:00 PM 9.17 48.506 0.133 7.61 1.27 11.12
10/21/2022 7:30:00 PM 9.07 48.326 0.133 7.6 1.18 11.11
10/21/2022 7:45:00 PM 8.98 48.164 0.133 7.59 1.14 11.12
10/21/2022 8:00:00 PM 8.87 47.966 0.133 7.58 1.15 11.14
10/21/2022 8:15:00 PM 8.77 47.786 0.133 7.56 1.16 11.17
10/21/2022 8:30:00 PM 8.68 47.624 0.134 7.56 1.14 11.2
10/21/2022 8:45:00 PM 8.59 47.462 0.134 7.55 1.13 11.22
10/21/2022 9:00:00 PM 8.51 47.318 0.133 7.53 1.13 11.24
10/21/2022 9:15:00 PM 8.43 47.174 0.133 7.55 1.12 11.25
10/21/2022 9:30:00 PM 8.35 47.03 0.134 7.54 1.13 11.28
10/21/2022 9:45:00 PM 8.26 46.868 0.134 7.53 1.17 11.32
10/21/2022 10:00:00 PM 8.18 46.724 0.134 7.54 1.16 11.34
10/21/2022 10:15:00 PM 8.11 46.598 0.134 7.52 1.13 11.38
10/21/2022 10:30:00 PM 8.03 46.454 0.134 7.5 1.15 11.4
10/21/2022 10:45:00 PM 7.96 46.328 0.134 7.52 1.09 11.42
10/21/2022 11:00:00 PM 7.89 46.202 0.134 7.5 1.17 11.44
10/21/2022 11:15:00 PM 7.82 46.076 0.134 7.51 1.08 11.45
10/21/2022 11:30:00 PM 7.76 45.968 0.134 7.52 1.13 11.46
10/21/2022 11:45:00 PM 7.7 45.86 0.134 7.52 1.18 11.49
10/22/2022 12:00:00 AM 7.64 45.752 0.134 7.51 1.2 11.51
10/22/2022 12:15:00 AM 7.59 45.662 0.134 7.52 1.16 11.53
10/22/2022 12:30:00 AM 7.53 45.554 0.134 7.5 1.18 11.55
10/22/2022 12:45:00 AM 7.48 45.464 0.134 7.51 1.27 11.57
10/22/2022 1:00:00 AM 7.43 45.374 0.134 7.51 1.14 11.59
10/22/2022 1:15:00 AM 7.38 45.284 0.134 7.51 1.12 11.61
10/22/2022 1:30:00 AM 7.32 45.176 0.134 7.53 1.11 11.62
10/22/2022 1:45:00 AM 7.27 45.086 0.134 7.5 1.11 11.64
10/22/2022 2:00:00 AM 7.22 44.996 0.134 7.53 1.18 11.65
10/22/2022 2:15:00 AM 7.17 44.906 0.134 7.52 1.12 11.66
10/22/2022 2:30:00 AM 7.12 44.816 0.134 7.5 1.09 11.67
10/22/2022 2:45:00 AM 7.07 44.726 0.134 7.52 1.14 11.69
10/22/2022 3:00:00 AM 7.03 44.654 0.134 7.52 1.11 11.71
10/22/2022 3:15:00 AM 6.98 44.564 0.134 7.5 1.11 11.73
10/22/2022 3:30:00 AM 6.93 44.474 0.134 7.51 1.06 11.75
10/22/2022 3:45:00 AM 6.88 44.384 0.134 7.51 1.13 11.76
10/22/2022 4:00:00 AM 6.84 44.312 0.134 7.51 1.1 11.79
10/22/2022 4:15:00 AM 6.79 44.222 0.134 7.5 1.09 11.8
10/22/2022 4:30:00 AM 6.75 44.15 0.134 7.5 1.12 11.81
10/22/2022 4:45:00 AM 6.7 44.06 0.134 7.5 1.09 11.84
10/22/2022 5:00:00 AM 6.65 43.97 0.134 7.51 1.13 11.84
10/22/2022 5:15:00 AM 6.61 43.898 0.134 7.51 1.17 11.86
10/22/2022 5:30:00 AM 6.57 43.826 0.134 7.51 1.17 11.87
10/22/2022 5:45:00 AM 6.53 43.754 0.134 7.5 1.14 11.87
10/22/2022 6:00:00 AM 6.49 43.682 0.134 7.51 1.11 11.88
10/22/2022 6:15:00 AM 6.45 43.61 0.134 7.47 1.08 11.91
10/22/2022 6:30:00 AM 6.4 43.52 0.134 7.51 1.09 11.93
10/22/2022 6:45:00 AM 6.36 43.448 0.134 7.51 1.09 11.94
10/22/2022 7:00:00 AM 6.32 43.376 0.134 7.52 1.07 11.97
10/22/2022 7:15:00 AM 6.28 43.304 0.134 7.52 1.11 11.99
10/22/2022 7:30:00 AM 6.24 43.232 0.134 7.51 1.12 12.01
10/22/2022 7:45:00 AM 6.21 43.178 0.134 7.5 1.13 12.06
10/22/2022 8:00:00 AM 6.17 43.106 0.134 7.52 1.12 12.14
10/22/2022 8:15:00 AM 6.15 43.07 0.134 7.54 1.12 12.23
10/22/2022 8:30:00 AM 6.12 43.016 0.134 7.56 1.08 12.31
10/22/2022 8:45:00 AM 6.1 42.98 0.134 7.58 1.08 12.38
10/22/2022 9:00:00 AM 6.09 42.962 0.134 7.58 1.07 12.47
10/22/2022 9:15:00 AM 6.11 42.998 0.134 7.6 1.12 12.56
10/22/2022 9:30:00 AM 6.13 43.034 0.134 7.61 1.08 12.63
10/22/2022 9:45:00 AM 6.16 43.088 0.134 7.65 1.09 12.69
10/22/2022 10:00:00 AM 6.21 43.178 0.134 7.67 1.02 12.72
10/22/2022 10:15:00 AM 6.28 43.304 0.134 7.69 1.08 12.77
10/22/2022 10:30:00 AM 6.37 43.466 0.134 7.72 1.07 12.78
10/22/2022 10:45:00 AM 6.48 43.664 0.134 7.75 1.02 12.79
10/22/2022 11:00:00 AM 6.61 43.898 0.133 7.75 1.07 12.8
10/22/2022 11:15:00 AM 6.76 44.168 0.133 7.77 1.04 12.8
10/22/2022 11:30:00 AM 6.91 44.438 0.133 7.8 0.99 12.79
10/22/2022 11:45:00 AM 7.09 44.762 0.133 7.82 1 12.75
10/22/2022 12:00:00 PM 7.28 45.104 0.133 7.83 1.07 12.75
10/22/2022 12:15:00 PM 7.5 45.5 0.133 7.86 1 12.73
10/22/2022 12:30:00 PM 7.73 45.914 0.133 7.88 1.01 12.67
10/22/2022 12:45:00 PM 7.96 46.328 0.133 7.9 0.96 12.64
10/22/2022 1:00:00 PM 8.2 46.76 0.132 7.91 1.01 12.6
10/22/2022 1:15:00 PM 8.44 47.192 0.132 7.93 0.97 12.53
10/22/2022 1:30:00 PM 8.68 47.624 0.132 7.97 1.01 12.5
10/22/2022 1:45:00 PM 8.92 48.056 0.132 7.96 0.97 12.44
10/22/2022 2:00:00 PM 9.14 48.452 0.132 7.99 1.02 12.37
10/22/2022 2:15:00 PM 9.34 48.812 0.132 8 1 12.32
10/22/2022 2:30:00 PM 9.53 49.154 0.132 8.01 1.06 12.26
10/22/2022 2:45:00 PM 9.71 49.478 0.132 8.03 0.99 12.19
10/22/2022 3:00:00 PM 9.87 49.766 0.132 8.04 0.98 12.16
10/22/2022 3:15:00 PM 10.01 50.018 0.132 8.04 1.04 12.1
10/22/2022 3:30:00 PM 10.08 50.144 0.132 8.03 0.99 12
10/22/2022 3:45:00 PM 10.17 50.306 0.132 8.01 1.03 11.89
10/22/2022 4:00:00 PM 10.25 50.45 0.132 7.97 1.08 11.77
10/22/2022 4:15:00 PM 10.33 50.594 0.132 7.95 1.05 11.68
10/22/2022 4:30:00 PM 10.4 50.72 0.132 7.91 1.08 11.63
10/22/2022 4:45:00 PM 10.45 50.81 0.132 7.91 1.07 11.56
10/22/2022 5:00:00 PM 10.46 50.828 0.132 7.86 1.1 11.5
10/22/2022 5:15:00 PM 10.46 50.828 0.132 7.85 1.07 11.45
10/22/2022 5:30:00 PM 10.44 50.792 0.132 7.83 1.11 11.38
10/22/2022 5:45:00 PM 10.39 50.702 0.132 7.79 1.13 11.3
10/22/2022 6:00:00 PM 10.33 50.594 0.133 7.73 1.14 11.23
10/22/2022 6:15:00 PM 10.26 50.468 0.133 7.7 1.11 11.15
10/22/2022 6:30:00 PM 10.17 50.306 0.133 7.67 1.17 11.07
10/22/2022 6:45:00 PM 10.08 50.144 0.133 7.64 1.17 11.02
10/22/2022 7:00:00 PM 9.99 49.982 0.133 7.61 1.24 10.99
10/22/2022 7:15:00 PM 9.91 49.838 0.134 7.59 1.26 10.97
10/22/2022 7:30:00 PM 9.82 49.676 0.134 7.58 1.16 10.96
10/22/2022 7:45:00 PM 9.72 49.496 0.134 7.54 1.19 10.97
10/22/2022 8:00:00 PM 9.62 49.316 0.134 7.55 1.23 10.99
10/22/2022 8:15:00 PM 9.52 49.136 0.134 7.55 1.2 11.01
10/22/2022 8:30:00 PM 9.42 48.956 0.134 7.53 1.2 11.04
10/22/2022 8:45:00 PM 9.33 48.794 0.134 7.53 1.23 11.07
10/22/2022 9:00:00 PM 9.24 48.632 0.134 7.5 1.16 11.09
10/22/2022 9:15:00 PM 9.15 48.47 0.134 7.51 1.21 11.12
10/22/2022 9:30:00 PM 9.06 48.308 0.134 7.52 1.14 11.12
10/22/2022 9:45:00 PM 8.97 48.146 0.134 7.5 1.05 11.15
10/22/2022 10:00:00 PM 8.88 47.984 0.134 7.5 1.15 11.19
10/22/2022 10:15:00 PM 8.79 47.822 0.134 7.51 1.19 11.22
10/22/2022 10:30:00 PM 8.7 47.66 0.134 7.52 1.16 11.26
10/22/2022 10:45:00 PM 8.62 47.516 0.134 7.51 1.14 11.28
10/22/2022 11:00:00 PM 8.53 47.354 0.134 7.52 1.16 11.31
10/22/2022 11:15:00 PM 8.45 47.21 0.134 7.5 1.07 11.32
10/22/2022 11:30:00 PM 8.38 47.084 0.134 7.51 1.13 11.33
10/22/2022 11:45:00 PM 8.31 46.958 0.134 7.51 1.14 11.36
10/23/2022 12:00:00 AM 8.24 46.832 0.134 7.51 1.09 11.4
10/23/2022 12:15:00 AM 8.17 46.706 0.134 7.51 1.13 11.41
10/23/2022 12:30:00 AM 8.11 46.598 0.134 7.51 1.13 11.43
10/23/2022 12:45:00 AM 8.05 46.49 0.134 7.5 1.13 11.46
10/23/2022 1:00:00 AM 7.98 46.364 0.134 7.51 1.2 11.48
10/23/2022 1:15:00 AM 7.92 46.256 0.134 7.51 1.2 11.49
10/23/2022 1:30:00 AM 7.86 46.148 0.134 7.52 1.17 11.5
10/23/2022 1:45:00 AM 7.8 46.04 0.134 7.48 1.08 11.51
10/23/2022 2:00:00 AM 7.74 45.932 0.134 7.51 1.15 11.53
10/23/2022 2:15:00 AM 7.69 45.842 0.134 7.52 1.15 11.55
10/23/2022 2:30:00 AM 7.63 45.734 0.134 7.51 1.16 11.58
10/23/2022 2:45:00 AM 7.58 45.644 0.134 7.48 1.19 11.59
10/23/2022 3:00:00 AM 7.52 45.536 0.134 7.5 1.09 11.61
10/23/2022 3:15:00 AM 7.47 45.446 0.134 7.5 1.12 11.64
10/23/2022 3:30:00 AM 7.42 45.356 0.134 7.5 1.1 11.65
10/23/2022 3:45:00 AM 7.36 45.248 0.134 7.5 1.13 11.67
10/23/2022 4:00:00 AM 7.31 45.158 0.134 7.51 1.11 11.68
10/23/2022 4:15:00 AM 7.25 45.05 0.134 7.5 1.15 11.7
10/23/2022 4:30:00 AM 7.2 44.96 0.134 7.48 1.16 11.71
10/23/2022 4:45:00 AM 7.15 44.87 0.134 7.51 1.12 11.72
10/23/2022 5:00:00 AM 7.1 44.78 0.134 7.5 1.11 11.74
10/23/2022 5:15:00 AM 7.05 44.69 0.135 7.5 1.06 11.76
10/23/2022 5:30:00 AM 6.99 44.582 0.135 7.5 1.07 11.79
10/23/2022 5:45:00 AM 6.95 44.51 0.135 7.5 1.14 11.8
10/23/2022 6:00:00 AM 6.9 44.42 0.135 7.47 1.09 11.82
10/23/2022 6:15:00 AM 6.85 44.33 0.135 7.49 1.09 11.84
10/23/2022 6:30:00 AM 6.81 44.258 0.135 7.5 1.2 11.87
10/23/2022 6:45:00 AM 6.76 44.168 0.135 7.51 1.09 11.88
10/23/2022 7:00:00 AM 6.72 44.096 0.135 7.5 1.09 11.89
10/23/2022 7:15:00 AM 6.67 44.006 0.135 7.5 1.1 11.91
10/23/2022 7:30:00 AM 6.63 43.934 0.135 7.47 1.08 11.92
10/23/2022 7:45:00 AM 6.58 43.844 0.135 7.5 1.12 11.98
10/23/2022 8:00:00 AM 6.55 43.79 0.135 7.52 1.06 12.05
10/23/2022 8:15:00 AM 6.54 43.772 0.135 7.55 1.11 12.18
10/23/2022 8:30:00 AM 6.53 43.754 0.135 7.57 1.14 12.31
10/23/2022 8:45:00 AM 6.52 43.736 0.134 7.6 1.18 12.42
10/23/2022 9:00:00 AM 6.52 43.736 0.134 7.62 1.15 12.51
10/23/2022 9:15:00 AM 6.52 43.736 0.134 7.63 1.14 12.56
10/23/2022 9:30:00 AM 6.56 43.808 0.134 7.66 1.09 12.64
10/23/2022 9:45:00 AM 6.57 43.826 0.134 7.68 1.02 12.68
10/23/2022 10:00:00 AM 6.64 43.952 0.134 7.68 1.12 12.74
10/23/2022 10:15:00 AM 6.72 44.096 0.134 7.73 1.09 12.81
10/23/2022 10:30:00 AM 6.8 44.24 0.134 7.75 1.12 12.83
10/23/2022 10:45:00 AM 6.93 44.474 0.134 7.76 1.08 12.86
10/23/2022 11:00:00 AM 7.06 44.708 0.134 7.82 1.07 12.88
10/23/2022 11:15:00 AM 7.15 44.87 0.134 7.85 1.04 12.89
10/23/2022 11:30:00 AM 7.29 45.122 0.133 7.87 0.99 12.91
10/23/2022 11:45:00 AM 7.51 45.518 0.133 7.91 1 12.92
10/23/2022 12:00:00 PM 7.7 45.86 0.133 7.94 1.01 12.87
10/23/2022 12:15:00 PM 7.99 46.382 0.133 7.99 0.98 12.87
10/23/2022 12:30:00 PM 8.26 46.868 0.133 8.02 1.04 12.81
10/23/2022 12:45:00 PM 8.45 47.21 0.133 8.04 0.98 12.74
10/23/2022 1:00:00 PM 8.69 47.642 0.133 8.06 0.96 12.72
10/23/2022 1:15:00 PM 8.93 48.074 0.133 8.08 0.98 12.67
10/23/2022 1:30:00 PM 9.1 48.38 0.133 8.11 1.04 12.58
10/23/2022 1:45:00 PM 9.28 48.704 0.132 8.13 1.06 12.54
10/23/2022 2:00:00 PM 9.54 49.172 0.132 8.15 0.98 12.49
10/23/2022 2:15:00 PM 9.8 49.64 0.132 8.18 1 12.44
10/23/2022 2:30:00 PM 9.95 49.91 0.132 8.2 1.03 12.41
10/23/2022 2:45:00 PM 10.11 50.198 0.132 8.22 1.04 12.37
10/23/2022 3:00:00 PM 10.33 50.594 0.132 8.26 1.05 12.33
10/23/2022 3:15:00 PM 10.5 50.9 0.132 8.29 1.04 12.29
10/23/2022 3:30:00 PM 10.68 51.224 0.132 8.31 1 12.26
10/23/2022 3:45:00 PM 10.84 51.512 0.132 8.32 1.01 12.18
10/23/2022 4:00:00 PM 10.94 51.692 0.132 8.31 1.03 12.09
10/23/2022 4:15:00 PM 11.04 51.872 0.132 8.32 1.02 12.07
10/23/2022 4:30:00 PM 11.1 51.98 0.132 8.3 1.09 12.02
10/23/2022 4:45:00 PM 11.11 51.998 0.132 8.26 1.11 11.92
10/23/2022 5:00:00 PM 11.14 52.052 0.132 8.19 1.09 11.85
10/23/2022 5:15:00 PM 11.12 52.016 0.132 8.13 1.11 11.69
10/23/2022 5:30:00 PM 11.09 51.962 0.132 8.03 1.1 11.53
10/23/2022 5:45:00 PM 11.05 51.89 0.132 7.97 1.13 11.34
10/23/2022 6:00:00 PM 11.01 51.818 0.133 7.88 1.22 11.18
10/23/2022 6:15:00 PM 10.97 51.746 0.133 7.8 1.11 11.03
10/23/2022 6:30:00 PM 10.93 51.674 0.133 7.71 1.18 10.91
10/23/2022 6:45:00 PM 10.89 51.602 0.134 7.68 1.17 10.83
10/23/2022 7:00:00 PM 10.85 51.53 0.134 7.66 1.14 10.78
10/23/2022 7:15:00 PM 10.82 51.476 0.134 7.62 1.13 10.74
10/23/2022 7:30:00 PM 10.79 51.422 0.134 7.61 1.11 10.73
10/23/2022 7:45:00 PM 10.75 51.35 0.134 7.55 1.11 10.72
10/23/2022 8:00:00 PM 10.71 51.278 0.134 7.57 1.18 10.72
10/23/2022 8:15:00 PM 10.66 51.188 0.134 7.54 1.2 10.72
10/23/2022 8:30:00 PM 10.61 51.098 0.134 7.51 1.17 10.73
10/23/2022 8:45:00 PM 10.56 51.008 0.134 7.52 1.15 10.73
10/23/2022 9:00:00 PM 10.51 50.918 0.134 7.51 1.17 10.74
10/23/2022 9:15:00 PM 10.45 50.81 0.134 7.5 1.12 10.74
10/23/2022 9:30:00 PM 10.4 50.72 0.135 7.47 1.13 10.75
10/23/2022 9:45:00 PM 10.35 50.63 0.134 7.48 1.12 10.76
10/23/2022 10:00:00 PM 10.3 50.54 0.135 7.45 1.1 10.77
10/23/2022 10:15:00 PM 10.26 50.468 0.135 7.49 1.19 10.78
10/23/2022 10:30:00 PM 10.22 50.396 0.135 7.49 1.14 10.8
10/23/2022 10:45:00 PM 10.18 50.324 0.135 7.49 1.11 10.82
10/23/2022 11:00:00 PM 10.15 50.27 0.135 7.45 1.31 10.83
10/23/2022 11:15:00 PM 10.12 50.216 0.135 7.48 1.15 10.84
10/23/2022 11:30:00 PM 10.09 50.162 0.135 7.48 1.13 10.84
10/23/2022 11:45:00 PM 10.07 50.126 0.135 7.49 1.11 10.85
10/24/2022 12:00:00 AM 10.05 50.09 0.135 7.49 1.14 10.85
10/24/2022 12:15:00 AM 10.03 50.054 0.135 7.48 1.12 10.86
10/24/2022 12:30:00 AM 10.01 50.018 0.135 7.48 1.19 10.87
10/24/2022 12:45:00 AM 9.99 49.982 0.135 7.49 1.08 10.88
10/24/2022 1:00:00 AM 9.97 49.946 0.135 7.47 1.13 10.88
10/24/2022 1:15:00 AM 9.96 49.928 0.135 7.49 1.2 10.88
10/24/2022 1:30:00 AM 9.94 49.892 0.135 7.5 1.03 10.89
10/24/2022 1:45:00 AM 9.92 49.856 0.135 7.47 1.09 10.89
10/24/2022 2:00:00 AM 9.91 49.838 0.135 7.48 1.11 10.9
10/24/2022 2:15:00 AM 9.91 49.838 0.135 7.48 1.08 10.89
10/24/2022 2:30:00 AM 9.9 49.82 0.135 7.45 1.08 10.89
10/24/2022 2:45:00 AM 9.9 49.82 0.134 7.47 1.12 10.9
10/24/2022 3:00:00 AM 9.91 49.838 0.134 7.49 1.12 10.89
10/24/2022 3:15:00 AM 9.9 49.82 0.134 7.48 1.09 10.89
10/24/2022 3:30:00 AM 9.9 49.82 0.135 7.48 1.19 10.89
10/24/2022 3:45:00 AM 9.9 49.82 0.135 7.49 1.11 10.89
10/24/2022 4:00:00 AM 9.9 49.82 0.135 7.46 1.11 10.89
10/24/2022 4:15:00 AM 9.91 49.838 0.135 7.49 1.06 10.88
10/24/2022 4:30:00 AM 9.92 49.856 0.134 7.48 1.1 10.88
10/24/2022 4:45:00 AM 9.93 49.874 0.134 7.5 1.06 10.88
10/24/2022 5:00:00 AM 9.94 49.892 0.134 7.48 1.06 10.89
10/24/2022 5:15:00 AM 9.94 49.892 0.134 7.47 1.12 10.87
10/24/2022 5:30:00 AM 9.95 49.91 0.134 7.49 1.13 10.88
10/24/2022 5:45:00 AM 9.95 49.91 0.134 7.47 1.18 10.88
10/24/2022 6:00:00 AM 9.96 49.928 0.134 7.47 1.11 10.87
10/24/2022 6:15:00 AM 9.97 49.946 0.134 7.47 1.11 10.87
10/24/2022 6:30:00 AM 9.98 49.964 0.134 7.46 1.18 10.86
10/24/2022 6:45:00 AM 9.98 49.964 0.134 7.48 1.09 10.87
10/24/2022 7:00:00 AM 9.98 49.964 0.134 7.47 1.1 10.87
10/24/2022 7:15:00 AM 9.99 49.982 0.134 7.48 1.16 10.87
10/24/2022 7:30:00 AM 9.99 49.982 0.134 7.44 1.12 10.88
10/24/2022 7:45:00 AM 10 50 0.134 7.49 1.18 10.88
10/24/2022 8:00:00 AM 10 50 0.134 7.49 1.19 10.93
10/24/2022 8:15:00 AM 10.01 50.018 0.134 7.47 1.15 10.98
10/24/2022 8:30:00 AM 10.02 50.036 0.135 7.49 1.11 11.02
10/24/2022 8:45:00 AM 10.03 50.054 0.135 7.52 1.12 11.07
10/24/2022 9:00:00 AM 10.05 50.09 0.135 7.53 1.13 11.13
10/24/2022 9:15:00 AM 10.07 50.126 0.135 7.55 1.11 11.17
10/24/2022 9:30:00 AM 10.11 50.198 0.134 7.58 1.13 11.37
10/24/2022 9:45:00 AM 10.16 50.288 0.134 7.61 1.11 11.52
10/24/2022 10:00:00 AM 10.2 50.36 0.134 7.65 1.11 11.63
10/24/2022 10:15:00 AM 10.28 50.504 0.134 7.71 1.04 11.78
10/24/2022 10:30:00 AM 10.39 50.702 0.133 7.78 1.07 11.95
10/24/2022 10:45:00 AM 10.5 50.9 0.133 7.85 1.13 12.08
10/24/2022 11:00:00 AM 10.64 51.152 0.133 7.94 1.13 12.15
10/24/2022 11:15:00 AM 10.81 51.458 0.133 8.01 1.07 12.19
10/24/2022 11:30:00 AM 10.85 51.53 0.133 8.06 1.05 12.16
10/24/2022 11:45:00 AM 10.9 51.62 0.133 8.08 1.04 12.1
10/24/2022 12:00:00 PM 11.04 51.872 0.133 8.14 1.04 12.14
10/24/2022 12:15:00 PM 11.33 52.394 0.132 8.2 1.03 12.23
10/24/2022 12:30:00 PM 11.56 52.808 0.132 8.28 1.04 12.2
10/24/2022 12:45:00 PM 11.67 53.006 0.132 8.32 1.08 12.14
10/24/2022 1:00:00 PM 11.8 53.24 0.132 8.35 1.06 12.1
10/24/2022 1:15:00 PM 11.92 53.456 0.132 8.38 1.06 12.08
10/24/2022 1:30:00 PM 12.01 53.618 0.132 8.4 1.08 12.03
10/24/2022 1:45:00 PM 12.13 53.834 0.132 8.43 1.09 12
10/24/2022 2:00:00 PM 12.26 54.068 0.132 8.45 1.11 11.96
10/24/2022 2:15:00 PM 12.32 54.176 0.132 8.46 1.05 11.92
10/24/2022 2:30:00 PM 12.37 54.266 0.132 8.46 1.04 11.92
10/24/2022 2:45:00 PM 12.48 54.464 0.132 8.49 1.06 11.93
10/24/2022 3:00:00 PM 12.5 54.5 0.132 8.47 1.05 11.89
10/24/2022 3:15:00 PM 12.53 54.554 0.132 8.49 1.06 11.85
10/24/2022 3:30:00 PM 12.6 54.68 0.132 8.48 1.12 11.81
10/24/2022 3:45:00 PM 12.67 54.806 0.132 8.48 1.13 11.76
10/24/2022 4:00:00 PM 12.71 54.878 0.132 8.47 1.13 11.71
10/24/2022 4:15:00 PM 12.75 54.95 0.132 8.41 1.1 11.59
10/24/2022 4:30:00 PM 12.76 54.968 0.132 8.35 1.11 11.46
10/24/2022 4:45:00 PM 12.75 54.95 0.132 8.24 1.11 11.29
10/24/2022 5:00:00 PM 12.72 54.896 0.132 8.13 1.16 11.13
10/24/2022 5:15:00 PM 12.68 54.824 0.133 8 1.14 11.01
10/24/2022 5:30:00 PM 12.64 54.752 0.133 7.96 1.22 10.91
10/24/2022 5:45:00 PM 12.6 54.68 0.133 7.88 1.17 10.77
10/24/2022 6:00:00 PM 12.56 54.608 0.133 7.82 1.21 10.64
10/24/2022 6:15:00 PM 12.5 54.5 0.134 7.76 1.16 10.52
10/24/2022 6:30:00 PM 12.45 54.41 0.134 7.7 1.13 10.42
10/24/2022 6:45:00 PM 12.4 54.32 0.134 7.67 1.27 10.35
10/24/2022 7:00:00 PM 12.35 54.23 0.134 7.64 1.19 10.3
10/24/2022 7:15:00 PM 12.31 54.158 0.134 7.56 1.28 10.27
10/24/2022 7:30:00 PM 12.28 54.104 0.134 7.56 1.17 10.24
10/24/2022 7:45:00 PM 12.25 54.05 0.135 7.55 1.2 10.24
10/24/2022 8:00:00 PM 12.21 53.978 0.135 7.53 1.18 10.24
10/24/2022 8:15:00 PM 12.18 53.924 0.135 7.53 1.19 10.24
10/24/2022 8:30:00 PM 12.15 53.87 0.135 7.53 1.24 10.24
10/24/2022 8:45:00 PM 12.1 53.78 0.135 7.51 1.18 10.25
10/24/2022 9:00:00 PM 12.04 53.672 0.135 7.5 1.19 10.25
10/24/2022 9:15:00 PM 11.98 53.564 0.135 7.48 1.2 10.27
10/24/2022 9:30:00 PM 11.92 53.456 0.135 7.48 1.13 10.28
10/24/2022 9:45:00 PM 11.85 53.33 0.135 7.49 1.18 10.3
10/24/2022 10:00:00 PM 11.79 53.222 0.135 7.48 1.19 10.3
10/24/2022 10:15:00 PM 11.72 53.096 0.135 7.47 1.13 10.31
10/24/2022 10:30:00 PM 11.66 52.988 0.135 7.47 1.2 10.32
10/24/2022 10:45:00 PM 11.61 52.898 0.135 7.46 1.12 10.34
10/24/2022 11:00:00 PM 11.57 52.826 0.136 7.47 1.14 10.35
10/24/2022 11:15:00 PM 11.54 52.772 0.136 7.46 1.16 10.37
10/24/2022 11:30:00 PM 11.52 52.736 0.136 7.48 1.21 10.37
10/24/2022 11:45:00 PM 11.5 52.7 0.136 7.48 1.09 10.38
10/25/2022 12:00:00 AM 11.49 52.682 0.136 7.49 1.14 10.39
10/25/2022 12:15:00 AM 11.47 52.646 0.136 7.48 1.13 10.4
10/25/2022 12:30:00 AM 11.46 52.628 0.136 7.49 1.13 10.4
10/25/2022 12:45:00 AM 11.45 52.61 0.136 7.48 1.16 10.41
10/25/2022 1:00:00 AM 11.45 52.61 0.136 7.48 1.2 10.41
10/25/2022 1:15:00 AM 11.44 52.592 0.136 7.45 1.37 10.41
10/25/2022 1:30:00 AM 11.44 52.592 0.136 7.46 1.24 10.41
10/25/2022 1:45:00 AM 11.43 52.574 0.136 7.48 1.23 10.41
10/25/2022 2:00:00 AM 11.42 52.556 0.136 7.45 1.15 10.41
10/25/2022 2:15:00 AM 11.41 52.538 0.136 7.47 1.21 10.42
10/25/2022 2:30:00 AM 11.4 52.52 0.136 7.47 1.19 10.42
10/25/2022 2:45:00 AM 11.38 52.484 0.136 7.43 1.18 10.42
10/25/2022 3:00:00 AM 11.37 52.466 0.136 7.48 1.18 10.43
10/25/2022 3:15:00 AM 11.36 52.448 0.136 7.48 1.13 10.43
10/25/2022 3:30:00 AM 11.35 52.43 0.136 7.46 1.22 10.43
10/25/2022 3:45:00 AM 11.35 52.43 0.136 7.46 1.21 10.43
10/25/2022 4:00:00 AM 11.35 52.43 0.136 7.47 1.3 10.42
10/25/2022 4:15:00 AM 11.34 52.412 0.136 7.46 1.34 10.43
10/25/2022 4:30:00 AM 11.34 52.412 0.136 7.47 1.23 10.44
10/25/2022 4:45:00 AM 11.34 52.412 0.136 7.46 1.22 10.43
10/25/2022 5:00:00 AM 11.34 52.412 0.136 7.46 1.17 10.44
10/25/2022 5:15:00 AM 11.34 52.412 0.136 7.47 1.2 10.44
10/25/2022 5:30:00 AM 11.34 52.412 0.136 7.45 1.17 10.45
10/25/2022 5:45:00 AM 11.34 52.412 0.136 7.46 1.2 10.43
10/25/2022 6:00:00 AM 11.34 52.412 0.136 7.45 1.19 10.43
10/25/2022 6:15:00 AM 11.33 52.394 0.136 7.46 1.21 10.43
10/25/2022 6:30:00 AM 11.33 52.394 0.136 7.46 1.14 10.43
10/25/2022 6:45:00 AM 11.33 52.394 0.136 7.46 1.26 10.43
10/25/2022 7:00:00 AM 11.33 52.394 0.136 7.46 1.15 10.43
10/25/2022 7:15:00 AM 11.33 52.394 0.136 7.44 1.19 10.43
10/25/2022 7:30:00 AM 11.32 52.376 0.136 7.44 1.25 10.44
10/25/2022 7:45:00 AM 11.32 52.376 0.136 7.45 1.15 10.46
10/25/2022 8:00:00 AM 11.33 52.394 0.136 7.46 1.22 10.5
10/25/2022 8:15:00 AM 11.33 52.394 0.136 7.47 1.15 10.55
10/25/2022 8:30:00 AM 11.34 52.412 0.136 7.49 1.2 10.64
10/25/2022 8:45:00 AM 11.36 52.448 0.136 7.51 1.21 10.75
10/25/2022 9:00:00 AM 11.39 52.502 0.136 7.54 1.14 10.87
10/25/2022 9:15:00 AM 11.42 52.556 0.136 7.54 1.15 11
10/25/2022 9:30:00 AM 11.46 52.628 0.135 7.6 1.1 11.13
10/25/2022 9:45:00 AM 11.52 52.736 0.135 7.64 1.09 11.27
10/25/2022 10:00:00 AM 11.59 52.862 0.135 7.7 1.09 11.41
10/25/2022 10:15:00 AM 11.65 52.97 0.135 7.76 1.11 11.51
10/25/2022 10:30:00 AM 11.72 53.096 0.134 7.79 1.13 11.59
10/25/2022 10:45:00 AM 11.81 53.258 0.134 7.89 1.15 11.67
10/25/2022 11:00:00 AM 11.88 53.384 0.134 7.94 1.14 11.72
10/25/2022 11:15:00 AM 11.96 53.528 0.134 8 1.11 11.76
10/25/2022 11:30:00 AM 12.09 53.762 0.134 8.09 1.15 11.85
10/25/2022 11:45:00 AM 12.19 53.942 0.134 8.15 1.07 11.89
10/25/2022 12:00:00 PM 12.31 54.158 0.134 8.22 1.12 11.89
10/25/2022 12:15:00 PM 12.43 54.374 0.134 8.27 1.11 11.92
10/25/2022 12:30:00 PM 12.51 54.518 0.134 8.32 1.12 11.89
10/25/2022 12:45:00 PM 12.61 54.698 0.134 8.33 1.1 11.89
10/25/2022 1:00:00 PM 12.72 54.896 0.134 8.4 1.12 11.87
10/25/2022 1:15:00 PM 12.83 55.094 0.134 8.43 1.11 11.82
10/25/2022 1:30:00 PM 12.95 55.31 0.134 8.46 1.09 11.8
10/25/2022 1:45:00 PM 13.04 55.472 0.134 8.48 1.13 11.74
10/25/2022 2:00:00 PM 13.08 55.544 0.134 8.42 1.08 11.6
10/25/2022 2:15:00 PM 13.09 55.562 0.134 8.34 1.06 11.45
10/25/2022 2:30:00 PM 13.11 55.598 0.134 8.29 1.1 11.35
10/25/2022 2:45:00 PM 13.17 55.706 0.134 8.28 1.13 11.41
10/25/2022 3:00:00 PM 13.21 55.778 0.134 8.29 1.11 11.37
10/25/2022 3:15:00 PM 13.24 55.832 0.134 8.25 1.17 11.3
10/25/2022 3:30:00 PM 13.26 55.868 0.134 8.2 1.09 11.18
10/25/2022 3:45:00 PM 13.27 55.886 0.134 8.14 1.16 11.07
10/25/2022 4:00:00 PM 13.27 55.886 0.134 8.08 1.14 11.01
10/25/2022 4:15:00 PM 13.27 55.886 0.134 8 1.18 10.94
10/25/2022 4:30:00 PM 13.27 55.886 0.134 7.98 1.13 10.86
10/25/2022 4:45:00 PM 13.28 55.904 0.134 7.94 1.23 10.79
10/25/2022 5:00:00 PM 13.28 55.904 0.134 7.89 1.17 10.68
10/25/2022 5:15:00 PM 13.26 55.868 0.135 7.84 1.11 10.55
10/25/2022 5:30:00 PM 13.24 55.832 0.135 7.78 1.18 10.43
10/25/2022 5:45:00 PM 13.21 55.778 0.135 7.72 1.24 10.32
10/25/2022 6:00:00 PM 13.19 55.742 0.135 7.68 1.2 10.21
10/25/2022 6:15:00 PM 13.16 55.688 0.135 7.67 1.17 10.12
10/25/2022 6:30:00 PM 13.13 55.634 0.136 7.65 1.22 10.06
10/25/2022 6:45:00 PM 13.11 55.598 0.136 7.61 1.21 10.03
10/25/2022 7:00:00 PM 13.09 55.562 0.136 7.59 1.14 10
10/25/2022 7:15:00 PM 13.06 55.508 0.136 7.55 1.37 9.99
10/25/2022 7:30:00 PM 13.04 55.472 0.136 7.58 1.2 9.98
10/25/2022 7:45:00 PM 13.02 55.436 0.136 7.58 1.23 9.97
10/25/2022 8:00:00 PM 12.99 55.382 0.136 7.56 1.23 9.96
10/25/2022 8:15:00 PM 12.97 55.346 0.136 7.56 1.25 9.97
10/25/2022 8:30:00 PM 12.95 55.31 0.136 7.55 1.21 9.96
10/25/2022 8:45:00 PM 12.92 55.256 0.136 7.53 1.22 9.96
10/25/2022 9:00:00 PM 12.9 55.22 0.136 7.52 1.2 9.96
10/25/2022 9:15:00 PM 12.88 55.184 0.136 7.53 1.22 9.96
10/25/2022 9:30:00 PM 12.85 55.13 0.136 7.53 1.17 9.97
10/25/2022 9:45:00 PM 12.83 55.094 0.136 7.54 1.18 9.97
10/25/2022 10:00:00 PM 12.8 55.04 0.136 7.53 1.21 9.98
10/25/2022 10:15:00 PM 12.78 55.004 0.136 7.53 1.17 9.99
10/25/2022 10:30:00 PM 12.76 54.968 0.137 7.52 1.24 9.99
10/25/2022 10:45:00 PM 12.73 54.914 0.137 7.52 1.17 10
10/25/2022 11:00:00 PM 12.71 54.878 0.137 7.52 1.13 10.01
10/25/2022 11:15:00 PM 12.69 54.842 0.137 7.51 1.15 10.01
10/25/2022 11:30:00 PM 12.66 54.788 0.137 7.51 1.24 10.02
10/25/2022 11:45:00 PM 12.62 54.716 0.137 7.5 1.12 10.03
10/26/2022 12:00:00 AM 12.59 54.662 0.137 7.5 1.21 10.03
10/26/2022 12:15:00 AM 12.57 54.626 0.137 7.51 1.16 10.04
10/26/2022 12:30:00 AM 12.55 54.59 0.137 7.46 1.22 10.05
10/26/2022 12:45:00 AM 12.54 54.572 0.137 7.49 1.22 10.04
10/26/2022 1:00:00 AM 12.53 54.554 0.137 7.49 1.33 10.04
10/26/2022 1:15:00 AM 12.5 54.5 0.137 7.5 1.29 10.05
10/26/2022 1:30:00 AM 12.47 54.446 0.137 7.5 1.45 10.05
10/26/2022 1:45:00 AM 12.43 54.374 0.137 7.51 1.2 10.06
10/26/2022 2:00:00 AM 12.39 54.302 0.137 7.51 1.14 10.06
10/26/2022 2:15:00 AM 12.35 54.23 0.137 7.47 1.18 10.07
10/26/2022 2:30:00 AM 12.32 54.176 0.137 7.48 1.22 10.07
10/26/2022 2:45:00 AM 12.29 54.122 0.137 7.5 1.16 10.07
10/26/2022 3:00:00 AM 12.27 54.086 0.137 7.5 1.19 10.07
10/26/2022 3:15:00 AM 12.25 54.05 0.136 7.51 1.18 10.08
10/26/2022 3:30:00 AM 12.23 54.014 0.136 7.51 1.23 10.09
10/26/2022 3:45:00 AM 12.21 53.978 0.136 7.47 1.26 10.1
10/26/2022 4:00:00 AM 12.21 53.978 0.136 7.5 1.27 10.09
10/26/2022 4:15:00 AM 12.2 53.96 0.137 7.51 1.28 10.09
10/26/2022 4:30:00 AM 12.21 53.978 0.137 7.51 1.27 10.09
10/26/2022 4:45:00 AM 12.22 53.996 0.137 7.51 1.53 10.09
10/26/2022 5:00:00 AM 12.21 53.978 0.137 7.48 1.15 10.08
10/26/2022 5:15:00 AM 12.19 53.942 0.137 7.5 1.17 10.09
10/26/2022 5:30:00 AM 12.16 53.888 0.137 7.5 1.19 10.1
10/26/2022 5:45:00 AM 12.14 53.852 0.137 7.49 1.21 10.11
10/26/2022 6:00:00 AM 12.12 53.816 0.137 7.51 1.17 10.12
10/26/2022 6:15:00 AM 12.1 53.78 0.137 7.48 1.14 10.12
10/26/2022 6:30:00 AM 12.08 53.744 0.137 7.5 1.18 10.13
10/26/2022 6:45:00 AM 12.06 53.708 0.137 7.51 1.22 10.14
10/26/2022 7:00:00 AM 12.05 53.69 0.137 7.51 1.19 10.15
10/26/2022 7:15:00 AM 12.03 53.654 0.137 7.52 1.15 10.15
10/26/2022 7:30:00 AM 12.01 53.618 0.137 7.52 1.16 10.16
10/26/2022 7:45:00 AM 11.99 53.582 0.137 7.49 1.25 10.2
10/26/2022 8:00:00 AM 11.98 53.564 0.137 7.51 1.2 10.28
10/26/2022 8:15:00 AM 11.95 53.51 0.137 7.55 1.2 10.39
10/26/2022 8:30:00 AM 11.92 53.456 0.137 7.56 1.22 10.48
10/26/2022 8:45:00 AM 11.89 53.402 0.137 7.59 1.15 10.6
10/26/2022 9:00:00 AM 11.87 53.366 0.136 7.61 1.17 10.72
10/26/2022 9:15:00 AM 11.87 53.366 0.136 7.65 1.12 10.9
10/26/2022 9:30:00 AM 11.91 53.438 0.136 7.72 1.12 11.11
10/26/2022 9:45:00 AM 11.94 53.492 0.136 7.76 1.11 11.22
10/26/2022 10:00:00 AM 11.97 53.546 0.135 7.83 1.23 11.33
10/26/2022 10:15:00 AM 12.02 53.636 0.135 7.89 1.2 11.42
10/26/2022 10:30:00 AM 12.09 53.762 0.135 7.96 1.18 11.52
10/26/2022 10:45:00 AM 12.16 53.888 0.135 8.03 1.18 11.6
10/26/2022 11:00:00 AM 12.23 54.014 0.135 8.09 1.12 11.65
10/26/2022 11:15:00 AM 12.37 54.266 0.135 8.19 1.21 11.76
10/26/2022 11:30:00 AM 12.56 54.608 0.135 8.3 1.11 11.82
10/26/2022 11:45:00 AM 12.59 54.662 0.135 8.31 1.12 11.73
10/26/2022 12:00:00 PM 12.63 54.734 0.135 8.33 1.15 11.73
10/26/2022 12:15:00 PM 12.69 54.842 0.134 8.37 1.14 11.71
10/26/2022 12:30:00 PM 12.71 54.878 0.135 8.33 1.15 11.6
10/26/2022 12:45:00 PM 12.81 55.058 0.134 8.35 1.15 11.61
10/26/2022 1:00:00 PM 12.93 55.274 0.134 8.39 1.16 11.58
10/26/2022 1:15:00 PM 13.03 55.454 0.134 8.44 1.16 11.61
10/26/2022 1:30:00 PM 13.08 55.544 0.134 8.43 1.17 11.53
10/26/2022 1:45:00 PM 13.12 55.616 0.134 8.42 1.12 11.49
10/26/2022 2:00:00 PM 13.16 55.688 0.134 8.45 1.1 11.53
10/26/2022 2:15:00 PM 13.25 55.85 0.134 8.51 1.18 11.61
10/26/2022 2:30:00 PM 13.24 55.832 0.134 8.45 1.1 11.42
10/26/2022 2:45:00 PM 13.2 55.76 0.134 8.33 1.21 11.18
10/26/2022 3:00:00 PM 13.16 55.688 0.134 8.17 1.11 10.88
10/26/2022 3:15:00 PM 13.11 55.598 0.135 8.02 1.17 10.69
10/26/2022 3:30:00 PM 13.06 55.508 0.135 7.91 1.21 10.59
10/26/2022 3:45:00 PM 13.04 55.472 0.135 7.91 1.18 10.6
10/26/2022 4:00:00 PM 13.02 55.436 0.135 7.87 1.23 10.62
10/26/2022 4:15:00 PM 13.03 55.454 0.135 7.88 1.27 10.68
10/26/2022 4:30:00 PM 13.02 55.436 0.135 7.85 1.16 10.66
10/26/2022 4:45:00 PM 13.03 55.454 0.135 7.89 1.19 10.77
10/26/2022 5:00:00 PM 13.02 55.436 0.135 7.91 1.18 10.77
10/26/2022 5:15:00 PM 13.02 55.436 0.135 7.88 1.19 10.71
10/26/2022 5:30:00 PM 13 55.4 0.135 7.82 1.22 10.48
10/26/2022 5:45:00 PM 12.98 55.364 0.135 7.75 1.2 10.35
10/26/2022 6:00:00 PM 12.96 55.328 0.135 7.7 1.23 10.23
10/26/2022 6:15:00 PM 12.92 55.256 0.136 7.68 1.26 10.14
10/26/2022 6:30:00 PM 12.88 55.184 0.136 7.65 1.24 10.07
10/26/2022 6:45:00 PM 12.85 55.13 0.136 7.62 1.19 10.02
10/26/2022 7:00:00 PM 12.82 55.076 0.136 7.59 1.27 9.99
10/26/2022 7:15:00 PM 12.79 55.022 0.136 7.58 1.37 9.98
10/26/2022 7:30:00 PM 12.76 54.968 0.137 7.52 1.19 9.97
10/26/2022 7:45:00 PM 12.72 54.896 0.137 7.55 1.28 9.96
10/26/2022 8:00:00 PM 12.67 54.806 0.137 7.53 1.27 9.98
10/26/2022 8:15:00 PM 12.63 54.734 0.137 7.52 1.17 9.99
10/26/2022 8:30:00 PM 12.6 54.68 0.137 7.51 1.24 9.99
10/26/2022 8:45:00 PM 12.57 54.626 0.137 7.52 1.26 10
10/26/2022 9:00:00 PM 12.55 54.59 0.137 7.49 1.21 10
10/26/2022 9:15:00 PM 12.52 54.536 0.137 7.51 1.22 10.01
10/26/2022 9:30:00 PM 12.5 54.5 0.137 7.51 1.24 10.02
10/26/2022 9:45:00 PM 12.47 54.446 0.137 7.52 1.22 10.02
10/26/2022 10:00:00 PM 12.44 54.392 0.137 7.52 1.18 10.04
10/26/2022 10:15:00 PM 12.41 54.338 0.137 7.52 1.15 10.03
10/26/2022 10:30:00 PM 12.38 54.284 0.137 7.53 1.19 10.05
10/26/2022 10:45:00 PM 12.36 54.248 0.137 7.54 1.2 10.05
10/26/2022 11:00:00 PM 12.32 54.176 0.137 7.52 1.19 10.05
10/26/2022 11:15:00 PM 12.29 54.122 0.137 7.52 1.25 10.06
10/26/2022 11:30:00 PM 12.26 54.068 0.137 7.5 1.24 10.06
10/26/2022 11:45:00 PM 12.22 53.996 0.137 7.53 1.26 10.08
10/27/2022 12:00:00 AM 12.18 53.924 0.137 7.53 1.31 10.09
10/27/2022 12:15:00 AM 12.14 53.852 0.137 7.53 1.29 10.11
10/27/2022 12:30:00 AM 12.12 53.816 0.137 7.52 1.28 10.12
10/27/2022 12:45:00 AM 12.09 53.762 0.137 7.51 1.23 10.14
10/27/2022 1:00:00 AM 12.05 53.69 0.137 7.49 1.28 10.15
10/27/2022 1:15:00 AM 12.01 53.618 0.137 7.53 1.26 10.15
10/27/2022 1:30:00 AM 11.98 53.564 0.137 7.53 1.28 10.17
10/27/2022 1:45:00 AM 11.94 53.492 0.137 7.52 1.2 10.19
10/27/2022 2:00:00 AM 11.91 53.438 0.137 7.52 1.24 10.2
10/27/2022 2:15:00 AM 11.88 53.384 0.137 7.51 1.27 10.21
10/27/2022 2:30:00 AM 11.84 53.312 0.137 7.51 1.37 10.22
10/27/2022 2:45:00 AM 11.8 53.24 0.137 7.52 1.34 10.22
10/27/2022 3:00:00 AM 11.75 53.15 0.137 7.52 1.29 10.23
10/27/2022 3:15:00 AM 11.69 53.042 0.137 7.51 1.21 10.25
10/27/2022 3:30:00 AM 11.64 52.952 0.137 7.52 1.27 10.26
10/27/2022 3:45:00 AM 11.6 52.88 0.137 7.51 1.24 10.27
10/27/2022 4:00:00 AM 11.56 52.808 0.137 7.5 1.23 10.28
10/27/2022 4:15:00 AM 11.51 52.718 0.137 7.51 1.24 10.3
10/27/2022 4:30:00 AM 11.47 52.646 0.137 7.51 1.2 10.32
10/27/2022 4:45:00 AM 11.44 52.592 0.137 7.51 1.3 10.33
10/27/2022 5:00:00 AM 11.4 52.52 0.137 7.52 1.29 10.34
10/27/2022 5:15:00 AM 11.37 52.466 0.137 7.52 1.21 10.37
10/27/2022 5:30:00 AM 11.32 52.376 0.137 7.53 1.27 10.39
10/27/2022 5:45:00 AM 11.26 52.268 0.137 7.54 1.18 10.4
10/27/2022 6:00:00 AM 11.22 52.196 0.137 7.53 1.14 10.41
10/27/2022 6:15:00 AM 11.15 52.07 0.137 7.52 1.2 10.43
10/27/2022 6:30:00 AM 11.1 51.98 0.137 7.51 1.18 10.44
10/27/2022 6:45:00 AM 11.07 51.926 0.137 7.51 1.15 10.45
10/27/2022 7:00:00 AM 11.01 51.818 0.137 7.51 1.3 10.46
10/27/2022 7:15:00 AM 10.97 51.746 0.137 7.5 1.23 10.48
10/27/2022 7:30:00 AM 10.93 51.674 0.137 7.52 1.22 10.5
10/27/2022 7:45:00 AM 10.89 51.602 0.137 7.53 1.19 10.55
10/27/2022 8:00:00 AM 10.83 51.494 0.137 7.53 1.2 10.66
10/27/2022 8:15:00 AM 10.74 51.332 0.137 7.55 1.25 10.76
10/27/2022 8:30:00 AM 10.66 51.188 0.137 7.53 1.2 10.89
10/27/2022 8:45:00 AM 10.61 51.098 0.137 7.57 1.16 11.05
10/27/2022 9:00:00 AM 10.6 51.08 0.136 7.64 1.22 11.28
10/27/2022 9:15:00 AM 10.62 51.116 0.136 7.7 1.17 11.46
10/27/2022 9:30:00 AM 10.63 51.134 0.136 7.72 1.2 11.6
10/27/2022 9:45:00 AM 10.71 51.278 0.136 7.81 1.23 11.75
10/27/2022 10:00:00 AM 10.76 51.368 0.136 7.9 1.17 11.89
10/27/2022 10:15:00 AM 10.79 51.422 0.135 7.95 1.23 11.98
10/27/2022 10:30:00 AM 10.76 51.368 0.135 7.98 1.24 12
10/27/2022 10:45:00 AM 10.79 51.422 0.135 8.03 1.21 12.01
10/27/2022 11:00:00 AM 10.81 51.458 0.135 8.04 1.18 11.97
10/27/2022 11:15:00 AM 10.84 51.512 0.135 8.04 1.13 11.94
10/27/2022 11:30:00 AM 10.88 51.584 0.136 8.05 1.16 11.91
10/27/2022 11:45:00 AM 10.94 51.692 0.136 8.06 1.1 11.9
10/27/2022 12:00:00 PM 11.01 51.818 0.136 8.07 1.21 11.9
10/27/2022 12:15:00 PM 11.11 51.998 0.136 8.11 1.11 11.92
10/27/2022 12:30:00 PM 11.21 52.178 0.135 8.13 1.21 11.93
10/27/2022 12:45:00 PM 11.33 52.394 0.135 8.16 1.08 11.93
10/27/2022 1:00:00 PM 11.45 52.61 0.135 8.18 1.1 11.92
10/27/2022 1:15:00 PM 11.6 52.88 0.135 8.21 1.12 11.9
10/27/2022 1:30:00 PM 11.73 53.114 0.135 8.21 1.04 11.88
10/27/2022 1:45:00 PM 11.82 53.276 0.135 8.26 1.1 11.88
10/27/2022 2:00:00 PM 11.89 53.402 0.135 8.29 1.11 11.87
10/27/2022 2:15:00 PM 11.99 53.582 0.135 8.29 1.08 11.83
10/27/2022 2:30:00 PM 12.1 53.78 0.135 8.31 1.08 11.79
10/27/2022 2:45:00 PM 12.17 53.906 0.135 8.3 1.13 11.75
10/27/2022 3:00:00 PM 12.22 53.996 0.135 8.32 1.12 11.7
10/27/2022 3:15:00 PM 12.22 53.996 0.135 8.3 1.14 11.6
10/27/2022 3:30:00 PM 12.22 53.996 0.135 8.25 1.13 11.5
10/27/2022 3:45:00 PM 12.21 53.978 0.135 8.19 1.12 11.4
10/27/2022 4:00:00 PM 12.24 54.032 0.135 8.12 1.16 11.29
10/27/2022 4:15:00 PM 12.28 54.104 0.135 8.07 1.2 11.22
10/27/2022 4:30:00 PM 12.31 54.158 0.135 8.05 1.13 11.17
10/27/2022 4:45:00 PM 12.31 54.158 0.135 8 1.11 11.09
10/27/2022 5:00:00 PM 12.27 54.086 0.135 7.98 1.22 11.04
10/27/2022 5:15:00 PM 12.26 54.068 0.135 7.94 1.26 11
10/27/2022 5:30:00 PM 12.2 53.96 0.135 7.91 1.26 10.94
10/27/2022 5:45:00 PM 12.1 53.78 0.135 7.87 1.19 10.87
10/27/2022 6:00:00 PM 12 53.6 0.136 7.8 1.23 10.79
10/27/2022 6:15:00 PM 11.89 53.402 0.136 7.76 1.31 10.69
10/27/2022 6:30:00 PM 11.78 53.204 0.136 7.66 1.27 10.6
10/27/2022 6:45:00 PM 11.67 53.006 0.137 7.66 1.26 10.52
10/27/2022 7:00:00 PM 11.56 52.808 0.137 7.61 1.26 10.48
10/27/2022 7:15:00 PM 11.44 52.592 0.137 7.58 1.26 10.49
10/27/2022 7:30:00 PM 11.33 52.394 0.137 7.54 1.21 10.51
10/27/2022 7:45:00 PM 11.21 52.178 0.137 7.53 1.26 10.52
10/27/2022 8:00:00 PM 11.07 51.926 0.137 7.54 1.31 10.54
10/27/2022 8:15:00 PM 10.94 51.692 0.137 7.53 1.28 10.56
10/27/2022 8:30:00 PM 10.8 51.44 0.137 7.5 1.23 10.61
10/27/2022 8:45:00 PM 10.68 51.224 0.137 7.52 1.25 10.64
10/27/2022 9:00:00 PM 10.55 50.99 0.137 7.51 1.28 10.68
10/27/2022 9:15:00 PM 10.43 50.774 0.137 7.51 1.24 10.71
10/27/2022 9:30:00 PM 10.3 50.54 0.137 7.51 1.24 10.74
10/27/2022 9:45:00 PM 10.18 50.324 0.137 7.51 1.37 10.78
10/27/2022 10:00:00 PM 10.06 50.108 0.137 7.5 1.32 10.83
10/27/2022 10:15:00 PM 9.95 49.91 0.137 7.5 1.24 10.87
10/27/2022 10:30:00 PM 9.84 49.712 0.138 7.51 1.19 10.9
10/27/2022 10:45:00 PM 9.74 49.532 0.138 7.5 1.22 10.91
10/27/2022 11:00:00 PM 9.63 49.334 0.138 7.51 1.2 10.94
10/27/2022 11:15:00 PM 9.53 49.154 0.138 7.46 1.26 10.99
10/27/2022 11:30:00 PM 9.44 48.992 0.138 7.5 1.26 11.02
10/27/2022 11:45:00 PM 9.34 48.812 0.138 7.51 1.21 11.06
10/28/2022 12:00:00 AM 9.25 48.65 0.138 7.51 1.25 11.09
10/28/2022 12:15:00 AM 9.16 48.488 0.138 7.47 1.27 11.11
10/28/2022 12:30:00 AM 9.07 48.326 0.138 7.5 1.18 11.13
10/28/2022 12:45:00 AM 8.98 48.164 0.138 7.51 1.21 11.15
10/28/2022 1:00:00 AM 8.9 48.02 0.138 7.52 1.28 11.19
10/28/2022 1:15:00 AM 8.82 47.876 0.138 7.51 1.21 11.21
10/28/2022 1:30:00 AM 8.75 47.75 0.138 7.51 1.25 11.25
10/28/2022 1:45:00 AM 8.67 47.606 0.138 7.51 1.24 11.27
10/28/2022 2:00:00 AM 8.6 47.48 0.138 7.51 1.29 11.29
10/28/2022 2:15:00 AM 8.53 47.354 0.138 7.51 1.22 11.31
10/28/2022 2:30:00 AM 8.47 47.246 0.138 7.51 1.21 11.32
10/28/2022 2:45:00 AM 8.4 47.12 0.137 7.52 1.18 11.34
10/28/2022 3:00:00 AM 8.33 46.994 0.137 7.51 1.2 11.37
10/28/2022 3:15:00 AM 8.26 46.868 0.137 7.51 1.16 11.4
10/28/2022 3:30:00 AM 8.2 46.76 0.138 7.51 1.19 11.43
10/28/2022 3:45:00 AM 8.13 46.634 0.138 7.51 1.2 11.45
10/28/2022 4:00:00 AM 8.07 46.526 0.138 7.51 1.19 11.47
10/28/2022 4:15:00 AM 8 46.4 0.138 7.51 1.09 11.5
10/28/2022 4:30:00 AM 7.94 46.292 0.138 7.52 1.13 11.5
10/28/2022 4:45:00 AM 7.88 46.184 0.138 7.52 1.14 11.52
10/28/2022 5:00:00 AM 7.81 46.058 0.138 7.49 1.1 11.54
10/28/2022 5:15:00 AM 7.76 45.968 0.138 7.48 1.16 11.55
10/28/2022 5:30:00 AM 7.7 45.86 0.138 7.52 1.17 11.58
10/28/2022 5:45:00 AM 7.66 45.788 0.138 7.51 1.17 11.59
10/28/2022 6:00:00 AM 7.62 45.716 0.138 7.52 1.12 11.61
10/28/2022 6:15:00 AM 7.57 45.626 0.138 7.52 1.1 11.63
10/28/2022 6:30:00 AM 7.51 45.518 0.138 7.48 1.1 11.65
10/28/2022 6:45:00 AM 7.46 45.428 0.138 7.51 1.12 11.67
10/28/2022 7:00:00 AM 7.4 45.32 0.138 7.52 1.16 11.68
10/28/2022 7:15:00 AM 7.35 45.23 0.138 7.52 1.15 11.7
10/28/2022 7:30:00 AM 7.3 45.14 0.138 7.52 1.2 11.72
10/28/2022 7:45:00 AM 7.27 45.086 0.138 7.52 1.17 11.75
10/28/2022 8:00:00 AM 7.23 45.014 0.138 7.54 1.19 11.84
10/28/2022 8:15:00 AM 7.2 44.96 0.137 7.56 1.29 11.98
10/28/2022 8:30:00 AM 7.18 44.924 0.137 7.59 1.18 12.14
10/28/2022 8:45:00 AM 7.17 44.906 0.137 7.61 1.19 12.28
10/28/2022 9:00:00 AM 7.16 44.888 0.137 7.66 1.18 12.42
10/28/2022 9:15:00 AM 7.18 44.924 0.137 7.71 1.14 12.59
10/28/2022 9:30:00 AM 7.22 44.996 0.136 7.75 1.12 12.74
10/28/2022 9:45:00 AM 7.26 45.068 0.136 7.8 1.14 12.84
10/28/2022 10:00:00 AM 7.33 45.194 0.136 7.81 1.15 12.94
10/28/2022 10:15:00 AM 7.43 45.374 0.136 7.91 1.14 13.03
10/28/2022 10:30:00 AM 7.54 45.572 0.136 7.97 1.1 13.08
10/28/2022 10:45:00 AM 7.63 45.734 0.135 8.02 1.14 13.12
10/28/2022 11:00:00 AM 7.76 45.968 0.135 8.07 1.11 13.14
10/28/2022 11:15:00 AM 7.91 46.238 0.135 8.13 1.11 13.17
10/28/2022 11:30:00 AM 8.05 46.49 0.135 8.18 1.07 13.18
10/28/2022 11:45:00 AM 8.2 46.76 0.135 8.21 1.14 13.16
10/28/2022 12:00:00 PM 8.39 47.102 0.135 8.25 1.1 13.09
10/28/2022 12:15:00 PM 8.57 47.426 0.135 8.28 1.11 13.03
10/28/2022 12:30:00 PM 8.71 47.678 0.135 8.27 1.08 12.95
10/28/2022 12:45:00 PM 8.86 47.948 0.135 8.27 1.03 12.86
10/28/2022 1:00:00 PM 8.98 48.164 0.135 8.26 1.03 12.78
10/28/2022 1:15:00 PM 9.09 48.362 0.135 8.25 1.05 12.73
10/28/2022 1:30:00 PM 9.22 48.596 0.135 8.2 1.05 12.71
10/28/2022 1:45:00 PM 9.35 48.83 0.135 8.27 1.01 12.7
10/28/2022 2:00:00 PM 9.52 49.136 0.135 8.33 1.04 12.7
10/28/2022 2:15:00 PM 9.68 49.424 0.135 8.35 1.07 12.67
10/28/2022 2:30:00 PM 9.85 49.73 0.135 8.39 1.04 12.66
10/28/2022 2:45:00 PM 9.95 49.91 0.135 8.42 1.06 12.61
10/28/2022 3:00:00 PM 10.08 50.144 0.134 8.46 1.04 12.59
10/28/2022 3:15:00 PM 10.18 50.324 0.134 8.48 1.05 12.56
10/28/2022 3:30:00 PM 10.28 50.504 0.134 8.5 1.08 12.52
10/28/2022 3:45:00 PM 10.38 50.684 0.135 8.52 1.07 12.49
10/28/2022 4:00:00 PM 10.47 50.846 0.134 8.53 1.07 12.47
10/28/2022 4:15:00 PM 10.53 50.954 0.134 8.52 1.02 12.39
10/28/2022 4:30:00 PM 10.54 50.972 0.134 8.5 1.06 12.31
10/28/2022 4:45:00 PM 10.53 50.954 0.134 8.44 1.1 12.21
10/28/2022 5:00:00 PM 10.5 50.9 0.135 8.36 1.1 12.08
10/28/2022 5:15:00 PM 10.49 50.882 0.135 8.27 1.14 11.96
10/28/2022 5:30:00 PM 10.46 50.828 0.135 8.16 1.1 11.83
10/28/2022 5:45:00 PM 10.42 50.756 0.135 8.06 1.17 11.66
10/28/2022 6:00:00 PM 10.38 50.684 0.136 7.93 1.16 11.48
10/28/2022 6:15:00 PM 10.31 50.558 0.136 7.87 1.24 11.3
10/28/2022 6:30:00 PM 10.22 50.396 0.136 7.8 1.21 11.17
10/28/2022 6:45:00 PM 10.13 50.234 0.137 7.75 1.24 11.09
10/28/2022 7:00:00 PM 10.03 50.054 0.137 7.71 1.25 11.04
10/28/2022 7:15:00 PM 9.93 49.874 0.137 7.66 1.21 11.01
10/28/2022 7:30:00 PM 9.83 49.694 0.137 7.6 1.19 11
10/28/2022 7:45:00 PM 9.73 49.514 0.137 7.61 1.19 11
10/28/2022 8:00:00 PM 9.63 49.334 0.137 7.6 1.18 11
10/28/2022 8:15:00 PM 9.53 49.154 0.137 7.58 1.24 11.05
10/28/2022 8:30:00 PM 9.42 48.956 0.137 7.57 1.22 11.08
10/28/2022 8:45:00 PM 9.31 48.758 0.137 7.55 1.13 11.1
10/28/2022 9:00:00 PM 9.21 48.578 0.137 7.55 1.2 11.12
10/28/2022 9:15:00 PM 9.1 48.38 0.137 7.54 1.23 11.14
10/28/2022 9:30:00 PM 9 48.2 0.137 7.53 1.22 11.16
10/28/2022 9:45:00 PM 8.9 48.02 0.138 7.54 1.22 11.2
10/28/2022 10:00:00 PM 8.8 47.84 0.138 7.53 1.25 11.24
10/28/2022 10:15:00 PM 8.7 47.66 0.138 7.52 1.24 11.27
10/28/2022 10:30:00 PM 8.6 47.48 0.138 7.52 1.21 11.3
10/28/2022 10:45:00 PM 8.5 47.3 0.138 7.52 1.19 11.32
10/28/2022 11:00:00 PM 8.4 47.12 0.138 7.51 1.2 11.34
10/28/2022 11:15:00 PM 8.31 46.958 0.138 7.52 1.13 11.38
10/28/2022 11:30:00 PM 8.22 46.796 0.138 7.51 1.28 11.4
10/28/2022 11:45:00 PM 8.13 46.634 0.138 7.47 1.18 11.45
10/29/2022 12:00:00 AM 8.04 46.472 0.138 7.52 1.2 11.47
10/29/2022 12:15:00 AM 7.95 46.31 0.138 7.51 1.16 11.5
10/29/2022 12:30:00 AM 7.86 46.148 0.138 7.51 1.21 11.53
10/29/2022 12:45:00 AM 7.78 46.004 0.138 7.51 1.22 11.54
10/29/2022 1:00:00 AM 7.7 45.86 0.138 7.51 1.17 11.57
10/29/2022 1:15:00 AM 7.62 45.716 0.138 7.5 1.13 11.6
10/29/2022 1:30:00 AM 7.54 45.572 0.138 7.51 1.13 11.63
10/29/2022 1:45:00 AM 7.47 45.446 0.138 7.51 1.16 11.67
10/29/2022 2:00:00 AM 7.39 45.302 0.138 7.51 1.14 11.69
10/29/2022 2:15:00 AM 7.33 45.194 0.138 7.46 1.14 11.7
10/29/2022 2:30:00 AM 7.26 45.068 0.138 7.48 1.15 11.73
10/29/2022 2:45:00 AM 7.19 44.942 0.138 7.51 1.13 11.74
10/29/2022 3:00:00 AM 7.12 44.816 0.138 7.51 1.14 11.76
10/29/2022 3:15:00 AM 7.06 44.708 0.138 7.52 1.16 11.78
10/29/2022 3:30:00 AM 7 44.6 0.138 7.5 1.19 11.81
10/29/2022 3:45:00 AM 6.93 44.474 0.138 7.5 1.13 11.83
10/29/2022 4:00:00 AM 6.87 44.366 0.138 7.51 1.15 11.86
10/29/2022 4:15:00 AM 6.81 44.258 0.138 7.51 1.12 11.88
10/29/2022 4:30:00 AM 6.75 44.15 0.138 7.5 1.12 11.89
10/29/2022 4:45:00 AM 6.68 44.024 0.138 7.51 1.09 11.91
10/29/2022 5:00:00 AM 6.62 43.916 0.138 7.51 1.17 11.93
10/29/2022 5:15:00 AM 6.56 43.808 0.138 7.51 1.14 11.94
10/29/2022 5:30:00 AM 6.5 43.7 0.138 7.51 1.14 11.95
10/29/2022 5:45:00 AM 6.44 43.592 0.138 7.51 1.11 11.97
10/29/2022 6:00:00 AM 6.38 43.484 0.138 7.5 1.16 12.01
10/29/2022 6:15:00 AM 6.33 43.394 0.138 7.51 1.14 12.03
10/29/2022 6:30:00 AM 6.28 43.304 0.138 7.51 1.11 12.05
10/29/2022 6:45:00 AM 6.22 43.196 0.138 7.51 1.14 12.08
10/29/2022 7:00:00 AM 6.16 43.088 0.138 7.51 1.13 12.09
10/29/2022 7:15:00 AM 6.11 42.998 0.138 7.51 1.11 12.12
10/29/2022 7:30:00 AM 6.06 42.908 0.138 7.51 1.17 12.14
10/29/2022 7:45:00 AM 6 42.8 0.138 7.47 3.25 12.18
10/29/2022 8:00:00 AM 5.95 42.71 0.138 7.52 1.08 12.26
10/29/2022 8:15:00 AM 5.91 42.638 0.138 7.54 1.15 12.34
10/29/2022 8:30:00 AM 5.87 42.566 0.138 7.55 1.11 12.45
10/29/2022 8:45:00 AM 5.82 42.476 0.137 7.58 1.16 12.55
10/29/2022 9:00:00 AM 5.79 42.422 0.137 7.59 1.2 12.64
10/29/2022 9:15:00 AM 5.79 42.422 0.137 7.61 1.11 12.77
10/29/2022 9:30:00 AM 5.81 42.458 0.137 7.65 1.21 12.87
10/29/2022 9:45:00 AM 5.82 42.476 0.137 7.67 1.17 12.96
10/29/2022 10:00:00 AM 5.86 42.548 0.137 7.72 1.1 13.04
10/29/2022 10:15:00 AM 5.91 42.638 0.137 7.69 1.12 13.1
10/29/2022 10:30:00 AM 5.97 42.746 0.137 7.74 1.11 13.15
10/29/2022 10:45:00 AM 6.04 42.872 0.136 7.78 1.19 13.19
10/29/2022 11:00:00 AM 6.14 43.052 0.136 7.78 1.08 13.21
10/29/2022 11:15:00 AM 6.27 43.286 0.136 7.84 1.16 13.22
10/29/2022 11:30:00 AM 6.42 43.556 0.136 7.87 1.07 13.21
10/29/2022 11:45:00 AM 6.59 43.862 0.136 7.88 1.06 13.19
10/29/2022 12:00:00 PM 6.77 44.186 0.136 7.88 1.07 13.19
10/29/2022 12:15:00 PM 6.98 44.564 0.136 7.92 1.04 13.15
10/29/2022 12:30:00 PM 7.18 44.924 0.136 7.95 1.1 13.1
10/29/2022 12:45:00 PM 7.4 45.32 0.136 7.99 1.01 13.09
10/29/2022 1:00:00 PM 7.62 45.716 0.136 8.01 1.02 13.02
10/29/2022 1:15:00 PM 7.85 46.13 0.136 8.04 1.04 12.97
10/29/2022 1:30:00 PM 8.08 46.544 0.136 8.07 1.03 12.94
10/29/2022 1:45:00 PM 8.3 46.94 0.136 8.1 1.1 12.86
10/29/2022 2:00:00 PM 8.52 47.336 0.135 8.12 1.03 12.81
10/29/2022 2:15:00 PM 8.73 47.714 0.135 8.15 1.03 12.78
10/29/2022 2:30:00 PM 8.92 48.056 0.135 8.16 1.04 12.71
10/29/2022 2:45:00 PM 9.07 48.326 0.135 8.16 1.01 12.63
10/29/2022 3:00:00 PM 9.2 48.56 0.135 8.18 1.03 12.6
10/29/2022 3:15:00 PM 9.26 48.668 0.135 8.11 1.04 12.47
10/29/2022 3:30:00 PM 9.32 48.776 0.135 8.11 1.04 12.35
10/29/2022 3:45:00 PM 9.36 48.848 0.135 8.07 1.04 12.22
10/29/2022 4:00:00 PM 9.41 48.938 0.135 8.03 1.05 12.13
10/29/2022 4:15:00 PM 9.46 49.028 0.136 8.01 1.09 12.05
10/29/2022 4:30:00 PM 9.5 49.1 0.136 7.94 1.07 11.97
10/29/2022 4:45:00 PM 9.52 49.136 0.136 7.94 1.12 11.89
10/29/2022 5:00:00 PM 9.54 49.172 0.136 7.92 1.05 11.82
10/29/2022 5:15:00 PM 9.55 49.19 0.136 7.89 1.09 11.77
10/29/2022 5:30:00 PM 9.53 49.154 0.136 7.86 1.1 11.7
10/29/2022 5:45:00 PM 9.47 49.046 0.136 7.82 1.15 11.62
10/29/2022 6:00:00 PM 9.41 48.938 0.136 7.78 1.15 11.52
10/29/2022 6:15:00 PM 9.34 48.812 0.136 7.71 1.11 11.42
10/29/2022 6:30:00 PM 9.27 48.686 0.137 7.71 1.25 11.33
10/29/2022 6:45:00 PM 9.2 48.56 0.137 7.66 1.2 11.27
10/29/2022 7:00:00 PM 9.13 48.434 0.137 7.65 1.2 11.23
10/29/2022 7:15:00 PM 9.05 48.29 0.137 7.63 1.19 11.2
10/29/2022 7:30:00 PM 8.96 48.128 0.137 7.6 1.16 11.2
10/29/2022 7:45:00 PM 8.88 47.984 0.138 7.59 1.17 11.22
10/29/2022 8:00:00 PM 8.78 47.804 0.138 7.57 1.16 11.24
10/29/2022 8:15:00 PM 8.69 47.642 0.138 7.56 1.17 11.27
10/29/2022 8:30:00 PM 8.58 47.444 0.138 7.54 1.17 11.3
10/29/2022 8:45:00 PM 8.48 47.264 0.138 7.54 1.27 11.31
10/29/2022 9:00:00 PM 8.38 47.084 0.138 7.53 1.21 11.33
10/29/2022 9:15:00 PM 8.28 46.904 0.138 7.53 1.14 11.36
10/29/2022 9:30:00 PM 8.17 46.706 0.138 7.53 1.1 11.41
10/29/2022 9:45:00 PM 8.08 46.544 0.138 7.52 1.14 11.44
10/29/2022 10:00:00 PM 7.97 46.346 0.138 7.51 1.18 11.48
10/29/2022 10:15:00 PM 7.87 46.166 0.138 7.51 1.19 11.5
10/29/2022 10:30:00 PM 7.77 45.986 0.138 7.51 1.18 11.51
10/29/2022 10:45:00 PM 7.67 45.806 0.138 7.51 1.17 11.54
10/29/2022 11:00:00 PM 7.57 45.626 0.138 7.51 1.16 11.6
10/29/2022 11:15:00 PM 7.47 45.446 0.138 7.46 1.17 11.63
10/29/2022 11:30:00 PM 7.36 45.248 0.138 7.51 1.25 11.66
10/29/2022 11:45:00 PM 7.26 45.068 0.138 7.51 1.17 11.7
10/30/2022 12:00:00 AM 7.17 44.906 0.138 7.46 1.16 11.71
10/30/2022 12:15:00 AM 7.07 44.726 0.138 7.48 1.22 11.74
10/30/2022 12:30:00 AM 6.98 44.564 0.138 7.49 1.13 11.78
10/30/2022 12:45:00 AM 6.89 44.402 0.138 7.49 1.16 11.82
10/30/2022 1:00:00 AM 6.81 44.258 0.138 7.51 1.12 11.85
10/30/2022 1:15:00 AM 6.73 44.114 0.138 7.51 1.13 11.87
10/30/2022 1:30:00 AM 6.65 43.97 0.138 7.51 1.13 11.89
10/30/2022 1:45:00 AM 6.57 43.826 0.138 7.5 1.15 11.92
10/30/2022 2:00:00 AM 6.5 43.7 0.138 7.51 1.13 11.93
10/30/2022 2:15:00 AM 6.43 43.574 0.138 7.51 1.15 11.95
10/30/2022 2:30:00 AM 6.36 43.448 0.138 7.5 1.14 11.99
10/30/2022 2:45:00 AM 6.29 43.322 0.138 7.48 1.12 12.01
10/30/2022 3:00:00 AM 6.23 43.214 0.138 7.51 1.07 12.03
10/30/2022 3:15:00 AM 6.16 43.088 0.138 7.51 1.13 12.05
10/30/2022 3:30:00 AM 6.1 42.98 0.138 7.51 1.17 12.07
10/30/2022 3:45:00 AM 6.03 42.854 0.138 7.5 1.12 12.09
10/30/2022 4:00:00 AM 5.97 42.746 0.138 7.46 1.13 12.11
10/30/2022 4:15:00 AM 5.91 42.638 0.138 7.5 1.19 12.11
10/30/2022 4:30:00 AM 5.86 42.548 0.138 7.51 1.23 12.13
10/30/2022 4:45:00 AM 5.8 42.44 0.138 7.51 1.16 12.16
10/30/2022 5:00:00 AM 5.75 42.35 0.138 7.51 1.19 12.17
10/30/2022 5:15:00 AM 5.7 42.26 0.138 7.52 1.21 12.2
10/30/2022 5:30:00 AM 5.64 42.152 0.138 7.51 1.1 12.22
10/30/2022 5:45:00 AM 5.59 42.062 0.138 7.48 1.1 12.25
10/30/2022 6:00:00 AM 5.54 41.972 0.138 7.51 1.13 12.27
10/30/2022 6:15:00 AM 5.49 41.882 0.138 7.52 1.12 12.28
10/30/2022 6:30:00 AM 5.44 41.792 0.138 7.5 1.1 12.29
10/30/2022 6:45:00 AM 5.39 41.702 0.138 7.51 1.24 12.3
10/30/2022 7:00:00 AM 5.34 41.612 0.138 7.51 1.1 12.31
10/30/2022 7:15:00 AM 5.29 41.522 0.138 7.51 1.12 12.33
10/30/2022 7:30:00 AM 5.24 41.432 0.138 7.51 1.13 12.34
10/30/2022 7:45:00 AM 5.21 41.378 0.138 7.52 1.12 12.39
10/30/2022 8:00:00 AM 5.17 41.306 0.138 7.47 1.18 12.5
10/30/2022 8:15:00 AM 5.15 41.27 0.138 7.55 1.17 12.62
10/30/2022 8:30:00 AM 5.13 41.234 0.138 7.58 1.13 12.76
10/30/2022 8:45:00 AM 5.13 41.234 0.138 7.61 1.09 12.91
10/30/2022 9:00:00 AM 5.13 41.234 0.137 7.64 1.16 13.06
10/30/2022 9:15:00 AM 5.16 41.288 0.137 7.68 1.14 13.2
10/30/2022 9:30:00 AM 5.21 41.378 0.137 7.72 1.19 13.32
10/30/2022 9:45:00 AM 5.24 41.432 0.137 7.76 1.13 13.38
10/30/2022 10:00:00 AM 5.3 41.54 0.136 7.75 1.12 13.41
10/30/2022 10:15:00 AM 5.38 41.684 0.136 7.81 1.12 13.43
10/30/2022 10:30:00 AM 5.44 41.792 0.136 7.84 1.09 13.43
10/30/2022 10:45:00 AM 5.52 41.936 0.136 7.84 1.04 13.41
10/30/2022 11:00:00 AM 5.61 42.098 0.136 7.86 1.08 13.4
10/30/2022 11:15:00 AM 5.73 42.314 0.136 7.87 1.11 13.37
10/30/2022 11:30:00 AM 5.86 42.548 0.136 7.89 1.07 13.34
10/30/2022 11:45:00 AM 6 42.8 0.136 7.91 1.03 13.34
10/30/2022 12:00:00 PM 6.19 43.142 0.136 7.94 1.11 13.32
10/30/2022 12:15:00 PM 6.38 43.484 0.136 7.96 1.04 13.28
10/30/2022 12:30:00 PM 6.6 43.88 0.136 7.99 1.04 13.25
10/30/2022 12:45:00 PM 6.82 44.276 0.136 8.02 1.05 13.23
10/30/2022 1:00:00 PM 7.06 44.708 0.136 8.02 1.04 13.17
10/30/2022 1:15:00 PM 7.29 45.122 0.136 8.09 1.16 13.14
10/30/2022 1:30:00 PM 7.54 45.572 0.135 8.13 1.05 13.11
10/30/2022 1:45:00 PM 7.79 46.022 0.135 8.17 1.09 13.04
10/30/2022 2:00:00 PM 8 46.4 0.135 8.2 1 13.01
10/30/2022 2:15:00 PM 8.22 46.796 0.135 8.21 0.99 12.95
10/30/2022 2:30:00 PM 8.43 47.174 0.135 8.26 0.99 12.86
10/30/2022 2:45:00 PM 8.6 47.48 0.135 8.29 1.03 12.84
10/30/2022 3:00:00 PM 8.72 47.696 0.135 8.3 1.02 12.79
10/30/2022 3:15:00 PM 8.79 47.822 0.135 8.29 1.07 12.69
10/30/2022 3:30:00 PM 8.86 47.948 0.135 8.26 1.04 12.57
10/30/2022 3:45:00 PM 8.95 48.11 0.135 8.27 1.04 12.55
10/30/2022 4:00:00 PM 9.05 48.29 0.135 8.24 1.02 12.51
10/30/2022 4:15:00 PM 9.13 48.434 0.135 8.31 1.03 12.54
10/30/2022 4:30:00 PM 9.2 48.56 0.135 8.3 1.1 12.47
10/30/2022 4:45:00 PM 9.21 48.578 0.135 8.26 1.06 12.37
10/30/2022 5:00:00 PM 9.21 48.578 0.135 8.17 1.05 12.21
10/30/2022 5:15:00 PM 9.2 48.56 0.135 8.1 1.11 12.07
10/30/2022 5:30:00 PM 9.17 48.506 0.135 8.02 1.04 11.94
10/30/2022 5:45:00 PM 9.12 48.416 0.136 7.95 1.11 11.78
10/30/2022 6:00:00 PM 9.06 48.308 0.136 7.83 1.12 11.64
10/30/2022 6:15:00 PM 8.99 48.182 0.136 7.81 1.14 11.5
10/30/2022 6:30:00 PM 8.93 48.074 0.137 7.76 1.15 11.39
10/30/2022 6:45:00 PM 8.88 47.984 0.137 7.72 1.15 11.32
10/30/2022 7:00:00 PM 8.82 47.876 0.137 7.68 1.12 11.27
10/30/2022 7:15:00 PM 8.77 47.786 0.138 7.65 1.21 11.24
10/30/2022 7:30:00 PM 8.73 47.714 0.138 7.63 1.15 11.23
10/30/2022 7:45:00 PM 8.69 47.642 0.138 7.61 1.12 11.23
10/30/2022 8:00:00 PM 8.65 47.57 0.138 7.59 1.19 11.23
10/30/2022 8:15:00 PM 8.61 47.498 0.138 7.58 1.16 11.24
10/30/2022 8:30:00 PM 8.58 47.444 0.138 7.58 1.18 11.24
10/30/2022 8:45:00 PM 8.53 47.354 0.138 7.58 1.16 11.25
10/30/2022 9:00:00 PM 8.47 47.246 0.138 7.56 1.13 11.25
10/30/2022 9:15:00 PM 8.41 47.138 0.138 7.55 1.16 11.25
10/30/2022 9:30:00 PM 8.34 47.012 0.138 7.56 1.13 11.27
10/30/2022 9:45:00 PM 8.27 46.886 0.138 7.54 1.17 11.3
10/30/2022 10:00:00 PM 8.2 46.76 0.138 7.54 1.13 11.33
10/30/2022 10:15:00 PM 8.14 46.652 0.138 7.51 1.17 11.35
10/30/2022 10:30:00 PM 8.08 46.544 0.138 7.53 1.15 11.36
10/30/2022 10:45:00 PM 8.02 46.436 0.138 7.52 1.21 11.38
10/30/2022 11:00:00 PM 7.95 46.31 0.138 7.52 1.14 11.4
10/30/2022 11:15:00 PM 7.87 46.166 0.138 7.52 1.24 11.42
10/30/2022 11:30:00 PM 7.78 46.004 0.138 7.51 1.15 11.43
10/30/2022 11:45:00 PM 7.7 45.86 0.138 7.52 1.16 11.46
10/31/2022 12:00:00 AM 7.62 45.716 0.138 7.52 1.16 11.5
10/31/2022 12:15:00 AM 7.54 45.572 0.138 7.45 1.17 11.53
10/31/2022 12:30:00 AM 7.47 45.446 0.138 7.49 1.2 11.54
10/31/2022 12:45:00 AM 7.4 45.32 0.138 7.48 1.2 11.57
10/31/2022 1:00:00 AM 7.33 45.194 0.138 7.5 1.17 11.59
10/31/2022 1:15:00 AM 7.27 45.086 0.138 7.5 1.2 11.61
10/31/2022 1:30:00 AM 7.21 44.978 0.138 7.45 1.17 11.61
10/31/2022 1:45:00 AM 7.16 44.888 0.138 7.5 1.21 11.62
10/31/2022 2:00:00 AM 7.11 44.798 0.138 7.51 1.32 11.63
10/31/2022 2:15:00 AM 7.08 44.744 0.138 7.51 1.22 11.65
10/31/2022 2:30:00 AM 7.06 44.708 0.138 7.52 1.17 11.66
10/31/2022 2:45:00 AM 7.04 44.672 0.138 7.51 1.25 11.68
10/31/2022 3:00:00 AM 7.03 44.654 0.138 7.5 1.19 11.68
10/31/2022 3:15:00 AM 7.01 44.618 0.138 7.51 1.16 11.69
10/31/2022 3:30:00 AM 7 44.6 0.138 7.47 1.15 11.69
10/31/2022 3:45:00 AM 6.99 44.582 0.138 7.52 1.21 11.69
10/31/2022 4:00:00 AM 6.99 44.582 0.138 7.52 1.2 11.7
10/31/2022 4:15:00 AM 6.98 44.564 0.138 7.52 1.24 11.7
10/31/2022 4:30:00 AM 6.99 44.582 0.138 7.49 1.19 11.71
10/31/2022 4:45:00 AM 7 44.6 0.138 7.52 1.23 11.7
10/31/2022 5:00:00 AM 7 44.6 0.138 7.51 1.17 11.7
10/31/2022 5:15:00 AM 7.01 44.618 0.138 7.52 1.17 11.7
10/31/2022 5:30:00 AM 7 44.6 0.138 7.51 1.15 11.7
10/31/2022 5:45:00 AM 6.97 44.546 0.138 7.49 1.14 11.7
10/31/2022 6:00:00 AM 6.94 44.492 0.138 7.51 1.14 11.71
10/31/2022 6:15:00 AM 6.9 44.42 0.138 7.51 1.12 11.72
10/31/2022 6:30:00 AM 6.86 44.348 0.138 7.51 1.14 11.74
10/31/2022 6:45:00 AM 6.82 44.276 0.138 7.51 1.15 11.75
10/31/2022 7:00:00 AM 6.78 44.204 0.138 7.5 1.17 11.77
10/31/2022 7:15:00 AM 6.74 44.132 0.138 7.45 1.23 11.77
10/31/2022 7:30:00 AM 6.71 44.078 0.138 7.51 1.24 11.79
10/31/2022 7:45:00 AM 6.68 44.024 0.138 7.48 1.17 11.82
10/31/2022 8:00:00 AM 6.66 43.988 0.138 7.5 1.25 11.91
10/31/2022 8:15:00 AM 6.64 43.952 0.138 7.52 1.13 12.05
10/31/2022 8:30:00 AM 6.68 44.024 0.137 7.58 1.16 12.29
10/31/2022 8:45:00 AM 6.72 44.096 0.137 7.62 1.12 12.45
10/31/2022 9:00:00 AM 6.76 44.168 0.137 7.61 1.09 12.54
10/31/2022 9:15:00 AM 6.83 44.294 0.136 7.67 1.09 12.68
10/31/2022 9:30:00 AM 6.9 44.42 0.136 7.75 1.11 12.78
10/31/2022 9:45:00 AM 6.99 44.582 0.136 7.76 1.17 12.87
10/31/2022 10:00:00 AM 7.1 44.78 0.136 7.87 1.15 12.94
10/31/2022 10:15:00 AM 7.2 44.96 0.136 7.91 1.08 12.96
10/31/2022 10:30:00 AM 7.3 45.14 0.135 7.95 1.06 12.99
10/31/2022 10:45:00 AM 7.46 45.428 0.135 8.01 1.08 13.07
10/31/2022 11:00:00 AM 7.6 45.68 0.135 8.03 1.08 13.06
10/31/2022 11:15:00 AM 7.76 45.968 0.135 8.13 1.04 13.07
10/31/2022 11:30:00 AM 7.94 46.292 0.135 8.2 1.1 13.11
10/31/2022 11:45:00 AM 8.1 46.58 0.135 8.24 1.19 13.09
10/31/2022 12:00:00 PM 8.28 46.904 0.135 8.29 1.12 13.07
10/31/2022 12:15:00 PM 8.43 47.174 0.135 8.33 1.04 13
10/31/2022 12:30:00 PM 8.57 47.426 0.135 8.35 1.05 12.96
10/31/2022 12:45:00 PM 8.68 47.624 0.135 8.38 1.09 12.92
10/31/2022 1:00:00 PM 8.79 47.822 0.135 8.34 1.08 12.83
10/31/2022 1:15:00 PM 8.86 47.948 0.135 8.35 1.1 12.75
10/31/2022 1:30:00 PM 8.96 48.128 0.135 8.39 1.1 12.75
10/31/2022 1:45:00 PM 9.03 48.254 0.135 8.37 1.09 12.67
10/31/2022 2:00:00 PM 9.12 48.416 0.135 8.42 1.04 12.7
10/31/2022 2:15:00 PM 9.26 48.668 0.134 8.43 1.07 12.76
10/31/2022 2:30:00 PM 9.32 48.776 0.134 8.43 1.07 12.65
10/31/2022 2:45:00 PM 9.43 48.974 0.134 8.47 1.08 12.68
10/31/2022 3:00:00 PM 9.51 49.118 0.134 8.48 1.13 12.59
10/31/2022 3:15:00 PM 9.55 49.19 0.134 8.44 1.13 12.48
10/31/2022 3:30:00 PM 9.59 49.262 0.134 8.42 1.05 12.43
10/31/2022 3:45:00 PM 9.64 49.352 0.135 8.39 1.13 12.34
10/31/2022 4:00:00 PM 9.67 49.406 0.135 8.31 1.1 12.21
10/31/2022 4:15:00 PM 9.69 49.442 0.135 8.26 1.13 12.12
10/31/2022 4:30:00 PM 9.71 49.478 0.135 8.19 1.12 12
10/31/2022 4:45:00 PM 9.74 49.532 0.135 8.14 1.1 11.94
10/31/2022 5:00:00 PM 9.75 49.55 0.135 8.07 1.17 11.83
10/31/2022 5:15:00 PM 9.75 49.55 0.135 8 1.13 11.72
10/31/2022 5:30:00 PM 9.75 49.55 0.136 7.94 1.14 11.6
10/31/2022 5:45:00 PM 9.74 49.532 0.136 7.88 1.13 11.46
10/31/2022 6:00:00 PM 9.73 49.514 0.136 7.77 1.21 11.3
10/31/2022 6:15:00 PM 9.72 49.496 0.136 7.74 1.21 11.17
10/31/2022 6:30:00 PM 9.71 49.478 0.137 7.72 1.12 11.07
10/31/2022 6:45:00 PM 9.7 49.46 0.137 7.64 1.19 11
10/31/2022 7:00:00 PM 9.69 49.442 0.137 7.63 1.21 10.95
10/31/2022 7:15:00 PM 9.68 49.424 0.137 7.61 1.19 10.92
10/31/2022 7:30:00 PM 9.68 49.424 0.137 7.61 1.21 10.91
10/31/2022 7:45:00 PM 9.68 49.424 0.137 7.57 1.18 10.88
10/31/2022 8:00:00 PM 9.69 49.442 0.137 7.59 1.12 10.87
10/31/2022 8:15:00 PM 9.69 49.442 0.137 7.59 1.22 10.86
10/31/2022 8:30:00 PM 9.7 49.46 0.137 7.55 1.28 10.86
10/31/2022 8:45:00 PM 9.72 49.496 0.137 7.55 1.16 10.85
10/31/2022 9:00:00 PM 9.72 49.496 0.137 7.55 1.17 10.85
10/31/2022 9:15:00 PM 9.73 49.514 0.137 7.55 1.14 10.84
10/31/2022 9:30:00 PM 9.73 49.514 0.137 7.57 1.81 10.84
10/31/2022 9:45:00 PM 9.73 49.514 0.137 7.57 1.2 10.83
10/31/2022 10:00:00 PM 9.73 49.514 0.137 7.55 1.11 10.82
10/31/2022 10:15:00 PM 9.73 49.514 0.137 7.55 1.19 10.82
10/31/2022 10:30:00 PM 9.73 49.514 0.137 7.5 1.2 10.82
10/31/2022 10:45:00 PM 9.72 49.496 0.137 7.53 1.14 10.82
10/31/2022 11:00:00 PM 9.72 49.496 0.137 7.51 1.22 10.83
10/31/2022 11:15:00 PM 9.72 49.496 0.137 7.53 1.15 10.82
10/31/2022 11:30:00 PM 9.72 49.496 0.137 7.53 1.21 10.81
10/31/2022 11:45:00 PM 9.72 49.496 0.137 7.52 1.25 10.81
11/1/2022 12:00:00 AM 9.72 49.496 0.137 7.48 1.23 10.81
11/1/2022 12:15:00 AM 9.71 49.478 0.137 7.52 1.18 10.81
11/1/2022 12:30:00 AM 9.7 49.46 0.137 7.47 1.31 10.8
11/1/2022 12:45:00 AM 9.69 49.442 0.137 7.51 1.16 10.82
11/1/2022 1:00:00 AM 9.69 49.442 0.137 7.51 1.22 10.82
11/1/2022 1:15:00 AM 9.69 49.442 0.137 7.51 1.09 10.82
11/1/2022 1:30:00 AM 9.69 49.442 0.138 7.51 1.11 10.82
11/1/2022 1:45:00 AM 9.69 49.442 0.138 7.51 1.12 10.82
11/1/2022 2:00:00 AM 9.69 49.442 0.138 7.51 1.16 10.82
11/1/2022 2:15:00 AM 9.68 49.424 0.137 7.5 1.14 10.82
11/1/2022 2:30:00 AM 9.68 49.424 0.137 7.5 1.13 10.83
11/1/2022 2:45:00 AM 9.68 49.424 0.137 7.47 1.27 10.83
11/1/2022 3:00:00 AM 9.68 49.424 0.137 7.49 1.16 10.83
11/1/2022 3:15:00 AM 9.68 49.424 0.137 7.49 1.1 10.83
11/1/2022 3:30:00 AM 9.68 49.424 0.137 7.49 1.16 10.83
11/1/2022 3:45:00 AM 9.68 49.424 0.137 7.49 1.18 10.83
11/1/2022 4:00:00 AM 9.67 49.406 0.137 7.48 1.18 10.84
11/1/2022 4:15:00 AM 9.67 49.406 0.137 7.48 1.17 10.83
11/1/2022 4:30:00 AM 9.68 49.424 0.137 7.48 1.2 10.83
11/1/2022 4:45:00 AM 9.68 49.424 0.137 7.45 1.19 10.83
11/1/2022 5:00:00 AM 9.69 49.442 0.137 7.47 1.1 10.82
11/1/2022 5:15:00 AM 9.69 49.442 0.137 7.47 1.14 10.83
11/1/2022 5:30:00 AM 9.69 49.442 0.137 7.42 1.17 10.82
11/1/2022 5:45:00 AM 9.7 49.46 0.137 7.44 1.2 10.82
11/1/2022 6:00:00 AM 9.7 49.46 0.136 7.45 1.16 10.81
11/1/2022 6:15:00 AM 9.7 49.46 0.136 7.45 1.15 10.8
11/1/2022 6:30:00 AM 9.7 49.46 0.136 7.44 1.17 10.81
11/1/2022 6:45:00 AM 9.71 49.478 0.136 7.46 1.16 10.81
11/1/2022 7:00:00 AM 9.71 49.478 0.136 7.42 1.16 10.8
11/1/2022 7:15:00 AM 9.72 49.496 0.135 7.42 1.17 10.8
11/1/2022 7:30:00 AM 9.72 49.496 0.135 7.43 1.17 10.79
11/1/2022 7:45:00 AM 9.72 49.496 0.135 7.42 1.16 10.81
11/1/2022 8:00:00 AM 9.73 49.514 0.136 7.46 1.14 10.84
11/1/2022 8:15:00 AM 9.73 49.514 0.136 7.45 1.13 10.85
11/1/2022 8:30:00 AM 9.74 49.532 0.136 7.44 1.18 10.87
11/1/2022 8:45:00 AM 9.76 49.568 0.136 7.47 1.16 10.94
11/1/2022 9:00:00 AM 9.77 49.586 0.136 7.49 1.22 11.02
11/1/2022 9:15:00 AM 9.8 49.64 0.136 7.52 1.21 11.17
11/1/2022 9:30:00 AM 9.84 49.712 0.135 7.55 1.23 11.38
11/1/2022 9:45:00 AM 9.88 49.784 0.135 7.6 1.25 11.54
11/1/2022 10:00:00 AM 9.93 49.874 0.135 7.64 1.21 11.68
11/1/2022 10:15:00 AM 9.98 49.964 0.134 7.69 1.26 11.8
11/1/2022 10:30:00 AM 10.02 50.036 0.134 7.74 1.18 11.87
11/1/2022 10:45:00 AM 10.08 50.144 0.134 7.78 1.23 11.97
11/1/2022 11:00:00 AM 10.15 50.27 0.134 7.81 1.24 12.07
11/1/2022 11:15:00 AM 10.23 50.414 0.134 7.89 1.18 12.17
11/1/2022 11:30:00 AM 10.34 50.612 0.133 8.01 1.18 12.3
11/1/2022 11:45:00 AM 10.43 50.774 0.133 8.07 1.19 12.32
11/1/2022 12:00:00 PM 10.47 50.846 0.134 8.06 1.21 12.19
11/1/2022 12:15:00 PM 10.54 50.972 0.133 8.09 1.19 12.21
11/1/2022 12:30:00 PM 10.67 51.206 0.133 8.19 1.13 12.32
11/1/2022 12:45:00 PM 10.75 51.35 0.133 8.24 1.18 12.33
11/1/2022 1:00:00 PM 10.84 51.512 0.133 8.29 1.16 12.35
11/1/2022 1:15:00 PM 10.96 51.728 0.133 8.32 1.13 12.37
11/1/2022 1:30:00 PM 11.06 51.908 0.133 8.39 1.16 12.36
11/1/2022 1:45:00 PM 11.18 52.124 0.133 8.45 1.15 12.38
11/1/2022 2:00:00 PM 11.29 52.322 0.133 8.5 1.13 12.37
11/1/2022 2:15:00 PM 11.42 52.556 0.133 8.55 1.17 12.37
11/1/2022 2:30:00 PM 11.49 52.682 0.132 8.55 1.14 12.27
11/1/2022 2:45:00 PM 11.65 52.97 0.132 8.57 1.26 12.23
11/1/2022 3:00:00 PM 11.78 53.204 0.132 8.56 1.12 12.18
11/1/2022 3:15:00 PM 11.84 53.312 0.132 8.54 1.13 12.07
11/1/2022 3:30:00 PM 11.91 53.438 0.132 8.54 1.17 12.08
11/1/2022 3:45:00 PM 12.01 53.618 0.132 8.51 1.16 12
11/1/2022 4:00:00 PM 12.08 53.744 0.132 8.53 1.19 11.95
11/1/2022 4:15:00 PM 12.12 53.816 0.132 8.48 1.14 11.82
11/1/2022 4:30:00 PM 12.19 53.942 0.132 8.44 1.15 11.71
11/1/2022 4:45:00 PM 12.22 53.996 0.133 8.3 1.18 11.45
11/1/2022 5:00:00 PM 12.22 53.996 0.133 8.15 1.29 11.23
11/1/2022 5:15:00 PM 12.2 53.96 0.133 7.97 1.29 11.02
11/1/2022 5:30:00 PM 12.17 53.906 0.133 7.91 1.2 10.81
11/1/2022 5:45:00 PM 12.13 53.834 0.134 7.83 1.2 10.71
11/1/2022 6:00:00 PM 12.09 53.762 0.134 7.77 1.21 10.62
11/1/2022 6:15:00 PM 12.02 53.636 0.134 7.72 1.27 10.52
11/1/2022 6:30:00 PM 11.95 53.51 0.134 7.67 1.29 10.46
11/1/2022 6:45:00 PM 11.87 53.366 0.134 7.64 1.28 10.41
11/1/2022 7:00:00 PM 11.79 53.222 0.134 7.61 1.28 10.38
11/1/2022 7:15:00 PM 11.71 53.078 0.134 7.59 1.37 10.37
11/1/2022 7:30:00 PM 11.65 52.97 0.134 7.56 1.29 10.36
11/1/2022 7:45:00 PM 11.58 52.844 0.135 7.55 1.45 10.37
11/1/2022 8:00:00 PM 11.52 52.736 0.135 7.53 1.36 10.39
11/1/2022 8:15:00 PM 11.47 52.646 0.135 7.5 1.37 10.4
11/1/2022 8:30:00 PM 11.43 52.574 0.135 7.49 1.33 10.41
11/1/2022 8:45:00 PM 11.41 52.538 0.135 7.48 1.45 10.42
11/1/2022 9:00:00 PM 11.39 52.502 0.135 7.49 1.27 10.43
11/1/2022 9:15:00 PM 11.37 52.466 0.136 7.47 1.24 10.44
11/1/2022 9:30:00 PM 11.34 52.412 0.136 7.47 1.21 10.46
11/1/2022 9:45:00 PM 11.31 52.358 0.136 7.47 1.25 10.46
11/1/2022 10:00:00 PM 11.26 52.268 0.136 7.43 1.27 10.48
11/1/2022 10:15:00 PM 11.18 52.124 0.136 7.44 1.23 10.49
11/1/2022 10:30:00 PM 11.1 51.98 0.136 7.44 1.18 10.5
11/1/2022 10:45:00 PM 11.02 51.836 0.137 7.46 1.16 10.51
11/1/2022 11:00:00 PM 10.93 51.674 0.137 7.44 1.2 10.54
11/1/2022 11:15:00 PM 10.85 51.53 0.137 7.44 1.22 10.57
11/1/2022 11:30:00 PM 10.78 51.404 0.137 7.44 1.13 10.59
11/1/2022 11:45:00 PM 10.73 51.314 0.137 7.45 1.2 10.62
11/2/2022 12:00:00 AM 10.7 51.26 0.137 7.43 1.17 10.63
11/2/2022 12:15:00 AM 10.67 51.206 0.137 7.44 1.23 10.65
11/2/2022 12:30:00 AM 10.63 51.134 0.137 7.44 1.25 10.66
11/2/2022 12:45:00 AM 10.58 51.044 0.137 7.43 1.24 10.67
11/2/2022 1:00:00 AM 10.52 50.936 0.137 7.47 1.23 10.69
11/2/2022 1:15:00 AM 10.46 50.828 0.131 7.46 1.37 10.7
11/2/2022 1:30:00 AM 10.39 50.702 0.137 7.46 1.32 10.71
11/2/2022 1:45:00 AM 10.34 50.612 0.137 7.46 1.16 10.72
11/2/2022 2:00:00 AM 10.31 50.558 0.137 7.47 1.19 10.73
11/2/2022 2:15:00 AM 10.28 50.504 0.137 7.42 1.21 10.74
11/2/2022 2:30:00 AM 10.25 50.45 0.137 7.46 1.27 10.75
11/2/2022 2:45:00 AM 10.19 50.342 0.137 7.45 1.2 10.77
11/2/2022 3:00:00 AM 10.12 50.216 0.137 7.45 1.18 10.79
11/2/2022 3:15:00 AM 10.06 50.108 0.137 7.47 1.25 10.82
11/2/2022 3:30:00 AM 10.04 50.072 0.137 7.47 1.17 10.82
11/2/2022 3:45:00 AM 10.03 50.054 0.137 7.46 1.24 10.83
11/2/2022 4:00:00 AM 10.02 50.036 0.137 7.47 1.18 10.84
11/2/2022 4:15:00 AM 10.03 50.054 0.137 7.46 1.3 10.84
11/2/2022 4:30:00 AM 10.01 50.018 0.137 7.48 1.2 10.85
11/2/2022 4:45:00 AM 9.99 49.982 0.137 7.43 1.23 10.86
11/2/2022 5:00:00 AM 9.96 49.928 0.137 7.48 1.2 10.87
11/2/2022 5:15:00 AM 9.92 49.856 0.137 7.48 1.19 10.88
11/2/2022 5:30:00 AM 9.89 49.802 0.137 7.45 1.2 10.9
11/2/2022 5:45:00 AM 9.87 49.766 0.137 7.49 1.15 10.9
11/2/2022 6:00:00 AM 9.84 49.712 0.137 7.48 1.16 10.9
11/2/2022 6:15:00 AM 9.82 49.676 0.137 7.45 1.1 10.92
11/2/2022 6:30:00 AM 9.8 49.64 0.137 7.49 1.17 10.92
11/2/2022 6:45:00 AM 9.78 49.604 0.137 7.48 1.18 10.93
11/2/2022 7:00:00 AM 9.76 49.568 0.137 7.5 1.21 10.93
11/2/2022 7:15:00 AM 9.74 49.532 0.137 7.5 1.19 10.94
11/2/2022 7:30:00 AM 9.71 49.478 0.137 7.49 1.17 10.95
11/2/2022 7:45:00 AM 9.69 49.442 0.137 7.49 1.19 10.97
11/2/2022 8:00:00 AM 9.66 49.388 0.137 7.47 1.21 11.02
11/2/2022 8:15:00 AM 9.64 49.352 0.137 7.52 1.21 11.11
11/2/2022 8:30:00 AM 9.62 49.316 0.137 7.52 1.14 11.22
11/2/2022 8:45:00 AM 9.6 49.28 0.137 7.54 1.15 11.36
11/2/2022 9:00:00 AM 9.6 49.28 0.137 7.6 1.26 11.51
11/2/2022 9:15:00 AM 9.61 49.298 0.137 7.63 1.21 11.68
11/2/2022 9:30:00 AM 9.62 49.316 0.136 7.67 1.13 11.83
11/2/2022 9:45:00 AM 9.66 49.388 0.136 7.73 1.14 11.98
11/2/2022 10:00:00 AM 9.7 49.46 0.136 7.79 1.14 12.14
11/2/2022 10:15:00 AM 9.76 49.568 0.136 7.86 1.17 12.28
11/2/2022 10:30:00 AM 9.83 49.694 0.136 7.92 1.22 12.4
11/2/2022 10:45:00 AM 9.92 49.856 0.136 8.01 1.14 12.52
11/2/2022 11:00:00 AM 10.02 50.036 0.135 8.1 1.15 12.6
11/2/2022 11:15:00 AM 10.09 50.162 0.136 8.15 1.1 12.6
11/2/2022 11:30:00 AM 10.17 50.306 0.136 8.14 1.18 12.53
11/2/2022 11:45:00 AM 10.2 50.36 0.136 8.16 1.08 12.45
11/2/2022 12:00:00 PM 10.24 50.432 0.136 8.15 1.18 12.4
11/2/2022 12:15:00 PM 10.28 50.504 0.136 8.15 1.13 12.39
11/2/2022 12:30:00 PM 10.38 50.684 0.136 8.17 1.09 12.38
11/2/2022 12:45:00 PM 10.51 50.918 0.136 8.21 1.09 12.39
11/2/2022 1:00:00 PM 10.66 51.188 0.136 8.22 1.11 12.36
11/2/2022 1:15:00 PM 10.84 51.512 0.135 8.25 1.13 12.31
11/2/2022 1:30:00 PM 11.02 51.836 0.135 8.29 1.08 12.25
11/2/2022 1:45:00 PM 11.19 52.142 0.135 8.32 1.03 12.24
11/2/2022 2:00:00 PM 11.37 52.466 0.135 8.34 1.06 12.2
11/2/2022 2:15:00 PM 11.53 52.754 0.135 8.36 1.1 12.13
11/2/2022 2:30:00 PM 11.67 53.006 0.135 8.38 1.09 12.08
11/2/2022 2:45:00 PM 11.79 53.222 0.135 8.39 1.05 12.05
11/2/2022 3:00:00 PM 11.86 53.348 0.135 8.38 1.14 11.97
11/2/2022 3:15:00 PM 11.91 53.438 0.135 8.3 1.11 11.85
11/2/2022 3:30:00 PM 11.95 53.51 0.135 8.26 1.12 11.72
11/2/2022 3:45:00 PM 11.98 53.564 0.135 8.22 1.08 11.61
11/2/2022 4:00:00 PM 12.02 53.636 0.135 8.15 1.14 11.52
11/2/2022 4:15:00 PM 12.04 53.672 0.135 8.13 1.11 11.43
11/2/2022 4:30:00 PM 12.05 53.69 0.135 8.07 1.1 11.36
11/2/2022 4:45:00 PM 12.05 53.69 0.135 8.02 1.17 11.28
11/2/2022 5:00:00 PM 12.04 53.672 0.135 7.97 1.13 11.21
11/2/2022 5:15:00 PM 12.01 53.618 0.135 7.91 1.14 11.11
11/2/2022 5:30:00 PM 11.95 53.51 0.136 7.86 1.19 11
11/2/2022 5:45:00 PM 11.88 53.384 0.136 7.79 1.19 10.88
11/2/2022 6:00:00 PM 11.81 53.258 0.136 7.74 1.15 10.76
11/2/2022 6:15:00 PM 11.74 53.132 0.137 7.7 1.19 10.65
11/2/2022 6:30:00 PM 11.67 53.006 0.137 7.61 1.12 10.56
11/2/2022 6:45:00 PM 11.59 52.862 0.137 7.63 1.27 10.52
11/2/2022 7:00:00 PM 11.51 52.718 0.137 7.6 1.33 10.5
11/2/2022 7:15:00 PM 11.42 52.556 0.137 7.58 1.19 10.5
11/2/2022 7:30:00 PM 11.33 52.394 0.137 7.56 1.24 10.51
11/2/2022 7:45:00 PM 11.24 52.232 0.137 7.49 1.23 10.53
11/2/2022 8:00:00 PM 11.14 52.052 0.138 7.53 1.22 10.54
11/2/2022 8:15:00 PM 11.04 51.872 0.138 7.52 1.25 10.55
11/2/2022 8:30:00 PM 10.94 51.692 0.138 7.5 1.18 10.58
11/2/2022 8:45:00 PM 10.84 51.512 0.138 7.51 1.27 10.61
11/2/2022 9:00:00 PM 10.73 51.314 0.138 7.5 1.29 10.64
11/2/2022 9:15:00 PM 10.64 51.152 0.138 7.44 1.21 10.67
11/2/2022 9:30:00 PM 10.53 50.954 0.138 7.47 1.21 10.7
11/2/2022 9:45:00 PM 10.43 50.774 0.138 7.48 1.21 10.72
11/2/2022 10:00:00 PM 10.34 50.612 0.138 7.47 1.2 10.74
11/2/2022 10:15:00 PM 10.24 50.432 0.139 7.47 1.24 10.77
11/2/2022 10:30:00 PM 10.14 50.252 0.139 7.48 1.21 10.81
11/2/2022 10:45:00 PM 10.04 50.072 0.139 7.48 1.22 10.84
11/2/2022 11:00:00 PM 9.94 49.892 0.139 7.48 1.27 10.88
11/2/2022 11:15:00 PM 9.84 49.712 0.139 7.46 1.23 10.91
11/2/2022 11:30:00 PM 9.74 49.532 0.139 7.47 1.63 10.93
11/2/2022 11:45:00 PM 9.64 49.352 0.139 7.47 1.2 10.95
11/3/2022 12:00:00 AM 9.55 49.19 0.139 7.47 1.22 10.98
11/3/2022 12:15:00 AM 9.46 49.028 0.139 7.47 1.26 11.02
11/3/2022 12:30:00 AM 9.36 48.848 0.139 7.44 1.16 11.05
11/3/2022 12:45:00 AM 9.28 48.704 0.139 7.47 1.16 11.07
11/3/2022 1:00:00 AM 9.19 48.542 0.139 7.47 1.21 11.11
11/3/2022 1:15:00 AM 9.11 48.398 0.139 7.42 1.13 11.11
11/3/2022 1:30:00 AM 9.03 48.254 0.139 7.47 1.15 11.12
11/3/2022 1:45:00 AM 8.95 48.11 0.139 7.47 1.14 11.16
11/3/2022 2:00:00 AM 8.87 47.966 0.139 7.47 1.15 11.19
11/3/2022 2:15:00 AM 8.79 47.822 0.139 7.47 1.14 11.22
11/3/2022 2:30:00 AM 8.72 47.696 0.139 7.48 1.08 11.25
11/3/2022 2:45:00 AM 8.65 47.57 0.139 7.47 1.15 11.26
11/3/2022 3:00:00 AM 8.58 47.444 0.139 7.47 1.16 11.28
11/3/2022 3:15:00 AM 8.51 47.318 0.139 7.46 1.16 11.3
11/3/2022 3:30:00 AM 8.44 47.192 0.139 7.48 1.19 11.31
11/3/2022 3:45:00 AM 8.37 47.066 0.139 7.47 1.24 11.33
11/3/2022 4:00:00 AM 8.31 46.958 0.139 7.42 1.15 11.36
11/3/2022 4:15:00 AM 8.24 46.832 0.139 7.47 1.15 11.39
11/3/2022 4:30:00 AM 8.18 46.724 0.139 7.43 1.25 11.41
11/3/2022 4:45:00 AM 8.12 46.616 0.139 7.45 1.2 11.43
11/3/2022 5:00:00 AM 8.06 46.508 0.139 7.47 1.15 11.44
11/3/2022 5:15:00 AM 8 46.4 0.139 7.48 1.14 11.46
11/3/2022 5:30:00 AM 7.95 46.31 0.139 7.49 1.17 11.47
11/3/2022 5:45:00 AM 7.89 46.202 0.139 7.47 1.16 11.5
11/3/2022 6:00:00 AM 7.83 46.094 0.139 7.47 1.2 11.51
11/3/2022 6:15:00 AM 7.77 45.986 0.139 7.47 1.17 11.52
11/3/2022 6:30:00 AM 7.72 45.896 0.139 7.48 1.16 11.54
11/3/2022 6:45:00 AM 7.66 45.788 0.139 7.42 1.18 11.57
11/3/2022 7:00:00 AM 7.61 45.698 0.139 7.48 1.18 11.59
11/3/2022 7:15:00 AM 7.56 45.608 0.139 7.48 1.16 11.61
11/3/2022 7:30:00 AM 7.5 45.5 0.139 7.48 1.16 11.63
11/3/2022 7:45:00 AM 7.45 45.41 0.139 7.48 1.16 11.66
11/3/2022 8:00:00 AM 7.4 45.32 0.139 7.49 1.22 11.74
11/3/2022 8:15:00 AM 7.36 45.248 0.139 7.51 1.17 11.85
11/3/2022 8:30:00 AM 7.32 45.176 0.139 7.53 1.28 11.96
11/3/2022 8:45:00 AM 7.29 45.122 0.139 7.54 1.2 12.09
11/3/2022 9:00:00 AM 7.27 45.086 0.139 7.58 1.2 12.2
11/3/2022 9:15:00 AM 7.25 45.05 0.138 7.54 1.15 12.31
11/3/2022 9:30:00 AM 7.26 45.068 0.138 7.63 1.22 12.46
11/3/2022 9:45:00 AM 7.28 45.104 0.138 7.66 1.2 12.57
11/3/2022 10:00:00 AM 7.31 45.158 0.138 7.69 1.21 12.66
11/3/2022 10:15:00 AM 7.36 45.248 0.138 7.73 1.19 12.74
11/3/2022 10:30:00 AM 7.42 45.356 0.138 7.78 1.16 12.79
11/3/2022 10:45:00 AM 7.48 45.464 0.138 7.74 1.21 12.84
11/3/2022 11:00:00 AM 7.57 45.626 0.138 7.81 1.16 12.87
11/3/2022 11:15:00 AM 7.67 45.806 0.137 7.85 1.14 12.88
11/3/2022 11:30:00 AM 7.81 46.058 0.137 7.91 1.08 12.89
11/3/2022 11:45:00 AM 7.97 46.346 0.137 7.94 1.05 12.91
11/3/2022 12:00:00 PM 8.16 46.688 0.137 7.98 1.08 12.91
11/3/2022 12:15:00 PM 8.36 47.048 0.137 7.99 1.04 12.88
11/3/2022 12:30:00 PM 8.57 47.426 0.137 8.03 1.08 12.86
11/3/2022 12:45:00 PM 8.8 47.84 0.137 8.09 1.04 12.84
11/3/2022 1:00:00 PM 9.02 48.236 0.137 8.13 1.06 12.77
11/3/2022 1:15:00 PM 9.24 48.632 0.137 8.16 1.08 12.74
11/3/2022 1:30:00 PM 9.47 49.046 0.136 8.21 1.06 12.7
11/3/2022 1:45:00 PM 9.68 49.424 0.136 8.22 1.06 12.64
11/3/2022 2:00:00 PM 9.89 49.802 0.136 8.28 1.1 12.6
11/3/2022 2:15:00 PM 10.07 50.126 0.136 8.29 1.1 12.55
11/3/2022 2:30:00 PM 10.24 50.432 0.136 8.32 1.03 12.48
11/3/2022 2:45:00 PM 10.38 50.684 0.136 8.33 1.07 12.42
11/3/2022 3:00:00 PM 10.45 50.81 0.136 8.28 0.99 12.31
11/3/2022 3:15:00 PM 10.5 50.9 0.136 8.26 1.09 12.21
11/3/2022 3:30:00 PM 10.55 50.99 0.136 8.23 1.05 12.08
11/3/2022 3:45:00 PM 10.6 51.08 0.136 8.17 1.07 11.96
11/3/2022 4:00:00 PM 10.65 51.17 0.137 8.13 1.04 11.87
11/3/2022 4:15:00 PM 10.69 51.242 0.137 8.07 1.12 11.78
11/3/2022 4:30:00 PM 10.71 51.278 0.137 8.04 1.06 11.7
11/3/2022 4:45:00 PM 10.74 51.332 0.137 8.01 1.11 11.61
11/3/2022 5:00:00 PM 10.75 51.35 0.137 7.97 1.16 11.56
11/3/2022 5:15:00 PM 10.75 51.35 0.137 7.94 1.12 11.48
11/3/2022 5:30:00 PM 10.71 51.278 0.137 7.89 1.13 11.39
11/3/2022 5:45:00 PM 10.66 51.188 0.137 7.84 1.16 11.28
11/3/2022 6:00:00 PM 10.6 51.08 0.137 7.78 1.12 11.17
11/3/2022 6:15:00 PM 10.54 50.972 0.138 7.74 1.15 11.05
11/3/2022 6:30:00 PM 10.49 50.882 0.138 7.69 1.13 10.95
11/3/2022 6:45:00 PM 10.44 50.792 0.138 7.66 1.1 10.88
11/3/2022 7:00:00 PM 10.38 50.684 0.138 7.63 1.29 10.83
11/3/2022 7:15:00 PM 10.32 50.576 0.138 7.61 1.19 10.81
11/3/2022 7:30:00 PM 10.25 50.45 0.139 7.6 1.18 10.81
11/3/2022 7:45:00 PM 10.18 50.324 0.139 7.57 1.17 10.82
11/3/2022 8:00:00 PM 10.11 50.198 0.139 7.57 1.22 10.83
11/3/2022 8:15:00 PM 10.04 50.072 0.139 7.56 1.22 10.86
11/3/2022 8:30:00 PM 9.96 49.928 0.139 7.54 1.16 10.87
11/3/2022 8:45:00 PM 9.87 49.766 0.139 7.53 1.14 10.89
11/3/2022 9:00:00 PM 9.79 49.622 0.139 7.52 1.18 10.9
11/3/2022 9:15:00 PM 9.71 49.478 0.139 7.52 1.16 10.91
11/3/2022 9:30:00 PM 9.63 49.334 0.139 7.51 1.16 10.93
11/3/2022 9:45:00 PM 9.55 49.19 0.139 7.47 1.19 10.96
11/3/2022 10:00:00 PM 9.47 49.046 0.139 7.5 1.11 11
11/3/2022 10:15:00 PM 9.39 48.902 0.139 7.5 1.17 11.02
11/3/2022 10:30:00 PM 9.3 48.74 0.139 7.49 1.21 11.05
11/3/2022 10:45:00 PM 9.22 48.596 0.139 7.5 1.13 11.07
11/3/2022 11:00:00 PM 9.14 48.452 0.139 7.49 1.19 11.1
11/3/2022 11:15:00 PM 9.06 48.308 0.139 7.49 1.96 11.11
11/3/2022 11:30:00 PM 8.97 48.146 0.139 7.44 1.16 11.14
11/3/2022 11:45:00 PM 8.9 48.02 0.139 7.49 1.13 11.17
11/4/2022 12:00:00 AM 8.82 47.876 0.139 7.47 1.12 11.21
11/4/2022 12:15:00 AM 8.75 47.75 0.139 7.48 1.17 11.22
11/4/2022 12:30:00 AM 8.67 47.606 0.139 7.49 1.33 11.25
11/4/2022 12:45:00 AM 8.59 47.462 0.139 7.48 1.17 11.27
11/4/2022 1:00:00 AM 8.51 47.318 0.139 7.48 1.17 11.29
11/4/2022 1:15:00 AM 8.44 47.192 0.139 7.47 1.17 11.3
11/4/2022 1:30:00 AM 8.37 47.066 0.139 7.49 1.22 11.31
11/4/2022 1:45:00 AM 8.3 46.94 0.139 7.48 1.16 11.34
11/4/2022 2:00:00 AM 8.24 46.832 0.139 7.48 1.23 11.37
11/4/2022 2:15:00 AM 8.18 46.724 0.139 7.42 1.19 11.39
11/4/2022 2:30:00 AM 8.12 46.616 0.139 7.45 1.13 11.42
11/4/2022 2:45:00 AM 8.05 46.49 0.139 7.48 1.13 11.44
11/4/2022 3:00:00 AM 8 46.4 0.139 7.48 1.19 11.46
11/4/2022 3:15:00 AM 7.95 46.31 0.139 7.48 1.15 11.48
11/4/2022 3:30:00 AM 7.89 46.202 0.139 7.48 1.23 11.49
11/4/2022 3:45:00 AM 7.84 46.112 0.139 7.44 1.09 11.49
11/4/2022 4:00:00 AM 7.78 46.004 0.139 7.45 1.12 11.51
11/4/2022 4:15:00 AM 7.73 45.914 0.139 7.46 1.12 11.53
11/4/2022 4:30:00 AM 7.68 45.824 0.139 7.46 1.08 11.54
11/4/2022 4:45:00 AM 7.64 45.752 0.139 7.46 1.12 11.56
11/4/2022 5:00:00 AM 7.59 45.662 0.139 7.48 1.07 11.58
11/4/2022 5:15:00 AM 7.55 45.59 0.139 7.5 1.08 11.6
11/4/2022 5:30:00 AM 7.51 45.518 0.139 7.49 1.12 11.61
11/4/2022 5:45:00 AM 7.47 45.446 0.139 7.47 1.11 11.63
11/4/2022 6:00:00 AM 7.43 45.374 0.139 7.48 1.16 11.64
11/4/2022 6:15:00 AM 7.39 45.302 0.139 7.49 1.09 11.66
11/4/2022 6:30:00 AM 7.35 45.23 0.139 7.48 1.13 11.67
11/4/2022 6:45:00 AM 7.31 45.158 0.139 7.45 1.08 11.68
11/4/2022 7:00:00 AM 7.27 45.086 0.139 7.49 1.06 11.69
11/4/2022 7:15:00 AM 7.24 45.032 0.139 7.48 1.13 11.7
11/4/2022 7:30:00 AM 7.21 44.978 0.139 7.44 1.09 11.71
11/4/2022 7:45:00 AM 7.17 44.906 0.139 7.46 1.22 11.73
11/4/2022 8:00:00 AM 7.14 44.852 0.139 7.47 1.13 11.8
11/4/2022 8:15:00 AM 7.12 44.816 0.139 7.5 1.1 11.91
11/4/2022 8:30:00 AM 7.11 44.798 0.138 7.54 1.08 12.06
11/4/2022 8:45:00 AM 7.1 44.78 0.138 7.54 1.05 12.2
11/4/2022 9:00:00 AM 7.11 44.798 0.138 7.57 1.1 12.34
11/4/2022 9:15:00 AM 7.12 44.816 0.138 7.61 1.14 12.47
11/4/2022 9:30:00 AM 7.13 44.834 0.138 7.67 1.13 12.58
11/4/2022 9:45:00 AM 7.16 44.888 0.138 7.69 1.15 12.64
11/4/2022 10:00:00 AM 7.21 44.978 0.137 7.73 1.12 12.72
11/4/2022 10:15:00 AM 7.28 45.104 0.137 7.77 1.17 12.81
11/4/2022 10:30:00 AM 7.34 45.212 0.137 7.81 1.13 12.85
11/4/2022 10:45:00 AM 7.42 45.356 0.137 7.84 1.09 12.89
11/4/2022 11:00:00 AM 7.51 45.518 0.137 7.87 1.14 12.92
11/4/2022 11:15:00 AM 7.64 45.752 0.137 7.91 1.09 12.95
11/4/2022 11:30:00 AM 7.77 45.986 0.137 7.96 1.1 12.93
11/4/2022 11:45:00 AM 7.93 46.274 0.137 7.99 1.11 12.96
11/4/2022 12:00:00 PM 8.15 46.67 0.137 7.99 1.04 12.94
11/4/2022 12:15:00 PM 8.37 47.066 0.137 8.08 1.08 12.91
11/4/2022 12:30:00 PM 8.58 47.444 0.137 8.12 1.05 12.91
11/4/2022 12:45:00 PM 8.8 47.84 0.137 8.17 1.03 12.89
11/4/2022 1:00:00 PM 9.05 48.29 0.136 8.16 1.08 12.82
11/4/2022 1:15:00 PM 9.32 48.776 0.136 8.25 1.11 12.78
11/4/2022 1:30:00 PM 9.55 49.19 0.136 8.28 1.04 12.71
11/4/2022 1:45:00 PM 9.79 49.622 0.136 8.31 1.02 12.62
11/4/2022 2:00:00 PM 9.99 49.982 0.136 8.33 1.04 12.58
11/4/2022 2:15:00 PM 10.16 50.288 0.136 8.35 1.06 12.52
11/4/2022 2:30:00 PM 10.32 50.576 0.136 8.33 1.05 12.46
11/4/2022 2:45:00 PM 10.49 50.882 0.136 8.39 1.05 12.45
11/4/2022 3:00:00 PM 10.58 51.044 0.136 8.36 1.02 12.37
11/4/2022 3:15:00 PM 10.67 51.206 0.136 8.4 1.06 12.32
11/4/2022 3:30:00 PM 10.77 51.386 0.136 8.41 1.09 12.26
11/4/2022 3:45:00 PM 10.86 51.548 0.136 8.4 1.09 12.18
11/4/2022 4:00:00 PM 10.92 51.656 0.136 8.38 1.04 12.09
11/4/2022 4:15:00 PM 10.99 51.782 0.136 8.36 1.12 12.07
11/4/2022 4:30:00 PM 11.05 51.89 0.136 8.39 1.08 12.08
11/4/2022 4:45:00 PM 11.09 51.962 0.136 8.38 1.09 12.02
11/4/2022 5:00:00 PM 11.1 51.98 0.136 8.32 1.1 11.88
11/4/2022 5:15:00 PM 11.1 51.98 0.136 8.23 1.11 11.73
11/4/2022 5:30:00 PM 11.1 51.98 0.136 8.12 1.19 11.56
11/4/2022 5:45:00 PM 11.06 51.908 0.136 8 1.21 11.34
11/4/2022 6:00:00 PM 11.02 51.836 0.137 7.88 1.15 11.13
11/4/2022 6:15:00 PM 10.98 51.764 0.137 7.81 1.19 10.95
11/4/2022 6:30:00 PM 10.94 51.692 0.137 7.75 1.21 10.83
11/4/2022 6:45:00 PM 10.92 51.656 0.138 7.67 1.16 10.73
11/4/2022 7:00:00 PM 10.9 51.62 0.138 7.67 1.16 10.68
11/4/2022 7:15:00 PM 10.87 51.566 0.138 7.6 1.22 10.66
11/4/2022 7:30:00 PM 10.83 51.494 0.138 7.62 1.15 10.64
11/4/2022 7:45:00 PM 10.8 51.44 0.138 7.61 1.23 10.62
11/4/2022 8:00:00 PM 10.77 51.386 0.139 7.58 1.2 10.62
11/4/2022 8:15:00 PM 10.74 51.332 0.139 7.58 1.23 10.62
11/4/2022 8:30:00 PM 10.7 51.26 0.138 7.57 1.21 10.63
11/4/2022 8:45:00 PM 10.66 51.188 0.138 7.53 1.19 10.64
11/4/2022 9:00:00 PM 10.61 51.098 0.138 7.55 1.2 10.65
11/4/2022 9:15:00 PM 10.56 51.008 0.138 7.54 1.14 10.66
11/4/2022 9:30:00 PM 10.51 50.918 0.139 7.54 1.1 10.67
11/4/2022 9:45:00 PM 10.45 50.81 0.139 7.53 1.15 10.68
11/4/2022 10:00:00 PM 10.4 50.72 0.139 7.48 1.1 10.69
11/4/2022 10:15:00 PM 10.34 50.612 0.139 7.51 1.25 10.69
11/4/2022 10:30:00 PM 10.29 50.522 0.139 7.51 1.18 10.71
11/4/2022 10:45:00 PM 10.24 50.432 0.139 7.51 1.16 10.73
11/4/2022 11:00:00 PM 10.19 50.342 0.139 7.49 1.18 10.75
11/4/2022 11:15:00 PM 10.15 50.27 0.139 7.47 1.15 10.77
11/4/2022 11:30:00 PM 10.12 50.216 0.139 7.51 1.23 10.78
11/4/2022 11:45:00 PM 10.08 50.144 0.139 7.5 1.16 10.79
11/5/2022 12:00:00 AM 10.05 50.09 0.139 7.51 1.18 10.8
11/5/2022 12:15:00 AM 10.03 50.054 0.139 7.5 1.17 10.81
11/5/2022 12:30:00 AM 10 50 0.139 7.51 1.13 10.82
11/5/2022 12:45:00 AM 9.97 49.946 0.139 7.52 1.21 10.82
11/5/2022 1:00:00 AM 9.93 49.874 0.139 7.5 1.1 10.84
11/5/2022 1:15:00 AM 9.89 49.802 0.139 7.51 1.21 10.84
11/5/2022 1:30:00 AM 9.85 49.73 0.139 7.5 1.13 10.86
11/5/2022 1:45:00 AM 9.81 49.658 0.139 7.49 1.22 10.87
11/5/2022 2:00:00 AM 9.77 49.586 0.139 7.47 1.24 10.86
11/5/2022 2:15:00 AM 9.73 49.514 0.139 7.48 1.17 10.88
11/5/2022 2:30:00 AM 9.69 49.442 0.139 7.5 1.21 10.88
11/5/2022 2:45:00 AM 9.67 49.406 0.139 7.46 1.21 10.88
11/5/2022 3:00:00 AM 9.66 49.388 0.139 7.49 1.27 10.9
11/5/2022 3:15:00 AM 9.64 49.352 0.139 7.5 1.23 10.9
11/5/2022 3:30:00 AM 9.63 49.334 0.139 7.49 1.19 10.91
11/5/2022 3:45:00 AM 9.63 49.334 0.139 7.51 1.13 10.91
11/5/2022 4:00:00 AM 9.64 49.352 0.139 7.46 1.19 10.92
11/5/2022 4:15:00 AM 9.66 49.388 0.139 7.48 1.16 10.9
11/5/2022 4:30:00 AM 9.68 49.424 0.139 7.49 1.16 10.9
11/5/2022 4:45:00 AM 9.69 49.442 0.139 7.51 1.11 10.89
11/5/2022 5:00:00 AM 9.72 49.496 0.139 7.51 1.12 10.89
11/5/2022 5:15:00 AM 9.77 49.586 0.139 7.51 1.15 10.89
11/5/2022 5:30:00 AM 9.8 49.64 0.139 7.52 1.13 10.88
11/5/2022 5:45:00 AM 9.82 49.676 0.138 7.52 1.17 10.88
11/5/2022 6:00:00 AM 9.86 49.748 0.138 7.48 1.14 10.88
11/5/2022 6:15:00 AM 9.89 49.802 0.138 7.52 1.17 10.86
11/5/2022 6:30:00 AM 9.94 49.892 0.138 7.52 1.12 10.85
11/5/2022 6:45:00 AM 9.98 49.964 0.138 7.51 1.12 10.84
11/5/2022 7:00:00 AM 10.03 50.054 0.138 7.52 1.16 10.83
11/5/2022 7:15:00 AM 10.08 50.144 0.138 7.52 1.14 10.81
11/5/2022 7:30:00 AM 10.13 50.234 0.138 7.53 1.15 10.8
11/5/2022 7:45:00 AM 10.19 50.342 0.138 7.52 1.24 10.79
11/5/2022 8:00:00 AM 10.26 50.468 0.138 7.53 1.22 10.8
11/5/2022 8:15:00 AM 10.33 50.594 0.138 7.56 1.16 10.86
11/5/2022 8:30:00 AM 10.39 50.702 0.138 7.59 1.19 11.04
11/5/2022 8:45:00 AM 10.46 50.828 0.137 7.63 1.18 11.3
11/5/2022 9:00:00 AM 10.54 50.972 0.137 7.68 1.19 11.47
11/5/2022 9:15:00 AM 10.62 51.116 0.137 7.71 1.19 11.56
11/5/2022 9:30:00 AM 10.72 51.296 0.136 7.77 1.14 11.67
11/5/2022 9:45:00 AM 10.81 51.458 0.136 7.84 1.13 11.83
11/5/2022 10:00:00 AM 10.92 51.656 0.136 7.93 1.15 11.97
11/5/2022 10:15:00 AM 11.01 51.818 0.136 8 1.2 12.04
11/5/2022 10:30:00 AM 11.12 52.016 0.136 8.06 1.16 12.16
11/5/2022 10:45:00 AM 11.22 52.196 0.135 8.2 1.14 12.25
11/5/2022 11:00:00 AM 11.34 52.412 0.135 8.26 1.1 12.27
11/5/2022 11:15:00 AM 11.45 52.61 0.135 8.26 1.21 12.15
11/5/2022 11:30:00 AM 11.52 52.736 0.135 8.29 1.09 12.11
11/5/2022 11:45:00 AM 11.66 52.988 0.135 8.39 1.12 12.21
11/5/2022 12:00:00 PM 11.74 53.132 0.135 8.41 1.13 12.16
11/5/2022 12:15:00 PM 11.77 53.186 0.135 8.39 1.1 12.07
11/5/2022 12:30:00 PM 11.84 53.312 0.135 8.39 1.13 12
11/5/2022 12:45:00 PM 11.92 53.456 0.135 8.41 1.13 12
11/5/2022 1:00:00 PM 11.98 53.564 0.135 8.43 1.08 12.02
11/5/2022 1:15:00 PM 12.06 53.708 0.135 8.49 1.13 12.07
11/5/2022 1:30:00 PM 12.15 53.87 0.135 8.52 1.09 12.08
11/5/2022 1:45:00 PM 12.21 53.978 0.135 8.55 1.09 12.04
11/5/2022 2:00:00 PM 12.26 54.068 0.135 8.5 1.1 11.9
11/5/2022 2:15:00 PM 12.31 54.158 0.135 8.47 1.02 11.75
11/5/2022 2:30:00 PM 12.37 54.266 0.135 8.41 1.13 11.67
11/5/2022 2:45:00 PM 12.41 54.338 0.135 8.38 1.12 11.67
11/5/2022 3:00:00 PM 12.43 54.374 0.135 8.34 1.08 11.53
11/5/2022 3:15:00 PM 12.49 54.482 0.135 8.34 1.15 11.58
11/5/2022 3:30:00 PM 12.51 54.518 0.135 8.24 1.16 11.38
11/5/2022 3:45:00 PM 12.55 54.59 0.135 8.16 1.14 11.25
11/5/2022 4:00:00 PM 12.6 54.68 0.135 8.11 1.2 11.2
11/5/2022 4:15:00 PM 12.66 54.788 0.135 8.16 1.16 11.36
11/5/2022 4:30:00 PM 12.69 54.842 0.135 8.24 1.16 11.49
11/5/2022 4:45:00 PM 12.7 54.86 0.135 8.25 1.14 11.5
11/5/2022 5:00:00 PM 12.71 54.878 0.135 8.16 1.16 11.34
11/5/2022 5:15:00 PM 12.72 54.896 0.135 8.09 1.19 11.09
11/5/2022 5:30:00 PM 12.73 54.914 0.136 8.01 1.19 10.95
11/5/2022 5:45:00 PM 12.7 54.86 0.136 7.87 1.22 10.77
11/5/2022 6:00:00 PM 12.68 54.824 0.136 7.84 1.21 10.6
11/5/2022 6:15:00 PM 12.64 54.752 0.137 7.76 1.25 10.45
11/5/2022 6:30:00 PM 12.63 54.734 0.137 7.72 1.18 10.33
11/5/2022 6:45:00 PM 12.62 54.716 0.137 7.64 1.3 10.24
11/5/2022 7:00:00 PM 12.62 54.716 0.138 7.65 1.22 10.18
11/5/2022 7:15:00 PM 12.64 54.752 0.138 7.63 1.26 10.12
11/5/2022 7:30:00 PM 12.64 54.752 0.138 7.6 1.2 10.1
11/5/2022 7:45:00 PM 12.62 54.716 0.138 7.59 1.26 10.08
11/5/2022 8:00:00 PM 12.61 54.698 0.138 7.54 1.2 10.07
11/5/2022 8:15:00 PM 12.62 54.716 0.138 7.58 1.21 10.06
11/5/2022 8:30:00 PM 12.63 54.734 0.138 7.57 1.31 10.05
11/5/2022 8:45:00 PM 12.67 54.806 0.138 7.53 1.42 10.03
11/5/2022 9:00:00 PM 12.7 54.86 0.138 7.56 1.24 10.02
11/5/2022 9:15:00 PM 12.73 54.914 0.138 7.55 1.22 10.02
11/5/2022 9:30:00 PM 12.73 54.914 0.138 7.56 1.15 10.01
11/5/2022 9:45:00 PM 12.73 54.914 0.138 7.5 1.28 10.01
11/5/2022 10:00:00 PM 12.72 54.896 0.138 7.53 1.17 10.01
11/5/2022 10:15:00 PM 12.73 54.914 0.138 7.55 1.21 10.01
11/5/2022 10:30:00 PM 12.73 54.914 0.138 7.54 1.22 10.01
11/5/2022 10:45:00 PM 12.73 54.914 0.138 7.54 1.21 10.01
11/5/2022 11:00:00 PM 12.76 54.968 0.138 7.54 1.15 10
11/5/2022 11:15:00 PM 12.79 55.022 0.138 7.54 1.25 9.99
11/5/2022 11:30:00 PM 12.81 55.058 0.138 7.5 1.28 9.99
11/5/2022 11:45:00 PM 12.81 55.058 0.139 7.53 1.22 9.98
11/6/2022 12:00:00 AM 12.81 55.058 0.139 7.53 1.17 9.98
11/6/2022 12:15:00 AM 12.81 55.058 0.139 7.53 1.23 9.98
11/6/2022 12:30:00 AM 12.82 55.076 0.139 7.48 1.25 9.98
11/6/2022 12:45:00 AM 12.84 55.112 0.139 7.5 1.26 9.97
11/6/2022 1:00:00 AM 12.84 55.112 0.139 7.51 1.32 9.97
11/6/2022 1:15:00 AM 12.85 55.13 0.139 7.52 1.25 9.97
11/6/2022 1:30:00 AM 12.87 55.166 0.139 7.52 1.3 9.97
11/6/2022 1:45:00 AM 12.89 55.202 0.139 7.53 1.26 9.95
11/6/2022 2:00:00 AM 12.92 55.256 0.139 7.52 1.28 9.95
11/6/2022 2:15:00 AM 12.92 55.256 0.139 7.48 1.27 9.95
11/6/2022 2:30:00 AM 12.92 55.256 0.139 7.5 1.24 9.94
11/6/2022 2:45:00 AM 12.93 55.274 0.139 7.51 1.27 9.94
11/6/2022 3:00:00 AM 12.96 55.328 0.139 7.5 1.25 9.94
11/6/2022 3:15:00 AM 12.97 55.346 0.138 7.5 1.24 9.94
11/6/2022 3:30:00 AM 12.98 55.364 0.138 7.49 1.39 9.95
11/6/2022 3:45:00 AM 13 55.4 0.138 7.49 1.27 9.95
11/6/2022 4:00:00 AM 13.03 55.454 0.138 7.53 1.27 9.94
11/6/2022 4:15:00 AM 13.07 55.526 0.138 7.52 1.22 9.94
11/6/2022 4:30:00 AM 13.05 55.49 0.138 7.52 1.2 9.95
11/6/2022 4:45:00 AM 13.05 55.49 0.138 7.52 1.26 9.94
11/6/2022 5:00:00 AM 13.05 55.49 0.138 7.52 1.32 9.96
11/6/2022 5:15:00 AM 13.07 55.526 0.138 7.51 1.32 9.95
11/6/2022 5:30:00 AM 13.08 55.544 0.138 7.51 1.21 9.95
11/6/2022 5:45:00 AM 13.08 55.544 0.138 7.52 1.24 9.96
11/6/2022 6:00:00 AM 13.09 55.562 0.138 7.52 1.25 9.96
11/6/2022 6:15:00 AM 13.08 55.544 0.138 7.51 1.37 9.96
11/6/2022 6:30:00 AM 13.07 55.526 0.138 7.51 1.31 9.96
11/6/2022 6:45:00 AM 13.07 55.526 0.138 7.52 1.24 9.96
11/6/2022 7:00:00 AM 13.09 55.562 0.138 7.51 1.33 9.98
11/6/2022 7:15:00 AM 13.1 55.58 0.138 7.53 1.25 10.02
11/6/2022 7:30:00 AM 13.11 55.598 0.138 7.53 1.23 10.11
11/6/2022 7:45:00 AM 13.12 55.616 0.138 7.56 1.17 10.19
11/6/2022 8:00:00 AM 13.11 55.598 0.138 7.58 1.19 10.34
11/6/2022 8:15:00 AM 13.14 55.652 0.137 7.63 1.15 10.55
11/6/2022 8:30:00 AM 13.2 55.76 0.137 7.71 1.22 10.91
11/6/2022 8:45:00 AM 13.28 55.904 0.136 7.77 1.26 11.25
11/6/2022 9:00:00 AM 13.35 56.03 0.136 7.95 1.2 11.46
11/6/2022 9:15:00 AM 13.44 56.192 0.135 8.08 1.3 11.63
11/6/2022 9:30:00 AM 13.5 56.3 0.135 8.15 1.22 11.63
11/6/2022 9:45:00 AM 13.59 56.462 0.135 8.22 1.2 11.63
11/6/2022 10:00:00 AM 13.64 56.552 0.135 8.27 1.16 11.62
11/6/2022 10:15:00 AM 13.7 56.66 0.135 8.29 1.24 11.61
11/6/2022 10:30:00 AM 13.77 56.786 0.135 8.33 1.14 11.57
11/6/2022 10:45:00 AM 13.87 56.966 0.135 8.38 1.25 11.63
11/6/2022 11:00:00 AM 14.03 57.254 0.135 8.49 1.19 11.77
11/6/2022 11:15:00 AM 14.15 57.47 0.135 8.58 1.16 11.81
11/6/2022 11:30:00 AM 14.21 57.578 0.135 8.62 1.2 11.78
11/6/2022 11:45:00 AM 14.26 57.668 0.135 8.65 1.27 11.75
11/6/2022 12:00:00 PM 14.33 57.794 0.135 8.68 1.15 11.74
11/6/2022 12:15:00 PM 14.39 57.902 0.135 8.71 1.2 11.74
11/6/2022 12:30:00 PM 14.44 57.992 0.135 8.72 1.21 11.68
11/6/2022 12:45:00 PM 14.48 58.064 0.135 8.71 1.18 11.57
11/6/2022 1:00:00 PM 14.61 58.298 0.135 8.74 1.16 11.61
11/6/2022 1:15:00 PM 14.87 58.766 0.135 8.8 1.18 11.69
11/6/2022 1:30:00 PM 15.03 59.054 0.135 8.83 1.15 11.67
11/6/2022 1:45:00 PM 15.04 59.072 0.135 8.81 1.11 11.53
11/6/2022 2:00:00 PM 15.06 59.108 0.135 8.8 1.22 11.46
11/6/2022 2:15:00 PM 15.07 59.126 0.135 8.77 1.14 11.35
11/6/2022 2:30:00 PM 15.09 59.162 0.135 8.73 1.37 11.37
11/6/2022 2:45:00 PM 15.12 59.216 0.135 8.75 1.22 11.3
11/6/2022 3:00:00 PM 15.16 59.288 0.135 8.71 1.21 11.15
11/6/2022 3:15:00 PM 15.17 59.306 0.135 8.63 1.17 10.97
11/6/2022 3:30:00 PM 15.25 59.45 0.135 8.55 1.24 10.84
11/6/2022 3:45:00 PM 15.3 59.54 0.135 8.4 1.26 10.57
11/6/2022 4:00:00 PM 15.34 59.612 0.135 8.33 1.22 10.54
11/6/2022 4:15:00 PM 15.28 59.504 0.136 8.2 1.26 10.41
11/6/2022 4:30:00 PM 15.23 59.414 0.136 8.09 1.31 10.28
11/6/2022 4:45:00 PM 15.15 59.27 0.136 7.98 1.24 10.14
11/6/2022 5:00:00 PM 15.08 59.144 0.137 7.89 1.24 9.97
11/6/2022 5:15:00 PM 15 59 0.137 7.77 1.26 9.82
11/6/2022 5:30:00 PM 14.93 58.874 0.138 7.73 1.27 9.7
11/6/2022 5:45:00 PM 14.86 58.748 0.138 7.7 1.32 9.61
11/6/2022 6:00:00 PM 14.8 58.64 0.138 7.67 1.4 9.56
11/6/2022 6:15:00 PM 14.77 58.586 0.138 7.64 1.6 9.53
11/6/2022 6:30:00 PM 14.72 58.496 0.138 7.62 1.29 9.53
11/6/2022 6:45:00 PM 14.67 58.406 0.138 7.59 1.55 9.52
11/6/2022 7:00:00 PM 14.6 58.28 0.138 7.57 1.34 9.53
11/6/2022 7:15:00 PM 14.57 58.226 0.139 7.55 1.39 9.53
11/6/2022 7:30:00 PM 14.54 58.172 0.139 7.53 1.4 9.53
11/6/2022 7:45:00 PM 14.51 58.118 0.139 7.54 1.49 9.54
11/6/2022 8:00:00 PM 14.49 58.082 0.139 7.53 1.38 9.54
11/6/2022 8:15:00 PM 14.45 58.01 0.139 7.53 1.27 9.55
11/6/2022 8:30:00 PM 14.41 57.938 0.139 7.52 1.29 9.55
11/6/2022 8:45:00 PM 14.38 57.884 0.139 7.52 1.34 9.56
11/6/2022 9:00:00 PM 14.35 57.83 0.139 7.51 1.26 9.56
11/6/2022 9:15:00 PM 14.29 57.722 0.139 7.5 1.29 9.57
11/6/2022 9:30:00 PM 14.25 57.65 0.139 7.51 1.24 9.58
11/6/2022 9:45:00 PM 14.23 57.614 0.139 7.5 1.41 9.58
11/6/2022 10:00:00 PM 14.21 57.578 0.139 7.46 1.3 9.59
11/6/2022 10:15:00 PM 14.19 57.542 0.139 7.49 1.23 9.6
11/6/2022 10:30:00 PM 14.18 57.524 0.139 7.5 1.29 9.59
11/6/2022 10:45:00 PM 14.17 57.506 0.139 7.48 1.34 9.61
11/6/2022 11:00:00 PM 14.16 57.488 0.14 7.5 1.36 9.62
11/6/2022 11:15:00 PM 14.12 57.416 0.14 7.5 1.24 9.63
11/6/2022 11:30:00 PM 14.07 57.326 0.14 7.47 1.35 9.65
11/6/2022 11:45:00 PM 14.02 57.236 0.14 7.49 1.26 9.67
11/7/2022 12:00:00 AM 13.99 57.182 0.14 7.49 1.28 9.67
11/7/2022 12:15:00 AM 13.94 57.092 0.14 7.49 1.65 9.69
11/7/2022 12:30:00 AM 13.89 57.002 0.14 7.48 1.35 9.7
11/7/2022 12:45:00 AM 13.83 56.894 0.14 7.43 1.34 9.71
11/7/2022 1:00:00 AM 13.77 56.786 0.14 7.47 1.32 9.73
11/7/2022 1:15:00 AM 13.71 56.678 0.14 7.46 1.3 9.73
11/7/2022 1:30:00 AM 13.64 56.552 0.14 7.47 1.35 9.75
11/7/2022 1:45:00 AM 13.6 56.48 0.14 7.46 1.33 9.76
11/7/2022 2:00:00 AM 13.56 56.408 0.14 7.45 1.35 9.77
11/7/2022 2:15:00 AM 13.52 56.336 0.14 7.46 1.34 9.77
11/7/2022 2:30:00 AM 13.49 56.282 0.14 7.44 1.34 9.79
11/7/2022 2:45:00 AM 13.47 56.246 0.14 7.45 1.41 9.8
11/7/2022 3:00:00 AM 13.45 56.21 0.14 7.46 1.33 9.81
11/7/2022 3:15:00 AM 13.41 56.138 0.14 7.45 1.33 9.83
11/7/2022 3:30:00 AM 13.38 56.084 0.14 7.47 1.39 9.83
11/7/2022 3:45:00 AM 13.34 56.012 0.14 7.48 1.45 9.85
11/7/2022 4:00:00 AM 13.29 55.922 0.14 7.49 1.24 9.86
11/7/2022 4:15:00 AM 13.21 55.778 0.14 7.48 1.33 9.88
11/7/2022 4:30:00 AM 13.14 55.652 0.14 7.47 1.36 9.9
11/7/2022 4:45:00 AM 13.06 55.508 0.14 7.43 1.28 9.91
11/7/2022 5:00:00 AM 12.98 55.364 0.14 7.48 1.33 9.93
11/7/2022 5:15:00 AM 12.89 55.202 0.14 7.42 1.25 9.95
11/7/2022 5:30:00 AM 12.8 55.04 0.139 7.47 1.27 9.98
11/7/2022 5:45:00 AM 12.71 54.878 0.139 7.47 1.34 10.01
11/7/2022 6:00:00 AM 12.62 54.716 0.139 7.42 1.31 10.05
11/7/2022 6:15:00 AM 12.52 54.536 0.139 7.45 1.26 10.07
11/7/2022 6:30:00 AM 12.43 54.374 0.139 7.45 1.26 10.09
11/7/2022 6:45:00 AM 12.34 54.212 0.139 7.45 1.3 10.13
11/7/2022 7:00:00 AM 12.25 54.05 0.139 7.41 1.3 10.18
11/7/2022 7:15:00 AM 12.17 53.906 0.139 7.47 1.37 10.3
11/7/2022 7:30:00 AM 12.09 53.762 0.139 7.47 1.32 10.43
11/7/2022 7:45:00 AM 12.03 53.654 0.139 7.51 1.3 10.56
11/7/2022 8:00:00 AM 11.96 53.528 0.139 7.54 1.16 10.69
11/7/2022 8:15:00 AM 11.91 53.438 0.139 7.57 1.28 10.81
11/7/2022 8:30:00 AM 11.88 53.384 0.139 7.59 1.27 10.96
11/7/2022 8:45:00 AM 11.89 53.402 0.138 7.62 1.18 11.15
11/7/2022 9:00:00 AM 11.91 53.438 0.138 7.7 1.2 11.31
11/7/2022 9:15:00 AM 11.94 53.492 0.138 7.78 1.27 11.43
11/7/2022 9:30:00 AM 11.97 53.546 0.138 7.84 1.18 11.5
11/7/2022 9:45:00 AM 12.01 53.618 0.138 7.9 1.14 11.58
11/7/2022 10:00:00 AM 12.05 53.69 0.138 7.92 1.21 11.64
11/7/2022 10:15:00 AM 12.09 53.762 0.137 7.99 1.19 11.71
11/7/2022 10:30:00 AM 12.13 53.834 0.137 8.03 1.23 11.75
11/7/2022 10:45:00 AM 12.2 53.96 0.137 8.1 1.18 11.77
11/7/2022 11:00:00 AM 12.29 54.122 0.137 8.15 1.38 11.8
11/7/2022 11:15:00 AM 12.37 54.266 0.137 8.2 1.19 11.84
11/7/2022 11:30:00 AM 12.44 54.392 0.136 8.25 1.23 11.86
11/7/2022 11:45:00 AM 12.52 54.536 0.136 8.27 1.2 11.88
11/7/2022 12:00:00 PM 12.6 54.68 0.136 8.33 1.23 11.89
11/7/2022 12:15:00 PM 12.69 54.842 0.136 8.36 1.23 11.89
11/7/2022 12:30:00 PM 12.81 55.058 0.136 8.4 1.18 11.87
11/7/2022 12:45:00 PM 12.92 55.256 0.136 8.42 1.19 11.84
11/7/2022 1:00:00 PM 13.02 55.436 0.136 8.47 1.14 11.83
11/7/2022 1:15:00 PM 13.12 55.616 0.136 8.48 1.17 11.81
11/7/2022 1:30:00 PM 13.2 55.76 0.136 8.49 1.18 11.77
11/7/2022 1:45:00 PM 13.2 55.76 0.136 8.51 1.21 11.71
11/7/2022 2:00:00 PM 13.18 55.724 0.136 8.47 1.24 11.59
11/7/2022 2:15:00 PM 13.17 55.706 0.136 8.4 1.2 11.46
11/7/2022 2:30:00 PM 13.14 55.652 0.136 8.34 1.21 11.32
11/7/2022 2:45:00 PM 13.11 55.598 0.136 8.28 1.26 11.23
11/7/2022 3:00:00 PM 13.09 55.562 0.136 8.23 1.22 11.15
11/7/2022 3:15:00 PM 13.08 55.544 0.136 8.16 1.28 11.08
11/7/2022 3:30:00 PM 13.01 55.418 0.137 8.1 1.37 11
11/7/2022 3:45:00 PM 12.97 55.346 0.137 8.07 1.19 10.93
11/7/2022 4:00:00 PM 12.94 55.292 0.137 8.02 1.24 10.87
11/7/2022 4:15:00 PM 12.9 55.22 0.137 7.97 1.19 10.81
11/7/2022 4:30:00 PM 12.85 55.13 0.137 7.92 1.28 10.72
11/7/2022 4:45:00 PM 12.76 54.968 0.138 7.83 1.28 10.63
11/7/2022 5:00:00 PM 12.63 54.734 0.138 7.79 1.34 10.53
11/7/2022 5:15:00 PM 12.5 54.5 0.138 7.73 1.29 10.43
11/7/2022 5:30:00 PM 12.39 54.302 0.138 7.66 1.34 10.35
11/7/2022 5:45:00 PM 12.31 54.158 0.138 7.63 1.33 10.29
11/7/2022 6:00:00 PM 12.2 53.96 0.139 7.61 1.51 10.26
11/7/2022 6:15:00 PM 12.11 53.798 0.139 7.54 1.42 10.27
11/7/2022 6:30:00 PM 12.02 53.636 0.139 7.57 1.38 10.27
11/7/2022 6:45:00 PM 11.92 53.456 0.139 7.56 1.4 10.29
11/7/2022 7:00:00 PM 11.84 53.312 0.139 7.55 1.38 10.31
11/7/2022 7:15:00 PM 11.74 53.132 0.139 7.54 1.25 10.31
11/7/2022 7:30:00 PM 11.64 52.952 0.14 7.54 1.31 10.33
11/7/2022 7:45:00 PM 11.56 52.808 0.14 7.54 1.34 10.35
11/7/2022 8:00:00 PM 11.52 52.736 0.14 7.54 1.3 10.38
11/7/2022 8:15:00 PM 11.46 52.628 0.14 7.53 1.34 10.39
11/7/2022 8:30:00 PM 11.41 52.538 0.14 7.52 1.35 10.42
11/7/2022 8:45:00 PM 11.34 52.412 0.14 7.51 1.28 10.44
11/7/2022 9:00:00 PM 11.26 52.268 0.14 7.52 1.24 10.47
11/7/2022 9:15:00 PM 11.18 52.124 0.14 7.53 1.29 10.49
11/7/2022 9:30:00 PM 11.08 51.944 0.14 7.52 1.21 10.51
11/7/2022 9:45:00 PM 10.99 51.782 0.141 7.51 1.26 10.53
11/7/2022 10:00:00 PM 10.9 51.62 0.141 7.51 1.34 10.57
11/7/2022 10:15:00 PM 10.81 51.458 0.141 7.52 1.36 10.6
11/7/2022 10:30:00 PM 10.73 51.314 0.141 7.5 1.33 10.64
11/7/2022 10:45:00 PM 10.63 51.134 0.141 7.48 1.34 10.67
11/7/2022 11:00:00 PM 10.52 50.936 0.141 7.49 1.28 10.7
11/7/2022 11:15:00 PM 10.42 50.756 0.141 7.5 1.31 10.72
11/7/2022 11:30:00 PM 10.34 50.612 0.141 7.51 1.27 10.74
11/7/2022 11:45:00 PM 10.26 50.468 0.141 7.51 1.34 10.78
11/8/2022 12:00:00 AM 10.18 50.324 0.141 7.5 1.32 10.81
11/8/2022 12:15:00 AM 10.09 50.162 0.141 7.49 1.35 10.83
11/8/2022 12:30:00 AM 9.99 49.982 0.141 7.49 1.33 10.86
11/8/2022 12:45:00 AM 9.89 49.802 0.141 7.5 1.32 10.9
11/8/2022 1:00:00 AM 9.81 49.658 0.141 7.51 1.29 10.92
11/8/2022 1:15:00 AM 9.73 49.514 0.141 7.46 1.23 10.94
11/8/2022 1:30:00 AM 9.64 49.352 0.141 7.5 1.29 10.97
11/8/2022 1:45:00 AM 9.55 49.19 0.141 7.5 1.25 11.01
11/8/2022 2:00:00 AM 9.46 49.028 0.141 7.5 1.34 11.04
11/8/2022 2:15:00 AM 9.38 48.884 0.141 7.51 1.34 11.06
11/8/2022 2:30:00 AM 9.31 48.758 0.141 7.51 1.3 11.09
11/8/2022 2:45:00 AM 9.24 48.632 0.14 7.46 1.26 11.11
11/8/2022 3:00:00 AM 9.18 48.524 0.14 7.51 1.29 11.13
11/8/2022 3:15:00 AM 9.12 48.416 0.14 7.5 1.38 11.14
11/8/2022 3:30:00 AM 9.07 48.326 0.14 7.51 1.23 11.16
11/8/2022 3:45:00 AM 9.03 48.254 0.14 7.51 1.39 11.17
11/8/2022 4:00:00 AM 8.97 48.146 0.14 7.48 1.32 11.2
11/8/2022 4:15:00 AM 8.94 48.092 0.14 7.52 1.29 11.22
11/8/2022 4:30:00 AM 8.91 48.038 0.14 7.52 1.33 11.23
11/8/2022 4:45:00 AM 8.88 47.984 0.14 7.49 1.26 11.25
11/8/2022 5:00:00 AM 8.82 47.876 0.14 7.52 1.29 11.27
11/8/2022 5:15:00 AM 8.76 47.768 0.14 7.5 1.28 11.29
11/8/2022 5:30:00 AM 8.69 47.642 0.14 7.52 1.29 11.31
11/8/2022 5:45:00 AM 8.62 47.516 0.14 7.49 1.26 11.33
11/8/2022 6:00:00 AM 8.56 47.408 0.14 7.52 1.22 11.35
11/8/2022 6:15:00 AM 8.51 47.318 0.14 7.47 1.3 11.35
11/8/2022 6:30:00 AM 8.46 47.228 0.14 7.52 1.31 11.36
11/8/2022 6:45:00 AM 8.43 47.174 0.14 7.52 1.35 11.39
11/8/2022 7:00:00 AM 8.4 47.12 0.14 7.53 1.37 11.44
11/8/2022 7:15:00 AM 8.39 47.102 0.14 7.51 1.33 11.57
11/8/2022 7:30:00 AM 8.38 47.084 0.14 7.59 1.31 11.71
11/8/2022 7:45:00 AM 8.35 47.03 0.14 7.61 1.34 11.86
11/8/2022 8:00:00 AM 8.31 46.958 0.139 7.64 1.32 12
11/8/2022 8:15:00 AM 8.28 46.904 0.139 7.67 1.36 12.15
11/8/2022 8:30:00 AM 8.27 46.886 0.139 7.72 1.35 12.3
11/8/2022 8:45:00 AM 8.29 46.922 0.139 7.78 1.33 12.46
11/8/2022 9:00:00 AM 8.32 46.976 0.138 7.81 1.29 12.56
11/8/2022 9:15:00 AM 8.38 47.084 0.138 7.88 1.34 12.63
11/8/2022 9:30:00 AM 8.44 47.192 0.138 7.93 1.24 12.7
11/8/2022 9:45:00 AM 8.49 47.282 0.138 7.97 1.23 12.75
11/8/2022 10:00:00 AM 8.53 47.354 0.138 8.02 1.24 12.78
11/8/2022 10:15:00 AM 8.58 47.444 0.138 8.04 1.43 12.81
11/8/2022 10:30:00 AM 8.65 47.57 0.138 8.08 1.3 12.84
11/8/2022 10:45:00 AM 8.71 47.678 0.138 8.1 1.21 12.85
11/8/2022 11:00:00 AM 8.81 47.858 0.137 8.14 1.2 12.85
11/8/2022 11:15:00 AM 8.91 48.038 0.137 8.16 1.22 12.84
11/8/2022 11:30:00 AM 9.02 48.236 0.137 8.15 1.21 12.82
11/8/2022 11:45:00 AM 9.13 48.434 0.137 8.23 1.27 12.83
11/8/2022 12:00:00 PM 9.23 48.614 0.137 8.24 1.24 12.82
11/8/2022 12:15:00 PM 9.37 48.866 0.136 8.29 1.17 12.81
11/8/2022 12:30:00 PM 9.52 49.136 0.136 8.32 1.15 12.78
11/8/2022 12:45:00 PM 9.65 49.37 0.136 8.32 1.24 12.73
11/8/2022 1:00:00 PM 9.78 49.604 0.137 8.36 1.2 12.7
11/8/2022 1:15:00 PM 9.9 49.82 0.137 8.4 1.15 12.68
11/8/2022 1:30:00 PM 10.04 50.072 0.137 8.4 1.16 12.63
11/8/2022 1:45:00 PM 10.09 50.162 0.137 8.41 1.15 12.54
11/8/2022 2:00:00 PM 10.13 50.234 0.137 8.38 1.18 12.43
11/8/2022 2:15:00 PM 10.15 50.27 0.137 8.32 1.18 12.3
11/8/2022 2:30:00 PM 10.18 50.324 0.137 8.26 1.2 12.16
11/8/2022 2:45:00 PM 10.21 50.378 0.137 8.2 1.21 12.09
11/8/2022 3:00:00 PM 10.24 50.432 0.137 8.16 1.17 11.99
11/8/2022 3:15:00 PM 10.24 50.432 0.137 8.14 1.13 11.92
11/8/2022 3:30:00 PM 10.24 50.432 0.137 8.08 1.29 11.84
11/8/2022 3:45:00 PM 10.23 50.414 0.137 8.03 1.29 11.79
11/8/2022 4:00:00 PM 10.22 50.396 0.137 8.01 1.17 11.75
11/8/2022 4:15:00 PM 10.19 50.342 0.137 7.94 1.27 11.7
11/8/2022 4:30:00 PM 10.13 50.234 0.138 7.93 1.21 11.62
11/8/2022 4:45:00 PM 10.05 50.09 0.138 7.85 1.24 11.53
11/8/2022 5:00:00 PM 9.96 49.928 0.138 7.78 1.61 11.41
11/8/2022 5:15:00 PM 9.86 49.748 0.138 7.75 1.26 11.31
11/8/2022 5:30:00 PM 9.77 49.586 0.139 7.7 1.27 11.21
11/8/2022 5:45:00 PM 9.68 49.424 0.139 7.67 1.3 11.16
11/8/2022 6:00:00 PM 9.6 49.28 0.139 7.63 1.38 11.14
11/8/2022 6:15:00 PM 9.52 49.136 0.139 7.61 1.44 11.14
11/8/2022 6:30:00 PM 9.45 49.01 0.139 7.55 1.32 11.13
11/8/2022 6:45:00 PM 9.37 48.866 0.139 7.58 1.27 11.14
11/8/2022 7:00:00 PM 9.3 48.74 0.14 7.58 1.25 11.15
11/8/2022 7:15:00 PM 9.22 48.596 0.14 7.52 1.3 11.16
11/8/2022 7:30:00 PM 9.13 48.434 0.14 7.56 1.31 11.18
11/8/2022 7:45:00 PM 9.04 48.272 0.14 7.55 1.28 11.19
11/8/2022 8:00:00 PM 8.96 48.128 0.14 7.55 1.25 11.23
11/8/2022 8:15:00 PM 8.86 47.948 0.14 7.54 1.24 11.26
11/8/2022 8:30:00 PM 8.77 47.786 0.14 7.53 1.27 11.3
11/8/2022 8:45:00 PM 8.68 47.624 0.14 7.53 1.26 11.32
11/8/2022 9:00:00 PM 8.58 47.444 0.14 7.53 1.25 11.34
11/8/2022 9:15:00 PM 8.49 47.282 0.14 7.53 1.3 11.37
11/8/2022 9:30:00 PM 8.4 47.12 0.141 7.52 1.23 11.39
11/8/2022 9:45:00 PM 8.31 46.958 0.141 7.52 1.29 11.42
11/8/2022 10:00:00 PM 8.22 46.796 0.141 7.52 1.28 11.46
11/8/2022 10:15:00 PM 8.14 46.652 0.141 7.52 1.24 11.49
11/8/2022 10:30:00 PM 8.05 46.49 0.141 7.52 1.31 11.52
11/8/2022 10:45:00 PM 7.96 46.328 0.141 7.52 1.27 11.55
11/8/2022 11:00:00 PM 7.87 46.166 0.141 7.52 1.22 11.57
11/8/2022 11:15:00 PM 7.78 46.004 0.141 7.52 1.25 11.6
11/8/2022 11:30:00 PM 7.68 45.824 0.141 7.51 1.25 11.63
11/8/2022 11:45:00 PM 7.59 45.662 0.141 7.52 1.3 11.66
11/9/2022 12:00:00 AM 7.51 45.518 0.141 7.52 1.27 11.7
11/9/2022 12:15:00 AM 7.42 45.356 0.141 7.51 1.29 11.73
11/9/2022 12:30:00 AM 7.35 45.23 0.141 7.51 1.34 11.75
11/9/2022 12:45:00 AM 7.27 45.086 0.141 7.52 1.27 11.77
11/9/2022 1:00:00 AM 7.2 44.96 0.141 7.52 1.22 11.8
11/9/2022 1:15:00 AM 7.12 44.816 0.141 7.52 1.21 11.82
11/9/2022 1:30:00 AM 7.06 44.708 0.141 7.52 1.23 11.84
11/9/2022 1:45:00 AM 6.99 44.582 0.141 7.53 1.3 11.87
11/9/2022 2:00:00 AM 6.92 44.456 0.141 7.52 1.2 11.9
11/9/2022 2:15:00 AM 6.85 44.33 0.141 7.5 1.22 11.93
11/9/2022 2:30:00 AM 6.78 44.204 0.141 7.49 1.24 11.95
11/9/2022 2:45:00 AM 6.71 44.078 0.141 7.52 1.16 11.97
11/9/2022 3:00:00 AM 6.65 43.97 0.141 7.52 1.25 11.99
11/9/2022 3:15:00 AM 6.58 43.844 0.141 7.52 1.19 12
11/9/2022 3:30:00 AM 6.52 43.736 0.141 7.52 1.24 12.02
11/9/2022 3:45:00 AM 6.46 43.628 0.141 7.52 1.24 12.03
11/9/2022 4:00:00 AM 6.4 43.52 0.141 7.52 1.22 12.06
11/9/2022 4:15:00 AM 6.34 43.412 0.141 7.52 1.25 12.09
11/9/2022 4:30:00 AM 6.28 43.304 0.141 7.52 1.25 12.11
11/9/2022 4:45:00 AM 6.22 43.196 0.141 7.52 1.22 12.14
11/9/2022 5:00:00 AM 6.16 43.088 0.141 7.52 1.19 12.15
11/9/2022 5:15:00 AM 6.11 42.998 0.141 7.52 1.19 12.18
11/9/2022 5:30:00 AM 6.05 42.89 0.141 7.52 1.25 12.2
11/9/2022 5:45:00 AM 6 42.8 0.141 7.52 1.3 12.2
11/9/2022 6:00:00 AM 5.94 42.692 0.141 7.47 1.25 12.21
11/9/2022 6:15:00 AM 5.89 42.602 0.141 7.52 1.17 12.23
11/9/2022 6:30:00 AM 5.84 42.512 0.141 7.53 1.31 12.24
11/9/2022 6:45:00 AM 5.79 42.422 0.141 7.52 1.27 12.28
11/9/2022 7:00:00 AM 5.74 42.332 0.141 7.53 1.23 12.34
11/9/2022 7:15:00 AM 5.7 42.26 0.141 7.53 1.34 12.43
11/9/2022 7:30:00 AM 5.66 42.188 0.14 7.57 1.48 12.56
11/9/2022 7:45:00 AM 5.62 42.116 0.14 7.58 1.23 12.67
11/9/2022 8:00:00 AM 5.6 42.08 0.14 7.61 1.39 12.78
11/9/2022 8:15:00 AM 5.57 42.026 0.14 7.64 1.22 12.88
11/9/2022 8:30:00 AM 5.55 41.99 0.14 7.65 1.24 12.98
11/9/2022 8:45:00 AM 5.58 42.044 0.139 7.7 1.21 13.15
11/9/2022 9:00:00 AM 5.61 42.098 0.139 7.73 1.19 13.26
11/9/2022 9:15:00 AM 5.65 42.17 0.139 7.79 1.25 13.35
11/9/2022 9:30:00 AM 5.69 42.242 0.139 7.82 1.23 13.41
11/9/2022 9:45:00 AM 5.76 42.368 0.139 7.85 1.23 13.46
11/9/2022 10:00:00 AM 5.83 42.494 0.139 7.88 1.19 13.48
11/9/2022 10:15:00 AM 5.92 42.656 0.138 7.91 1.19 13.5
11/9/2022 10:30:00 AM 6 42.8 0.138 7.94 1.21 13.53
11/9/2022 10:45:00 AM 6.11 42.998 0.138 7.97 1.18 13.54
11/9/2022 11:00:00 AM 6.24 43.232 0.138 7.99 1.16 13.54
11/9/2022 11:15:00 AM 6.39 43.502 0.138 8.03 1.18 13.5
11/9/2022 11:30:00 AM 6.54 43.772 0.138 8.05 1.15 13.47
11/9/2022 11:45:00 AM 6.7 44.06 0.137 8.09 1.14 13.48
11/9/2022 12:00:00 PM 6.86 44.348 0.137 8.11 1.16 13.44
11/9/2022 12:15:00 PM 7.03 44.654 0.137 8.14 1.11 13.41
11/9/2022 12:30:00 PM 7.2 44.96 0.137 8.16 1.19 13.36
11/9/2022 12:45:00 PM 7.38 45.284 0.137 8.2 1.14 13.33
11/9/2022 1:00:00 PM 7.55 45.59 0.137 8.23 1.17 13.29
11/9/2022 1:15:00 PM 7.68 45.824 0.137 8.25 1.17 13.2
11/9/2022 1:30:00 PM 7.89 46.202 0.137 8.28 1.15 13.18
11/9/2022 1:45:00 PM 7.99 46.382 0.137 8.3 1.12 13.13
11/9/2022 2:00:00 PM 8.08 46.544 0.137 8.26 1.21 13.04
11/9/2022 2:15:00 PM 8.16 46.688 0.136 8.27 1.14 12.98
11/9/2022 2:30:00 PM 8.25 46.85 0.136 8.29 1.17 12.94
11/9/2022 2:45:00 PM 8.37 47.066 0.136 8.34 1.14 12.91
11/9/2022 3:00:00 PM 8.44 47.192 0.137 8.35 1.18 12.87
11/9/2022 3:15:00 PM 8.5 47.3 0.137 8.36 1.19 12.84
11/9/2022 3:30:00 PM 8.55 47.39 0.137 8.35 1.22 12.82
11/9/2022 3:45:00 PM 8.56 47.408 0.137 8.32 1.21 12.72
11/9/2022 4:00:00 PM 8.55 47.39 0.137 8.19 1.21 12.54
11/9/2022 4:15:00 PM 8.54 47.372 0.137 8.14 1.18 12.38
11/9/2022 4:30:00 PM 8.49 47.282 0.137 8.05 1.21 12.22
11/9/2022 4:45:00 PM 8.41 47.138 0.138 7.95 1.28 12.07
11/9/2022 5:00:00 PM 8.32 46.976 0.138 7.86 1.24 11.93
11/9/2022 5:15:00 PM 8.23 46.814 0.139 7.8 1.25 11.82
11/9/2022 5:30:00 PM 8.15 46.67 0.139 7.75 1.27 11.73
11/9/2022 5:45:00 PM 8.07 46.526 0.139 7.69 1.26 11.67
11/9/2022 6:00:00 PM 8 46.4 0.139 7.69 1.25 11.64
11/9/2022 6:15:00 PM 7.93 46.274 0.139 7.65 1.28 11.6
11/9/2022 6:30:00 PM 7.87 46.166 0.139 7.63 1.25 11.59
11/9/2022 6:45:00 PM 7.8 46.04 0.139 7.59 1.27 11.58
11/9/2022 7:00:00 PM 7.74 45.932 0.139 7.6 1.29 11.58
11/9/2022 7:15:00 PM 7.68 45.824 0.139 7.59 1.24 11.6
11/9/2022 7:30:00 PM 7.62 45.716 0.139 7.58 1.32 11.62
11/9/2022 7:45:00 PM 7.57 45.626 0.139 7.58 1.36 11.63
11/9/2022 8:00:00 PM 7.51 45.518 0.139 7.54 1.52 11.65
11/9/2022 8:15:00 PM 7.46 45.428 0.139 7.57 1.37 11.66
11/9/2022 8:30:00 PM 7.41 45.338 0.139 7.57 1.44 11.68
11/9/2022 8:45:00 PM 7.35 45.23 0.14 7.56 1.31 11.7
11/9/2022 9:00:00 PM 7.29 45.122 0.14 7.55 1.24 11.72
11/9/2022 9:15:00 PM 7.23 45.014 0.14 7.52 1.28 11.73
11/9/2022 9:30:00 PM 7.17 44.906 0.14 7.54 1.24 11.74
11/9/2022 9:45:00 PM 7.11 44.798 0.14 7.54 1.32 11.76
11/9/2022 10:00:00 PM 7.04 44.672 0.14 7.54 1.23 11.78
11/9/2022 10:15:00 PM 6.98 44.564 0.14 7.54 1.35 11.81
11/9/2022 10:30:00 PM 6.92 44.456 0.14 7.5 1.34 11.83
11/9/2022 10:45:00 PM 6.85 44.33 0.14 7.54 1.22 11.86
11/9/2022 11:00:00 PM 6.79 44.222 0.14 7.54 1.31 11.88
11/9/2022 11:15:00 PM 6.72 44.096 0.14 7.53 1.25 11.89
11/9/2022 11:30:00 PM 6.66 43.988 0.14 7.54 1.26 11.92
11/9/2022 11:45:00 PM 6.59 43.862 0.14 7.54 1.28 11.93
11/10/2022 12:00:00 AM 6.53 43.754 0.14 7.54 1.28 11.94
11/10/2022 12:15:00 AM 6.46 43.628 0.14 7.54 1.2 11.97
11/10/2022 12:30:00 AM 6.4 43.52 0.14 7.51 1.26 12
11/10/2022 12:45:00 AM 6.33 43.394 0.14 7.53 1.25 12.03
11/10/2022 1:00:00 AM 6.27 43.286 0.14 7.53 1.27 12.05
11/10/2022 1:15:00 AM 6.21 43.178 0.14 7.53 1.33 12.07
11/10/2022 1:30:00 AM 6.15 43.07 0.14 7.52 1.3 12.09
11/10/2022 1:45:00 AM 6.09 42.962 0.141 7.53 1.24 12.11
11/10/2022 2:00:00 AM 6.03 42.854 0.141 7.53 1.47 12.13
11/10/2022 2:15:00 AM 5.98 42.764 0.141 7.53 1.45 12.14
11/10/2022 2:30:00 AM 5.93 42.674 0.141 7.53 1.31 12.15
11/10/2022 2:45:00 AM 5.88 42.584 0.141 7.52 1.37 12.16
11/10/2022 3:00:00 AM 5.83 42.494 0.14 7.52 1.36 12.18
11/10/2022 3:15:00 AM 5.78 42.404 0.14 7.52 1.27 12.2
11/10/2022 3:30:00 AM 5.73 42.314 0.14 7.48 1.32 12.22
11/10/2022 3:45:00 AM 5.69 42.242 0.14 7.52 1.27 12.23
11/10/2022 4:00:00 AM 5.64 42.152 0.14 7.52 1.34 12.26
11/10/2022 4:15:00 AM 5.59 42.062 0.14 7.53 1.26 12.27
11/10/2022 4:30:00 AM 5.55 41.99 0.14 7.52 1.3 12.29
11/10/2022 4:45:00 AM 5.51 41.918 0.14 7.52 1.22 12.3
11/10/2022 5:00:00 AM 5.47 41.846 0.14 7.52 1.27 12.32
11/10/2022 5:15:00 AM 5.43 41.774 0.14 7.52 1.2 12.33
11/10/2022 5:30:00 AM 5.39 41.702 0.14 7.53 1.26 12.34
11/10/2022 5:45:00 AM 5.35 41.63 0.14 7.52 1.21 12.36
11/10/2022 6:00:00 AM 5.31 41.558 0.14 7.52 1.23 12.37
11/10/2022 6:15:00 AM 5.28 41.504 0.14 7.52 1.27 12.37
11/10/2022 6:30:00 AM 5.25 41.45 0.14 7.53 1.26 12.37
11/10/2022 6:45:00 AM 5.21 41.378 0.14 7.54 1.26 12.4
11/10/2022 7:00:00 AM 5.18 41.324 0.14 7.54 1.22 12.45
11/10/2022 7:15:00 AM 5.15 41.27 0.14 7.55 1.26 12.54
11/10/2022 7:30:00 AM 5.13 41.234 0.14 7.56 1.22 12.66
11/10/2022 7:45:00 AM 5.11 41.198 0.14 7.59 1.27 12.77
11/10/2022 8:00:00 AM 5.09 41.162 0.14 7.55 1.23 12.88
11/10/2022 8:15:00 AM 5.09 41.162 0.14 7.61 1.2 12.98
11/10/2022 8:30:00 AM 5.08 41.144 0.139 7.65 1.24 13.08
11/10/2022 8:45:00 AM 5.12 41.216 0.139